<?xml version='1.0' encoding='UTF-8'?><gpx version="1.1" creator="JPX - https://github.com/jenetics/jpx" xmlns="http://www.topografix.com/GPX/1/1"><trk><trkseg><trkpt lat="45.6251268" lon="9.032927"><ele>215.0</ele><time>2026-04-03T11:19:07.05Z</time></trkpt><trkpt lat="45.6251895" lon="9.0329425"><ele>215.0</ele><time>2026-04-03T11:19:11Z</time></trkpt><trkpt lat="45.6252556" lon="9.0329637"><ele>215.0</ele><time>2026-04-03T11:19:15.051Z</time></trkpt><trkpt lat="45.6253189" lon="9.0329872"><ele>215.0</ele><time>2026-04-03T11:19:22.066Z</time></trkpt><trkpt lat="45.6253879" lon="9.0329805"><ele>215.0</ele><time>2026-04-03T11:19:28Z</time></trkpt><trkpt lat="45.6254712" lon="9.0330037"><ele>215.0</ele><time>2026-04-03T11:19:32.038Z</time></trkpt><trkpt lat="45.6255591" lon="9.0330129"><ele>215.0</ele><time>2026-04-03T11:19:35Z</time></trkpt><trkpt lat="45.6256333" lon="9.0329917"><ele>215.50000000000003</ele><time>2026-04-03T11:19:38Z</time></trkpt><trkpt lat="45.6257083" lon="9.03301"><ele>216.0</ele><time>2026-04-03T11:19:42Z</time></trkpt><trkpt lat="45.6257767" lon="9.033025"><ele>216.5</ele><time>2026-04-03T11:19:45.001Z</time></trkpt><trkpt lat="45.62585" lon="9.0330417"><ele>217.0</ele><time>2026-04-03T11:19:48.001Z</time></trkpt><trkpt lat="45.62593" lon="9.0330583"><ele>217.50000000000003</ele><time>2026-04-03T11:19:50Z</time></trkpt><trkpt lat="45.6259617" lon="9.033145"><ele>218.0</ele><time>2026-04-03T11:19:54Z</time></trkpt><trkpt lat="45.626055" lon="9.0331833"><ele>218.00000000000003</ele><time>2026-04-03T11:20:21Z</time></trkpt><trkpt lat="45.62613" lon="9.033175"><ele>218.0</ele><time>2026-04-03T11:20:26Z</time></trkpt><trkpt lat="45.6262167" lon="9.033195"><ele>218.0</ele><time>2026-04-03T11:20:30Z</time></trkpt><trkpt lat="45.626285" lon="9.033195"><ele>218.0</ele><time>2026-04-03T11:20:34Z</time></trkpt><trkpt lat="45.62636" lon="9.0332"><ele>218.00000000000003</ele><time>2026-04-03T11:20:37Z</time></trkpt><trkpt lat="45.6264467" lon="9.033215"><ele>218.0</ele><time>2026-04-03T11:20:40Z</time></trkpt><trkpt lat="45.6265217" lon="9.033235"><ele>218.16666666666669</ele><time>2026-04-03T11:20:43.001Z</time></trkpt><trkpt lat="45.626595" lon="9.0332333"><ele>218.33333333333334</ele><time>2026-04-03T11:20:47.001Z</time></trkpt><trkpt lat="45.6266783" lon="9.0332517"><ele>218.5</ele><time>2026-04-03T11:20:50.001Z</time></trkpt><trkpt lat="45.6267617" lon="9.0332717"><ele>218.66666666666669</ele><time>2026-04-03T11:20:53.001Z</time></trkpt><trkpt lat="45.6268517" lon="9.0332917"><ele>218.83333333333334</ele><time>2026-04-03T11:20:56Z</time></trkpt><trkpt lat="45.6269317" lon="9.03331"><ele>219.0</ele><time>2026-04-03T11:20:59Z</time></trkpt><trkpt lat="45.6270067" lon="9.0333267"><ele>219.0</ele><time>2026-04-03T11:21:03Z</time></trkpt><trkpt lat="45.62709" lon="9.0333417"><ele>219.0</ele><time>2026-04-03T11:21:06.001Z</time></trkpt><trkpt lat="45.6271683" lon="9.033315"><ele>219.0</ele><time>2026-04-03T11:21:09.001Z</time></trkpt><trkpt lat="45.62725" lon="9.033305"><ele>219.0</ele><time>2026-04-03T11:21:12Z</time></trkpt><trkpt lat="45.627335" lon="9.0333233"><ele>219.0</ele><time>2026-04-03T11:21:15Z</time></trkpt><trkpt lat="45.6274317" lon="9.033345"><ele>219.0</ele><time>2026-04-03T11:21:18Z</time></trkpt><trkpt lat="45.6275217" lon="9.0333717"><ele>219.0</ele><time>2026-04-03T11:21:21Z</time></trkpt><trkpt lat="45.6276167" lon="9.0333933"><ele>219.0</ele><time>2026-04-03T11:21:25Z</time></trkpt><trkpt lat="45.62769" lon="9.03341"><ele>219.0</ele><time>2026-04-03T11:21:28.001Z</time></trkpt><trkpt lat="45.6277567" lon="9.0334317"><ele>219.0</ele><time>2026-04-03T11:21:31Z</time></trkpt><trkpt lat="45.6278533" lon="9.0334533"><ele>219.0</ele><time>2026-04-03T11:21:34Z</time></trkpt><trkpt lat="45.6279383" lon="9.0334833"><ele>219.0</ele><time>2026-04-03T11:21:37.001Z</time></trkpt><trkpt lat="45.627965" lon="9.0335733"><ele>218.83333333333334</ele><time>2026-04-03T11:21:40Z</time></trkpt><trkpt lat="45.62795" lon="9.0336783"><ele>218.66666666666669</ele><time>2026-04-03T11:21:42.001Z</time></trkpt><trkpt lat="45.627935" lon="9.0337967"><ele>218.5</ele><time>2026-04-03T11:21:45Z</time></trkpt><trkpt lat="45.6279133" lon="9.033915"><ele>218.33333333333334</ele><time>2026-04-03T11:21:48Z</time></trkpt><trkpt lat="45.62791" lon="9.034025"><ele>218.16666666666669</ele><time>2026-04-03T11:21:51Z</time></trkpt><trkpt lat="45.627915" lon="9.0341233"><ele>218.0</ele><time>2026-04-03T11:21:53Z</time></trkpt><trkpt lat="45.627935" lon="9.0342333"><ele>218.0</ele><time>2026-04-03T11:21:56Z</time></trkpt><trkpt lat="45.6279817" lon="9.0343117"><ele>218.0</ele><time>2026-04-03T11:21:59Z</time></trkpt><trkpt lat="45.6280533" lon="9.03434"><ele>218.0</ele><time>2026-04-03T11:22:02Z</time></trkpt><trkpt lat="45.62811" lon="9.034385"><ele>218.0</ele><time>2026-04-03T11:22:05Z</time></trkpt><trkpt lat="45.62817" lon="9.0344333"><ele>218.0</ele><time>2026-04-03T11:22:07Z</time></trkpt><trkpt lat="45.6282483" lon="9.034465"><ele>218.0</ele><time>2026-04-03T11:22:09Z</time></trkpt><trkpt lat="45.6282933" lon="9.034545"><ele>218.0</ele><time>2026-04-03T11:22:11Z</time></trkpt><trkpt lat="45.6283617" lon="9.0345883"><ele>218.00000000000003</ele><time>2026-04-03T11:22:13Z</time></trkpt><trkpt lat="45.6284117" lon="9.03472"><ele>218.0</ele><time>2026-04-03T11:22:16Z</time></trkpt><trkpt lat="45.6284283" lon="9.034815"><ele>218.0</ele><time>2026-04-03T11:22:18Z</time></trkpt><trkpt lat="45.62845" lon="9.0349083"><ele>218.0</ele><time>2026-04-03T11:22:20Z</time></trkpt><trkpt lat="45.62847" lon="9.0350283"><ele>218.00000000000003</ele><time>2026-04-03T11:22:22Z</time></trkpt><trkpt lat="45.62855" lon="9.0351033"><ele>218.0</ele><time>2026-04-03T11:22:25Z</time></trkpt><trkpt lat="45.628595" lon="9.0352"><ele>217.83333333333334</ele><time>2026-04-03T11:22:27Z</time></trkpt><trkpt lat="45.628645" lon="9.0352867"><ele>217.66666666666669</ele><time>2026-04-03T11:22:29Z</time></trkpt><trkpt lat="45.6286817" lon="9.03537"><ele>217.5</ele><time>2026-04-03T11:22:31Z</time></trkpt><trkpt lat="45.6287017" lon="9.0354667"><ele>217.33333333333331</ele><time>2026-04-03T11:22:33Z</time></trkpt><trkpt lat="45.6287617" lon="9.035575"><ele>217.16666666666666</ele><time>2026-04-03T11:22:36.001Z</time></trkpt><trkpt lat="45.6287833" lon="9.035685"><ele>217.0</ele><time>2026-04-03T11:22:38Z</time></trkpt><trkpt lat="45.62883" lon="9.03582"><ele>216.83333333333331</ele><time>2026-04-03T11:22:40Z</time></trkpt><trkpt lat="45.6288867" lon="9.035915"><ele>216.66666666666666</ele><time>2026-04-03T11:22:42Z</time></trkpt><trkpt lat="45.6289317" lon="9.0360067"><ele>216.5</ele><time>2026-04-03T11:22:44Z</time></trkpt><trkpt lat="45.6289683" lon="9.036105"><ele>216.33333333333331</ele><time>2026-04-03T11:22:46.001Z</time></trkpt><trkpt lat="45.62901" lon="9.0361933"><ele>216.16666666666666</ele><time>2026-04-03T11:22:48.001Z</time></trkpt><trkpt lat="45.6290667" lon="9.0362733"><ele>216.0</ele><time>2026-04-03T11:22:51Z</time></trkpt><trkpt lat="45.6290983" lon="9.0363517"><ele>216.0</ele><time>2026-04-03T11:22:53Z</time></trkpt><trkpt lat="45.6291467" lon="9.03646"><ele>216.00000000000003</ele><time>2026-04-03T11:22:56Z</time></trkpt><trkpt lat="45.6291833" lon="9.0365783"><ele>216.00000000000003</ele><time>2026-04-03T11:22:58Z</time></trkpt><trkpt lat="45.6292283" lon="9.0367133"><ele>216.0</ele><time>2026-04-03T11:23:00Z</time></trkpt><trkpt lat="45.629285" lon="9.0368117"><ele>216.0</ele><time>2026-04-03T11:23:02Z</time></trkpt><trkpt lat="45.629325" lon="9.0369133"><ele>216.0</ele><time>2026-04-03T11:23:04Z</time></trkpt><trkpt lat="45.62936" lon="9.0370167"><ele>216.0</ele><time>2026-04-03T11:23:06Z</time></trkpt><trkpt lat="45.6293983" lon="9.0371067"><ele>216.0</ele><time>2026-04-03T11:23:08.001Z</time></trkpt><trkpt lat="45.6294517" lon="9.037155"><ele>216.0</ele><time>2026-04-03T11:23:10Z</time></trkpt><trkpt lat="45.629515" lon="9.0371733"><ele>216.0</ele><time>2026-04-03T11:23:12.001Z</time></trkpt><trkpt lat="45.6295867" lon="9.0371917"><ele>216.0</ele><time>2026-04-03T11:23:14Z</time></trkpt><trkpt lat="45.6296567" lon="9.0372067"><ele>216.0</ele><time>2026-04-03T11:23:16Z</time></trkpt><trkpt lat="45.62974" lon="9.037225"><ele>216.33333333333334</ele><time>2026-04-03T11:23:19Z</time></trkpt><trkpt lat="45.6298033" lon="9.0372567"><ele>216.66666666666669</ele><time>2026-04-03T11:23:21Z</time></trkpt><trkpt lat="45.6298767" lon="9.037285"><ele>217.0</ele><time>2026-04-03T11:23:23Z</time></trkpt><trkpt lat="45.6299383" lon="9.0373083"><ele>217.33333333333334</ele><time>2026-04-03T11:23:25Z</time></trkpt><trkpt lat="45.63001" lon="9.037325"><ele>217.66666666666669</ele><time>2026-04-03T11:23:27Z</time></trkpt><trkpt lat="45.6300817" lon="9.0373467"><ele>218.0</ele><time>2026-04-03T11:23:29Z</time></trkpt><trkpt lat="45.6301567" lon="9.037435"><ele>218.00000000000003</ele><time>2026-04-03T11:23:32Z</time></trkpt><trkpt lat="45.6302317" lon="9.0374667"><ele>218.0</ele><time>2026-04-03T11:23:34Z</time></trkpt><trkpt lat="45.6303067" lon="9.0374983"><ele>218.0</ele><time>2026-04-03T11:23:37Z</time></trkpt><trkpt lat="45.6303967" lon="9.03746"><ele>218.0</ele><time>2026-04-03T11:23:40Z</time></trkpt><trkpt lat="45.630485" lon="9.03747"><ele>218.00000000000003</ele><time>2026-04-03T11:23:43.001Z</time></trkpt><trkpt lat="45.630545" lon="9.0375267"><ele>218.0</ele><time>2026-04-03T11:23:45.001Z</time></trkpt><trkpt lat="45.630595" lon="9.0375983"><ele>217.83333333333334</ele><time>2026-04-03T11:23:47Z</time></trkpt><trkpt lat="45.6306533" lon="9.037695"><ele>217.66666666666669</ele><time>2026-04-03T11:23:50.001Z</time></trkpt><trkpt lat="45.630685" lon="9.0377917"><ele>217.5</ele><time>2026-04-03T11:23:52Z</time></trkpt><trkpt lat="45.63072" lon="9.03789"><ele>217.33333333333331</ele><time>2026-04-03T11:23:54Z</time></trkpt><trkpt lat="45.6307733" lon="9.0379983"><ele>217.16666666666666</ele><time>2026-04-03T11:23:57.001Z</time></trkpt><trkpt lat="45.63081" lon="9.0381033"><ele>217.0</ele><time>2026-04-03T11:23:59Z</time></trkpt><trkpt lat="45.63086" lon="9.038185"><ele>216.99999999999997</ele><time>2026-04-03T11:24:01Z</time></trkpt><trkpt lat="45.6309017" lon="9.0382917"><ele>217.0</ele><time>2026-04-03T11:24:03Z</time></trkpt><trkpt lat="45.6309367" lon="9.038375"><ele>217.0</ele><time>2026-04-03T11:24:05Z</time></trkpt><trkpt lat="45.6309833" lon="9.03846"><ele>217.0</ele><time>2026-04-03T11:24:07Z</time></trkpt><trkpt lat="45.631025" lon="9.03855"><ele>216.99999999999997</ele><time>2026-04-03T11:24:09Z</time></trkpt><trkpt lat="45.6310683" lon="9.0386367"><ele>217.0</ele><time>2026-04-03T11:24:11Z</time></trkpt><trkpt lat="45.6311" lon="9.0387283"><ele>217.16666666666666</ele><time>2026-04-03T11:24:13Z</time></trkpt><trkpt lat="45.631145" lon="9.038805"><ele>217.33333333333331</ele><time>2026-04-03T11:24:15Z</time></trkpt><trkpt lat="45.6311883" lon="9.03888"><ele>217.5</ele><time>2026-04-03T11:24:17.001Z</time></trkpt><trkpt lat="45.6312117" lon="9.038995"><ele>217.66666666666669</ele><time>2026-04-03T11:24:19Z</time></trkpt><trkpt lat="45.63124" lon="9.0390917"><ele>217.83333333333334</ele><time>2026-04-03T11:24:21.001Z</time></trkpt><trkpt lat="45.63128" lon="9.039195"><ele>218.0</ele><time>2026-04-03T11:24:24.001Z</time></trkpt><trkpt lat="45.631325" lon="9.0392767"><ele>218.00000000000003</ele><time>2026-04-03T11:24:26Z</time></trkpt><trkpt lat="45.6313883" lon="9.0393683"><ele>218.0</ele><time>2026-04-03T11:24:28Z</time></trkpt><trkpt lat="45.631435" lon="9.0394483"><ele>218.0</ele><time>2026-04-03T11:24:30Z</time></trkpt><trkpt lat="45.6314667" lon="9.0395517"><ele>218.0</ele><time>2026-04-03T11:24:32.001Z</time></trkpt><trkpt lat="45.6315" lon="9.0396467"><ele>218.00000000000003</ele><time>2026-04-03T11:24:34Z</time></trkpt><trkpt lat="45.6315733" lon="9.0397433"><ele>218.0</ele><time>2026-04-03T11:24:37Z</time></trkpt><trkpt lat="45.6316267" lon="9.0398083"><ele>218.0</ele><time>2026-04-03T11:24:39.001Z</time></trkpt><trkpt lat="45.6316717" lon="9.039885"><ele>218.0</ele><time>2026-04-03T11:24:41.001Z</time></trkpt><trkpt lat="45.6317183" lon="9.0399483"><ele>218.0</ele><time>2026-04-03T11:24:43.001Z</time></trkpt><trkpt lat="45.6317867" lon="9.0399817"><ele>218.0</ele><time>2026-04-03T11:24:45Z</time></trkpt><trkpt lat="45.6318517" lon="9.039995"><ele>218.0</ele><time>2026-04-03T11:24:47.001Z</time></trkpt><trkpt lat="45.6319217" lon="9.0400117"><ele>218.0</ele><time>2026-04-03T11:24:50.001Z</time></trkpt><trkpt lat="45.6319867" lon="9.0400267"><ele>218.0</ele><time>2026-04-03T11:24:52.001Z</time></trkpt><trkpt lat="45.6320867" lon="9.0400483"><ele>218.2</ele><time>2026-04-03T11:24:55.001Z</time></trkpt><trkpt lat="45.6321517" lon="9.0400633"><ele>218.4</ele><time>2026-04-03T11:24:57Z</time></trkpt><trkpt lat="45.63227" lon="9.040065"><ele>218.59999999999997</ele><time>2026-04-03T11:25:00.001Z</time></trkpt><trkpt lat="45.6323683" lon="9.0400883"><ele>218.79999999999998</ele><time>2026-04-03T11:25:03Z</time></trkpt><trkpt lat="45.6324717" lon="9.0401117"><ele>219.0</ele><time>2026-04-03T11:25:06Z</time></trkpt><trkpt lat="45.632535" lon="9.040125"><ele>219.0</ele><time>2026-04-03T11:25:08Z</time></trkpt><trkpt lat="45.632665" lon="9.040155"><ele>218.99999999999997</ele><time>2026-04-03T11:25:11.001Z</time></trkpt><trkpt lat="45.6327917" lon="9.0401833"><ele>218.99999999999997</ele><time>2026-04-03T11:25:16.001Z</time></trkpt><trkpt lat="45.6328617" lon="9.0401983"><ele>219.0</ele><time>2026-04-03T11:25:18.001Z</time></trkpt><trkpt lat="45.6329383" lon="9.0402167"><ele>219.0</ele><time>2026-04-03T11:25:19Z</time></trkpt><trkpt lat="45.632995" lon="9.040165"><ele>219.16666666666666</ele><time>2026-04-03T11:25:22Z</time></trkpt><trkpt lat="45.633105" lon="9.04019"><ele>219.33333333333331</ele><time>2026-04-03T11:25:25Z</time></trkpt><trkpt lat="45.633175" lon="9.040205"><ele>219.5</ele><time>2026-04-03T11:25:26Z</time></trkpt><trkpt lat="45.63326" lon="9.040225"><ele>219.66666666666666</ele><time>2026-04-03T11:25:29Z</time></trkpt><trkpt lat="45.6333267" lon="9.04024"><ele>219.83333333333331</ele><time>2026-04-03T11:25:31Z</time></trkpt><trkpt lat="45.6333917" lon="9.0402383"><ele>220.0</ele><time>2026-04-03T11:25:35.001Z</time></trkpt><trkpt lat="45.6334833" lon="9.04026"><ele>219.99999999999997</ele><time>2026-04-03T11:25:37Z</time></trkpt><trkpt lat="45.6335683" lon="9.0402467"><ele>220.0</ele><time>2026-04-03T11:25:39Z</time></trkpt><trkpt lat="45.6336517" lon="9.0402233"><ele>220.0</ele><time>2026-04-03T11:25:41Z</time></trkpt><trkpt lat="45.633745" lon="9.0401983"><ele>220.0</ele><time>2026-04-03T11:25:44Z</time></trkpt><trkpt lat="45.6338467" lon="9.0401933"><ele>219.99999999999997</ele><time>2026-04-03T11:25:47.001Z</time></trkpt><trkpt lat="45.63391" lon="9.0401583"><ele>220.0</ele><time>2026-04-03T11:25:50.002Z</time></trkpt><trkpt lat="45.634015" lon="9.0401817"><ele>219.83333333333331</ele><time>2026-04-03T11:25:52.001Z</time></trkpt><trkpt lat="45.6340883" lon="9.0401833"><ele>219.66666666666666</ele><time>2026-04-03T11:25:55.001Z</time></trkpt><trkpt lat="45.6341683" lon="9.040175"><ele>219.5</ele><time>2026-04-03T11:25:57.001Z</time></trkpt><trkpt lat="45.6342617" lon="9.040165"><ele>219.33333333333331</ele><time>2026-04-03T11:26:00.001Z</time></trkpt><trkpt lat="45.634345" lon="9.04018"><ele>219.16666666666666</ele><time>2026-04-03T11:26:02.001Z</time></trkpt><trkpt lat="45.6344217" lon="9.0401633"><ele>219.0</ele><time>2026-04-03T11:26:04.001Z</time></trkpt><trkpt lat="45.6344933" lon="9.04018"><ele>219.0</ele><time>2026-04-03T11:26:06.001Z</time></trkpt><trkpt lat="45.6345583" lon="9.0401883"><ele>219.0</ele><time>2026-04-03T11:26:08.001Z</time></trkpt><trkpt lat="45.6346283" lon="9.0402033"><ele>219.0</ele><time>2026-04-03T11:26:10.002Z</time></trkpt><trkpt lat="45.6347167" lon="9.0402233"><ele>219.0</ele><time>2026-04-03T11:26:13.002Z</time></trkpt><trkpt lat="45.6348167" lon="9.0402467"><ele>219.0</ele><time>2026-04-03T11:26:16.002Z</time></trkpt><trkpt lat="45.634905" lon="9.0402667"><ele>219.0</ele><time>2026-04-03T11:26:19.001Z</time></trkpt><trkpt lat="45.6349817" lon="9.0402833"><ele>219.0</ele><time>2026-04-03T11:26:21.002Z</time></trkpt><trkpt lat="45.6350583" lon="9.0402867"><ele>219.0</ele><time>2026-04-03T11:26:23.001Z</time></trkpt><trkpt lat="45.6351567" lon="9.040285"><ele>219.0</ele><time>2026-04-03T11:26:26.002Z</time></trkpt><trkpt lat="45.635225" lon="9.040285"><ele>219.0</ele><time>2026-04-03T11:26:28.001Z</time></trkpt><trkpt lat="45.6352933" lon="9.0402933"><ele>219.0</ele><time>2026-04-03T11:26:30.001Z</time></trkpt><trkpt lat="45.63537" lon="9.0402817"><ele>219.0</ele><time>2026-04-03T11:26:32.001Z</time></trkpt><trkpt lat="45.6354383" lon="9.040275"><ele>219.14285714285714</ele><time>2026-04-03T11:26:34.001Z</time></trkpt><trkpt lat="45.6355183" lon="9.040255"><ele>219.28571428571428</ele><time>2026-04-03T11:26:36.002Z</time></trkpt><trkpt lat="45.6355983" lon="9.0402383"><ele>219.42857142857142</ele><time>2026-04-03T11:26:38.001Z</time></trkpt><trkpt lat="45.6356767" lon="9.0402367"><ele>219.57142857142856</ele><time>2026-04-03T11:26:40.001Z</time></trkpt><trkpt lat="45.63574" lon="9.04024"><ele>219.71428571428572</ele><time>2026-04-03T11:26:42.001Z</time></trkpt><trkpt lat="45.6358083" lon="9.0402383"><ele>219.85714285714283</ele><time>2026-04-03T11:26:44.001Z</time></trkpt><trkpt lat="45.63588" lon="9.040255"><ele>220.0</ele><time>2026-04-03T11:26:46.001Z</time></trkpt><trkpt lat="45.6359583" lon="9.0402567"><ele>219.99999999999997</ele><time>2026-04-03T11:26:48.001Z</time></trkpt><trkpt lat="45.6360367" lon="9.0402533"><ele>220.0</ele><time>2026-04-03T11:26:50.002Z</time></trkpt><trkpt lat="45.6361167" lon="9.0402467"><ele>220.0</ele><time>2026-04-03T11:26:52.001Z</time></trkpt><trkpt lat="45.6362033" lon="9.0402417"><ele>220.0</ele><time>2026-04-03T11:26:54.001Z</time></trkpt><trkpt lat="45.6362833" lon="9.0402333"><ele>219.99999999999997</ele><time>2026-04-03T11:26:56.001Z</time></trkpt><trkpt lat="45.6363633" lon="9.04023"><ele>220.0</ele><time>2026-04-03T11:26:58.001Z</time></trkpt><trkpt lat="45.6364333" lon="9.04024"><ele>220.16666666666666</ele><time>2026-04-03T11:27:00.001Z</time></trkpt><trkpt lat="45.6365017" lon="9.0402483"><ele>220.33333333333331</ele><time>2026-04-03T11:27:02.001Z</time></trkpt><trkpt lat="45.6365767" lon="9.0402617"><ele>220.5</ele><time>2026-04-03T11:27:04.001Z</time></trkpt><trkpt lat="45.63665" lon="9.0402567"><ele>220.66666666666669</ele><time>2026-04-03T11:27:06.002Z</time></trkpt><trkpt lat="45.63673" lon="9.04025"><ele>220.83333333333334</ele><time>2026-04-03T11:27:08.001Z</time></trkpt><trkpt lat="45.6368067" lon="9.0402533"><ele>221.0</ele><time>2026-04-03T11:27:10.001Z</time></trkpt><trkpt lat="45.6368867" lon="9.0402567"><ele>221.00000000000003</ele><time>2026-04-03T11:27:12.001Z</time></trkpt><trkpt lat="45.6369667" lon="9.0402567"><ele>221.0</ele><time>2026-04-03T11:27:14.002Z</time></trkpt><trkpt lat="45.637045" lon="9.0402633"><ele>221.0</ele><time>2026-04-03T11:27:16.002Z</time></trkpt><trkpt lat="45.6371217" lon="9.04027"><ele>221.0</ele><time>2026-04-03T11:27:18.001Z</time></trkpt><trkpt lat="45.6371967" lon="9.0402667"><ele>221.0</ele><time>2026-04-03T11:27:20.001Z</time></trkpt><trkpt lat="45.6372667" lon="9.0402617"><ele>221.00000000000003</ele><time>2026-04-03T11:27:22.001Z</time></trkpt><trkpt lat="45.6373317" lon="9.0402767"><ele>221.0</ele><time>2026-04-03T11:27:24.001Z</time></trkpt><trkpt lat="45.6374" lon="9.0402917"><ele>221.33333333333334</ele><time>2026-04-03T11:27:26.002Z</time></trkpt><trkpt lat="45.637485" lon="9.04031"><ele>221.66666666666669</ele><time>2026-04-03T11:27:29.001Z</time></trkpt><trkpt lat="45.63755" lon="9.040325"><ele>222.0</ele><time>2026-04-03T11:27:31.001Z</time></trkpt><trkpt lat="45.637645" lon="9.0403467"><ele>222.33333333333331</ele><time>2026-04-03T11:27:34.001Z</time></trkpt><trkpt lat="45.637715" lon="9.0403617"><ele>222.66666666666666</ele><time>2026-04-03T11:27:36.001Z</time></trkpt><trkpt lat="45.6377883" lon="9.0403783"><ele>223.0</ele><time>2026-04-03T11:27:38.001Z</time></trkpt><trkpt lat="45.637875" lon="9.0403983"><ele>223.0</ele><time>2026-04-03T11:27:40.002Z</time></trkpt><trkpt lat="45.6379433" lon="9.04039"><ele>223.0</ele><time>2026-04-03T11:27:43.001Z</time></trkpt><trkpt lat="45.6380333" lon="9.04041"><ele>223.0</ele><time>2026-04-03T11:27:45.001Z</time></trkpt><trkpt lat="45.6381233" lon="9.0404033"><ele>223.0</ele><time>2026-04-03T11:27:48.002Z</time></trkpt><trkpt lat="45.6382683" lon="9.0404367"><ele>223.0</ele><time>2026-04-03T11:27:51.002Z</time></trkpt><trkpt lat="45.63835" lon="9.04044"><ele>222.99999999999997</ele><time>2026-04-03T11:27:53.001Z</time></trkpt><trkpt lat="45.638445" lon="9.0403983"><ele>223.0</ele><time>2026-04-03T11:27:55.002Z</time></trkpt><trkpt lat="45.6385483" lon="9.04038"><ele>223.0</ele><time>2026-04-03T11:27:57.001Z</time></trkpt><trkpt lat="45.6386383" lon="9.04037"><ele>223.0</ele><time>2026-04-03T11:27:59.002Z</time></trkpt><trkpt lat="45.6387067" lon="9.0403667"><ele>222.99999999999997</ele><time>2026-04-03T11:28:01.002Z</time></trkpt><trkpt lat="45.63879" lon="9.0403867"><ele>223.0</ele><time>2026-04-03T11:28:04.001Z</time></trkpt><trkpt lat="45.6388667" lon="9.040385"><ele>222.66666666666666</ele><time>2026-04-03T11:28:09.002Z</time></trkpt><trkpt lat="45.638945" lon="9.0404217"><ele>222.33333333333331</ele><time>2026-04-03T11:28:12.001Z</time></trkpt><trkpt lat="45.6389933" lon="9.0404817"><ele>222.0</ele><time>2026-04-03T11:28:14.002Z</time></trkpt><trkpt lat="45.63903" lon="9.04057"><ele>221.66666666666669</ele><time>2026-04-03T11:28:16.001Z</time></trkpt><trkpt lat="45.639075" lon="9.0406917"><ele>221.33333333333334</ele><time>2026-04-03T11:28:19.001Z</time></trkpt><trkpt lat="45.63911" lon="9.0407833"><ele>221.0</ele><time>2026-04-03T11:28:21.002Z</time></trkpt><trkpt lat="45.6391467" lon="9.0408633"><ele>220.66666666666669</ele><time>2026-04-03T11:28:23.001Z</time></trkpt><trkpt lat="45.6391833" lon="9.040965"><ele>220.33333333333334</ele><time>2026-04-03T11:28:25.001Z</time></trkpt><trkpt lat="45.6392417" lon="9.0410733"><ele>220.0</ele><time>2026-04-03T11:28:28.001Z</time></trkpt><trkpt lat="45.6392883" lon="9.0411433"><ele>219.66666666666669</ele><time>2026-04-03T11:28:30.001Z</time></trkpt><trkpt lat="45.63933" lon="9.0412183"><ele>219.33333333333334</ele><time>2026-04-03T11:28:32.002Z</time></trkpt><trkpt lat="45.6393733" lon="9.0413283"><ele>219.0</ele><time>2026-04-03T11:28:34.002Z</time></trkpt><trkpt lat="45.6394033" lon="9.0414417"><ele>219.0</ele><time>2026-04-03T11:28:36.001Z</time></trkpt><trkpt lat="45.63945" lon="9.0415367"><ele>219.0</ele><time>2026-04-03T11:28:39.001Z</time></trkpt><trkpt lat="45.6394583" lon="9.0416683"><ele>219.0</ele><time>2026-04-03T11:28:42.001Z</time></trkpt><trkpt lat="45.6394833" lon="9.0417533"><ele>219.0</ele><time>2026-04-03T11:28:44.001Z</time></trkpt><trkpt lat="45.639505" lon="9.0418567"><ele>219.0</ele><time>2026-04-03T11:28:46.001Z</time></trkpt><trkpt lat="45.6395017" lon="9.04197"><ele>219.0</ele><time>2026-04-03T11:28:48.002Z</time></trkpt><trkpt lat="45.6395" lon="9.0420833"><ele>219.0</ele><time>2026-04-03T11:28:51.001Z</time></trkpt><trkpt lat="45.6395" lon="9.0421967"><ele>219.0</ele><time>2026-04-03T11:28:53.002Z</time></trkpt><trkpt lat="45.6395" lon="9.0423583"><ele>219.0</ele><time>2026-04-03T11:28:56.002Z</time></trkpt><trkpt lat="45.6395067" lon="9.0424733"><ele>219.0</ele><time>2026-04-03T11:28:58.002Z</time></trkpt><trkpt lat="45.6395117" lon="9.042585"><ele>219.0</ele><time>2026-04-03T11:29:00.001Z</time></trkpt><trkpt lat="45.6395183" lon="9.042685"><ele>219.0</ele><time>2026-04-03T11:29:02.001Z</time></trkpt><trkpt lat="45.6395283" lon="9.042795"><ele>219.5</ele><time>2026-04-03T11:29:04.001Z</time></trkpt><trkpt lat="45.6395733" lon="9.04289"><ele>220.0</ele><time>2026-04-03T11:29:07.002Z</time></trkpt><trkpt lat="45.639675" lon="9.0429133"><ele>220.5</ele><time>2026-04-03T11:29:10.001Z</time></trkpt><trkpt lat="45.6397533" lon="9.0429217"><ele>221.0</ele><time>2026-04-03T11:29:12.001Z</time></trkpt><trkpt lat="45.6398333" lon="9.0429233"><ele>221.5</ele><time>2026-04-03T11:29:14.001Z</time></trkpt><trkpt lat="45.63991" lon="9.042925"><ele>222.0</ele><time>2026-04-03T11:29:16.001Z</time></trkpt><trkpt lat="45.639985" lon="9.0429217"><ele>222.0</ele><time>2026-04-03T11:29:18.001Z</time></trkpt><trkpt lat="45.6400733" lon="9.0429133"><ele>222.0</ele><time>2026-04-03T11:29:20.001Z</time></trkpt><trkpt lat="45.6401583" lon="9.0429083"><ele>222.0</ele><time>2026-04-03T11:29:22.001Z</time></trkpt><trkpt lat="45.6402433" lon="9.042905"><ele>222.0</ele><time>2026-04-03T11:29:24.001Z</time></trkpt><trkpt lat="45.6403317" lon="9.0428967"><ele>222.0</ele><time>2026-04-03T11:29:26.001Z</time></trkpt><trkpt lat="45.6404267" lon="9.0429033"><ele>222.0</ele><time>2026-04-03T11:29:28.001Z</time></trkpt><trkpt lat="45.64053" lon="9.042885"><ele>222.33333333333334</ele><time>2026-04-03T11:29:30.002Z</time></trkpt><trkpt lat="45.6406183" lon="9.0428767"><ele>222.66666666666669</ele><time>2026-04-03T11:29:32.001Z</time></trkpt><trkpt lat="45.6407033" lon="9.0428533"><ele>223.0</ele><time>2026-04-03T11:29:34.002Z</time></trkpt><trkpt lat="45.6407883" lon="9.0428517"><ele>223.33333333333334</ele><time>2026-04-03T11:29:36.002Z</time></trkpt><trkpt lat="45.64086" lon="9.0428417"><ele>223.66666666666669</ele><time>2026-04-03T11:29:38.001Z</time></trkpt><trkpt lat="45.64093" lon="9.0428483"><ele>224.0</ele><time>2026-04-03T11:29:40.001Z</time></trkpt><trkpt lat="45.6410033" lon="9.042865"><ele>224.00000000000003</ele><time>2026-04-03T11:29:43.001Z</time></trkpt><trkpt lat="45.641085" lon="9.0428283"><ele>224.0</ele><time>2026-04-03T11:29:46.001Z</time></trkpt><trkpt lat="45.6411483" lon="9.0428"><ele>224.0</ele><time>2026-04-03T11:29:48.001Z</time></trkpt><trkpt lat="45.6412333" lon="9.042815"><ele>224.0</ele><time>2026-04-03T11:29:51.001Z</time></trkpt><trkpt lat="45.6413017" lon="9.042815"><ele>224.00000000000003</ele><time>2026-04-03T11:29:53.001Z</time></trkpt><trkpt lat="45.6413717" lon="9.0427683"><ele>224.0</ele><time>2026-04-03T11:29:55.001Z</time></trkpt><trkpt lat="45.641465" lon="9.042775"><ele>224.00000000000003</ele><time>2026-04-03T11:29:57.001Z</time></trkpt><trkpt lat="45.6415333" lon="9.042725"><ele>224.0</ele><time>2026-04-03T11:29:59.001Z</time></trkpt><trkpt lat="45.6416117" lon="9.04265"><ele>224.0</ele><time>2026-04-03T11:30:01.001Z</time></trkpt><trkpt lat="45.6416883" lon="9.0426067"><ele>224.0</ele><time>2026-04-03T11:30:03.001Z</time></trkpt><trkpt lat="45.641765" lon="9.042565"><ele>224.00000000000003</ele><time>2026-04-03T11:30:05.001Z</time></trkpt><trkpt lat="45.64184" lon="9.042525"><ele>224.0</ele><time>2026-04-03T11:30:07.001Z</time></trkpt><trkpt lat="45.64191" lon="9.042475"><ele>224.16666666666669</ele><time>2026-04-03T11:30:09.001Z</time></trkpt><trkpt lat="45.6419817" lon="9.0424283"><ele>224.33333333333334</ele><time>2026-04-03T11:30:11.001Z</time></trkpt><trkpt lat="45.6420533" lon="9.0423833"><ele>224.5</ele><time>2026-04-03T11:30:13.001Z</time></trkpt><trkpt lat="45.6421267" lon="9.04234"><ele>224.66666666666669</ele><time>2026-04-03T11:30:15.001Z</time></trkpt><trkpt lat="45.6422" lon="9.042305"><ele>224.83333333333334</ele><time>2026-04-03T11:30:17.002Z</time></trkpt><trkpt lat="45.6422783" lon="9.0422633"><ele>225.0</ele><time>2026-04-03T11:30:19.001Z</time></trkpt><trkpt lat="45.6423667" lon="9.04223"><ele>225.0</ele><time>2026-04-03T11:30:21.001Z</time></trkpt><trkpt lat="45.6424683" lon="9.04219"><ele>225.0</ele><time>2026-04-03T11:30:23.001Z</time></trkpt><trkpt lat="45.6425767" lon="9.0421467"><ele>225.0</ele><time>2026-04-03T11:30:25.001Z</time></trkpt><trkpt lat="45.6426783" lon="9.0421083"><ele>225.0</ele><time>2026-04-03T11:30:27.001Z</time></trkpt><trkpt lat="45.6427867" lon="9.04209"><ele>225.0</ele><time>2026-04-03T11:30:29.001Z</time></trkpt><trkpt lat="45.642895" lon="9.0420783"><ele>225.2</ele><time>2026-04-03T11:30:31.002Z</time></trkpt><trkpt lat="45.6429933" lon="9.0420683"><ele>225.4</ele><time>2026-04-03T11:30:33.001Z</time></trkpt><trkpt lat="45.6431" lon="9.0420417"><ele>225.60000000000002</ele><time>2026-04-03T11:30:35.001Z</time></trkpt><trkpt lat="45.6432133" lon="9.0420383"><ele>225.8</ele><time>2026-04-03T11:30:37.001Z</time></trkpt><trkpt lat="45.64332" lon="9.0420467"><ele>226.0</ele><time>2026-04-03T11:30:39.001Z</time></trkpt><trkpt lat="45.6434267" lon="9.04206"><ele>226.0</ele><time>2026-04-03T11:30:41.001Z</time></trkpt><trkpt lat="45.6435267" lon="9.0420883"><ele>226.00000000000003</ele><time>2026-04-03T11:30:43.001Z</time></trkpt><trkpt lat="45.64363" lon="9.0421133"><ele>226.00000000000003</ele><time>2026-04-03T11:30:45.001Z</time></trkpt><trkpt lat="45.6437283" lon="9.0421333"><ele>226.0</ele><time>2026-04-03T11:30:47.001Z</time></trkpt><trkpt lat="45.64382" lon="9.0421833"><ele>226.0</ele><time>2026-04-03T11:30:49.001Z</time></trkpt><trkpt lat="45.6439083" lon="9.0422383"><ele>225.4</ele><time>2026-04-03T11:30:51.001Z</time></trkpt><trkpt lat="45.6440017" lon="9.0422917"><ele>224.8</ele><time>2026-04-03T11:30:53.001Z</time></trkpt><trkpt lat="45.6440883" lon="9.04235"><ele>224.20000000000002</ele><time>2026-04-03T11:30:55.002Z</time></trkpt><trkpt lat="45.644175" lon="9.0424367"><ele>223.60000000000002</ele><time>2026-04-03T11:30:57.002Z</time></trkpt><trkpt lat="45.6442683" lon="9.042535"><ele>223.0</ele><time>2026-04-03T11:30:59.001Z</time></trkpt><trkpt lat="45.64436" lon="9.0426433"><ele>223.2</ele><time>2026-04-03T11:31:01.001Z</time></trkpt><trkpt lat="45.6444483" lon="9.042745"><ele>223.4</ele><time>2026-04-03T11:31:03.001Z</time></trkpt><trkpt lat="45.6445433" lon="9.04282"><ele>223.59999999999997</ele><time>2026-04-03T11:31:05.001Z</time></trkpt><trkpt lat="45.6446317" lon="9.0428833"><ele>223.79999999999998</ele><time>2026-04-03T11:31:07.001Z</time></trkpt><trkpt lat="45.6447267" lon="9.0429217"><ele>224.0</ele><time>2026-04-03T11:31:09.001Z</time></trkpt><trkpt lat="45.6448283" lon="9.04296"><ele>224.0</ele><time>2026-04-03T11:31:11.001Z</time></trkpt><trkpt lat="45.6449183" lon="9.042995"><ele>223.99999999999997</ele><time>2026-04-03T11:31:13.001Z</time></trkpt><trkpt lat="45.6450233" lon="9.0430083"><ele>223.99999999999997</ele><time>2026-04-03T11:31:15.001Z</time></trkpt><trkpt lat="45.6451183" lon="9.0430233"><ele>224.0</ele><time>2026-04-03T11:31:17.001Z</time></trkpt><trkpt lat="45.645215" lon="9.04304"><ele>224.0</ele><time>2026-04-03T11:31:19.002Z</time></trkpt><trkpt lat="45.645315" lon="9.0430433"><ele>224.39999999999998</ele><time>2026-04-03T11:31:21.001Z</time></trkpt><trkpt lat="45.64542" lon="9.0430433"><ele>224.79999999999998</ele><time>2026-04-03T11:31:23.002Z</time></trkpt><trkpt lat="45.645515" lon="9.0430533"><ele>225.20000000000002</ele><time>2026-04-03T11:31:25.001Z</time></trkpt><trkpt lat="45.6456083" lon="9.0430567"><ele>225.60000000000002</ele><time>2026-04-03T11:31:27.001Z</time></trkpt><trkpt lat="45.6457083" lon="9.04305"><ele>226.0</ele><time>2026-04-03T11:31:29.001Z</time></trkpt><trkpt lat="45.6458" lon="9.0430483"><ele>226.0</ele><time>2026-04-03T11:31:31.001Z</time></trkpt><trkpt lat="45.645895" lon="9.043065"><ele>226.00000000000003</ele><time>2026-04-03T11:31:33.002Z</time></trkpt><trkpt lat="45.646" lon="9.043065"><ele>226.00000000000003</ele><time>2026-04-03T11:31:35.001Z</time></trkpt><trkpt lat="45.64611" lon="9.0430633"><ele>226.0</ele><time>2026-04-03T11:31:37.001Z</time></trkpt><trkpt lat="45.6462133" lon="9.043055"><ele>226.0</ele><time>2026-04-03T11:31:39.003Z</time></trkpt><trkpt lat="45.6463217" lon="9.0430617"><ele>226.20000000000002</ele><time>2026-04-03T11:31:41.002Z</time></trkpt><trkpt lat="45.646415" lon="9.0430517"><ele>226.40000000000003</ele><time>2026-04-03T11:31:43.002Z</time></trkpt><trkpt lat="45.6465067" lon="9.0430367"><ele>226.6</ele><time>2026-04-03T11:31:45.002Z</time></trkpt><trkpt lat="45.6466083" lon="9.04301"><ele>226.8</ele><time>2026-04-03T11:31:47.003Z</time></trkpt><trkpt lat="45.6467133" lon="9.0429917"><ele>227.0</ele><time>2026-04-03T11:31:49.002Z</time></trkpt><trkpt lat="45.646815" lon="9.04298"><ele>227.0</ele><time>2026-04-03T11:31:51.002Z</time></trkpt><trkpt lat="45.6469117" lon="9.04297"><ele>227.0</ele><time>2026-04-03T11:31:53.002Z</time></trkpt><trkpt lat="45.6470067" lon="9.04295"><ele>227.0</ele><time>2026-04-03T11:31:55.002Z</time></trkpt><trkpt lat="45.6470883" lon="9.0429067"><ele>227.0</ele><time>2026-04-03T11:31:57.003Z</time></trkpt><trkpt lat="45.6471483" lon="9.0428"><ele>227.0</ele><time>2026-04-03T11:31:59.002Z</time></trkpt><trkpt lat="45.6472033" lon="9.042695"><ele>227.00000000000003</ele><time>2026-04-03T11:32:01.002Z</time></trkpt><trkpt lat="45.6472317" lon="9.0426133"><ele>227.0</ele><time>2026-04-03T11:32:02.002Z</time></trkpt><trkpt lat="45.6472933" lon="9.0424783"><ele>227.0</ele><time>2026-04-03T11:32:04.003Z</time></trkpt><trkpt lat="45.64734" lon="9.0423433"><ele>227.0</ele><time>2026-04-03T11:32:06.003Z</time></trkpt><trkpt lat="45.6474083" lon="9.0423067"><ele>227.00000000000003</ele><time>2026-04-03T11:32:08.002Z</time></trkpt><trkpt lat="45.6474883" lon="9.0423317"><ele>227.0</ele><time>2026-04-03T11:32:10.002Z</time></trkpt><trkpt lat="45.64756" lon="9.04236"><ele>227.0</ele><time>2026-04-03T11:32:12.002Z</time></trkpt><trkpt lat="45.6476283" lon="9.042405"><ele>227.0</ele><time>2026-04-03T11:32:14.003Z</time></trkpt><trkpt lat="45.6477117" lon="9.0424367"><ele>227.0</ele><time>2026-04-03T11:32:16.002Z</time></trkpt><trkpt lat="45.6478067" lon="9.0424833"><ele>227.0</ele><time>2026-04-03T11:32:19.002Z</time></trkpt><trkpt lat="45.6479017" lon="9.042495"><ele>227.0</ele><time>2026-04-03T11:32:21.002Z</time></trkpt><trkpt lat="45.6480033" lon="9.0425083"><ele>227.39999999999998</ele><time>2026-04-03T11:32:23.002Z</time></trkpt><trkpt lat="45.6480933" lon="9.04252"><ele>227.79999999999998</ele><time>2026-04-03T11:32:25.002Z</time></trkpt><trkpt lat="45.64821" lon="9.0425233"><ele>228.2</ele><time>2026-04-03T11:32:27.003Z</time></trkpt><trkpt lat="45.648325" lon="9.0425333"><ele>228.6</ele><time>2026-04-03T11:32:29.003Z</time></trkpt><trkpt lat="45.64844" lon="9.04254"><ele>229.0</ele><time>2026-04-03T11:32:31.002Z</time></trkpt><trkpt lat="45.6485517" lon="9.04257"><ele>228.79999999999998</ele><time>2026-04-03T11:32:33.003Z</time></trkpt><trkpt lat="45.6486617" lon="9.0426017"><ele>228.59999999999997</ele><time>2026-04-03T11:32:35.003Z</time></trkpt><trkpt lat="45.6487583" lon="9.0426483"><ele>228.4</ele><time>2026-04-03T11:32:37.002Z</time></trkpt><trkpt lat="45.6488483" lon="9.0427"><ele>228.2</ele><time>2026-04-03T11:32:39.002Z</time></trkpt><trkpt lat="45.6489417" lon="9.0427667"><ele>228.0</ele><time>2026-04-03T11:32:41.002Z</time></trkpt><trkpt lat="45.6490267" lon="9.0428367"><ele>228.0</ele><time>2026-04-03T11:32:43.002Z</time></trkpt><trkpt lat="45.6491" lon="9.0429"><ele>228.0</ele><time>2026-04-03T11:32:45.003Z</time></trkpt><trkpt lat="45.6491683" lon="9.04297"><ele>228.0</ele><time>2026-04-03T11:32:47.002Z</time></trkpt><trkpt lat="45.6492267" lon="9.0430183"><ele>228.0</ele><time>2026-04-03T11:32:49.003Z</time></trkpt><trkpt lat="45.6492833" lon="9.0430633"><ele>228.0</ele><time>2026-04-03T11:32:51.003Z</time></trkpt><trkpt lat="45.6493417" lon="9.0431167"><ele>228.0</ele><time>2026-04-03T11:32:53.002Z</time></trkpt><trkpt lat="45.64942" lon="9.0431867"><ele>228.5</ele><time>2026-04-03T11:32:55.002Z</time></trkpt><trkpt lat="45.6494967" lon="9.0432583"><ele>229.0</ele><time>2026-04-03T11:32:57.002Z</time></trkpt><trkpt lat="45.6495767" lon="9.0433167"><ele>229.5</ele><time>2026-04-03T11:32:59.002Z</time></trkpt><trkpt lat="45.6496533" lon="9.0433783"><ele>230.0</ele><time>2026-04-03T11:33:01.002Z</time></trkpt><trkpt lat="45.6497217" lon="9.0434433"><ele>230.5</ele><time>2026-04-03T11:33:03.003Z</time></trkpt><trkpt lat="45.6497883" lon="9.04351"><ele>231.0</ele><time>2026-04-03T11:33:05.002Z</time></trkpt><trkpt lat="45.64986" lon="9.0435917"><ele>231.33333333333334</ele><time>2026-04-03T11:33:07.002Z</time></trkpt><trkpt lat="45.6499233" lon="9.043675"><ele>231.66666666666669</ele><time>2026-04-03T11:33:09.003Z</time></trkpt><trkpt lat="45.64999" lon="9.0437683"><ele>232.0</ele><time>2026-04-03T11:33:11.002Z</time></trkpt><trkpt lat="45.6500517" lon="9.0438567"><ele>232.33333333333334</ele><time>2026-04-03T11:33:13.002Z</time></trkpt><trkpt lat="45.6501083" lon="9.0439517"><ele>232.66666666666669</ele><time>2026-04-03T11:33:15.003Z</time></trkpt><trkpt lat="45.650155" lon="9.0440317"><ele>233.0</ele><time>2026-04-03T11:33:17.003Z</time></trkpt><trkpt lat="45.65013" lon="9.044145"><ele>233.14285714285717</ele><time>2026-04-03T11:33:20.002Z</time></trkpt><trkpt lat="45.6500883" lon="9.0442267"><ele>233.28571428571428</ele><time>2026-04-03T11:33:23.003Z</time></trkpt><trkpt lat="45.650055" lon="9.0443233"><ele>233.42857142857144</ele><time>2026-04-03T11:33:26.002Z</time></trkpt><trkpt lat="45.650055" lon="9.0444233"><ele>233.57142857142858</ele><time>2026-04-03T11:33:29.002Z</time></trkpt><trkpt lat="45.6501183" lon="9.0443883"><ele>233.71428571428572</ele><time>2026-04-03T11:33:32.002Z</time></trkpt><trkpt lat="45.6501667" lon="9.0443267"><ele>233.85714285714286</ele><time>2026-04-03T11:33:34.002Z</time></trkpt><trkpt lat="45.650215" lon="9.0442667"><ele>234.0</ele><time>2026-04-03T11:33:37.003Z</time></trkpt><trkpt lat="45.6502583" lon="9.04434"><ele>233.33333333333334</ele><time>2026-04-03T11:33:43.002Z</time></trkpt><trkpt lat="45.6503183" lon="9.0444317"><ele>232.66666666666669</ele><time>2026-04-03T11:33:46.002Z</time></trkpt><trkpt lat="45.6503683" lon="9.0444867"><ele>232.0</ele><time>2026-04-03T11:33:48.003Z</time></trkpt><trkpt lat="45.6504333" lon="9.044545"><ele>231.33333333333334</ele><time>2026-04-03T11:33:50.002Z</time></trkpt><trkpt lat="45.6504983" lon="9.0446017"><ele>230.66666666666669</ele><time>2026-04-03T11:33:52.003Z</time></trkpt><trkpt lat="45.650555" lon="9.044705"><ele>230.0</ele><time>2026-04-03T11:33:54.002Z</time></trkpt><trkpt lat="45.6506167" lon="9.04483"><ele>230.00000000000003</ele><time>2026-04-03T11:33:56.002Z</time></trkpt><trkpt lat="45.6506667" lon="9.0449517"><ele>230.0</ele><time>2026-04-03T11:33:58.002Z</time></trkpt><trkpt lat="45.650705" lon="9.0450783"><ele>230.0</ele><time>2026-04-03T11:34:00.002Z</time></trkpt><trkpt lat="45.6507467" lon="9.0451833"><ele>230.0</ele><time>2026-04-03T11:34:02.003Z</time></trkpt><trkpt lat="45.6508" lon="9.0452533"><ele>230.00000000000003</ele><time>2026-04-03T11:34:04.002Z</time></trkpt><trkpt lat="45.6508783" lon="9.0453"><ele>230.0</ele><time>2026-04-03T11:34:06.002Z</time></trkpt><trkpt lat="45.6509767" lon="9.0453217"><ele>230.2</ele><time>2026-04-03T11:34:08.003Z</time></trkpt><trkpt lat="45.6510583" lon="9.0453183"><ele>230.4</ele><time>2026-04-03T11:34:10.003Z</time></trkpt><trkpt lat="45.6511417" lon="9.04534"><ele>230.60000000000002</ele><time>2026-04-03T11:34:12.002Z</time></trkpt><trkpt lat="45.6512333" lon="9.0453383"><ele>230.8</ele><time>2026-04-03T11:34:14.002Z</time></trkpt><trkpt lat="45.6513317" lon="9.0453333"><ele>231.0</ele><time>2026-04-03T11:34:16.003Z</time></trkpt><trkpt lat="45.6514417" lon="9.045335"><ele>230.60000000000002</ele><time>2026-04-03T11:34:18.002Z</time></trkpt><trkpt lat="45.6515067" lon="9.04534"><ele>230.20000000000002</ele><time>2026-04-03T11:34:19.002Z</time></trkpt><trkpt lat="45.6516217" lon="9.0453433"><ele>229.79999999999998</ele><time>2026-04-03T11:34:21.002Z</time></trkpt><trkpt lat="45.6517333" lon="9.04533"><ele>229.39999999999998</ele><time>2026-04-03T11:34:23.003Z</time></trkpt><trkpt lat="45.6518333" lon="9.0453033"><ele>229.0</ele><time>2026-04-03T11:34:25.002Z</time></trkpt><trkpt lat="45.6519267" lon="9.0452733"><ele>229.2</ele><time>2026-04-03T11:34:27.002Z</time></trkpt><trkpt lat="45.6520183" lon="9.04524"><ele>229.39999999999998</ele><time>2026-04-03T11:34:29.002Z</time></trkpt><trkpt lat="45.652115" lon="9.045215"><ele>229.6</ele><time>2026-04-03T11:34:31.002Z</time></trkpt><trkpt lat="45.6522033" lon="9.04518"><ele>229.8</ele><time>2026-04-03T11:34:33.003Z</time></trkpt><trkpt lat="45.652285" lon="9.045155"><ele>230.0</ele><time>2026-04-03T11:34:35.003Z</time></trkpt><trkpt lat="45.6523783" lon="9.04512"><ele>230.00000000000003</ele><time>2026-04-03T11:34:37.002Z</time></trkpt><trkpt lat="45.6524817" lon="9.0450983"><ele>230.0</ele><time>2026-04-03T11:34:39.002Z</time></trkpt><trkpt lat="45.652575" lon="9.0450817"><ele>230.0</ele><time>2026-04-03T11:34:41.003Z</time></trkpt><trkpt lat="45.6526483" lon="9.0450733"><ele>230.0</ele><time>2026-04-03T11:34:43.002Z</time></trkpt><trkpt lat="45.65268" lon="9.045155"><ele>230.00000000000003</ele><time>2026-04-03T11:34:45.002Z</time></trkpt><trkpt lat="45.652685" lon="9.0453117"><ele>230.0</ele><time>2026-04-03T11:34:48.002Z</time></trkpt><trkpt lat="45.6526983" lon="9.045435"><ele>230.00000000000003</ele><time>2026-04-03T11:34:50.002Z</time></trkpt><trkpt lat="45.6527067" lon="9.04557"><ele>230.0</ele><time>2026-04-03T11:34:53.002Z</time></trkpt><trkpt lat="45.6527" lon="9.04566"><ele>230.0</ele><time>2026-04-03T11:34:55.002Z</time></trkpt><trkpt lat="45.6527083" lon="9.0457717"><ele>230.0</ele><time>2026-04-03T11:34:58.002Z</time></trkpt><trkpt lat="45.6527767" lon="9.0457967"><ele>230.00000000000003</ele><time>2026-04-03T11:35:01.003Z</time></trkpt><trkpt lat="45.6528683" lon="9.0458183"><ele>230.0</ele><time>2026-04-03T11:35:04.003Z</time></trkpt><trkpt lat="45.65294" lon="9.04584"><ele>229.66666666666669</ele><time>2026-04-03T11:35:06.002Z</time></trkpt><trkpt lat="45.653015" lon="9.045865"><ele>229.33333333333334</ele><time>2026-04-03T11:35:08.003Z</time></trkpt><trkpt lat="45.653105" lon="9.0458833"><ele>229.0</ele><time>2026-04-03T11:35:10.002Z</time></trkpt><trkpt lat="45.6531933" lon="9.04589"><ele>228.66666666666669</ele><time>2026-04-03T11:35:12.002Z</time></trkpt><trkpt lat="45.653275" lon="9.0458833"><ele>228.33333333333334</ele><time>2026-04-03T11:35:14.002Z</time></trkpt><trkpt lat="45.6533483" lon="9.045835"><ele>228.0</ele><time>2026-04-03T11:35:16.002Z</time></trkpt><trkpt lat="45.6534133" lon="9.045795"><ele>228.0</ele><time>2026-04-03T11:35:18.002Z</time></trkpt><trkpt lat="45.6534767" lon="9.0457383"><ele>228.0</ele><time>2026-04-03T11:35:20.003Z</time></trkpt><trkpt lat="45.653525" lon="9.04566"><ele>228.0</ele><time>2026-04-03T11:35:22.002Z</time></trkpt><trkpt lat="45.6535867" lon="9.0455717"><ele>228.0</ele><time>2026-04-03T11:35:24.002Z</time></trkpt><trkpt lat="45.6536617" lon="9.0454983"><ele>228.0</ele><time>2026-04-03T11:35:26.002Z</time></trkpt><trkpt lat="45.6537417" lon="9.0454283"><ele>228.0</ele><time>2026-04-03T11:35:28.002Z</time></trkpt><trkpt lat="45.65381" lon="9.0453783"><ele>228.57142857142856</ele><time>2026-04-03T11:35:30.002Z</time></trkpt><trkpt lat="45.653875" lon="9.0453333"><ele>229.1428571428571</ele><time>2026-04-03T11:35:32.002Z</time></trkpt><trkpt lat="45.6539517" lon="9.045305"><ele>229.71428571428572</ele><time>2026-04-03T11:35:34.002Z</time></trkpt><trkpt lat="45.65402" lon="9.0452783"><ele>230.28571428571428</ele><time>2026-04-03T11:35:36.002Z</time></trkpt><trkpt lat="45.6540867" lon="9.0452467"><ele>230.85714285714286</ele><time>2026-04-03T11:35:38.002Z</time></trkpt><trkpt lat="45.65415" lon="9.0452183"><ele>231.42857142857144</ele><time>2026-04-03T11:35:40.002Z</time></trkpt><trkpt lat="45.6542233" lon="9.0451883"><ele>232.00000000000003</ele><time>2026-04-03T11:35:42.002Z</time></trkpt><trkpt lat="45.654305" lon="9.0451467"><ele>232.00000000000003</ele><time>2026-04-03T11:35:44.002Z</time></trkpt><trkpt lat="45.6543817" lon="9.045115"><ele>232.0</ele><time>2026-04-03T11:35:46.002Z</time></trkpt><trkpt lat="45.6544533" lon="9.0450983"><ele>232.00000000000003</ele><time>2026-04-03T11:35:48.002Z</time></trkpt><trkpt lat="45.6545333" lon="9.045095"><ele>232.00000000000003</ele><time>2026-04-03T11:35:50.002Z</time></trkpt><trkpt lat="45.6546117" lon="9.0450983"><ele>232.0</ele><time>2026-04-03T11:35:52.002Z</time></trkpt><trkpt lat="45.65468" lon="9.04511"><ele>232.00000000000003</ele><time>2026-04-03T11:35:54.002Z</time></trkpt><trkpt lat="45.654745" lon="9.045125"><ele>232.00000000000003</ele><time>2026-04-03T11:35:56.002Z</time></trkpt><trkpt lat="45.6548117" lon="9.04514"><ele>232.16666666666666</ele><time>2026-04-03T11:35:58.002Z</time></trkpt><trkpt lat="45.6548933" lon="9.0451583"><ele>232.33333333333331</ele><time>2026-04-03T11:36:01.003Z</time></trkpt><trkpt lat="45.65498" lon="9.0451783"><ele>232.5</ele><time>2026-04-03T11:36:04.002Z</time></trkpt><trkpt lat="45.65507" lon="9.0451983"><ele>232.66666666666669</ele><time>2026-04-03T11:36:07.003Z</time></trkpt><trkpt lat="45.655135" lon="9.0452133"><ele>232.83333333333334</ele><time>2026-04-03T11:36:09.002Z</time></trkpt><trkpt lat="45.6552017" lon="9.0452283"><ele>233.0</ele><time>2026-04-03T11:36:11.002Z</time></trkpt><trkpt lat="45.6552633" lon="9.0452533"><ele>233.14285714285717</ele><time>2026-04-03T11:36:13.002Z</time></trkpt><trkpt lat="45.6553383" lon="9.0453117"><ele>233.28571428571428</ele><time>2026-04-03T11:36:16.002Z</time></trkpt><trkpt lat="45.6554117" lon="9.0453367"><ele>233.42857142857144</ele><time>2026-04-03T11:36:18.002Z</time></trkpt><trkpt lat="45.6554533" lon="9.0454117"><ele>233.57142857142858</ele><time>2026-04-03T11:36:20.002Z</time></trkpt><trkpt lat="45.6554933" lon="9.0454817"><ele>233.71428571428572</ele><time>2026-04-03T11:36:22.002Z</time></trkpt><trkpt lat="45.6555383" lon="9.045545"><ele>233.85714285714286</ele><time>2026-04-03T11:36:24.002Z</time></trkpt><trkpt lat="45.6555867" lon="9.0456167"><ele>234.0</ele><time>2026-04-03T11:36:26.002Z</time></trkpt><trkpt lat="45.6556417" lon="9.0456867"><ele>234.0</ele><time>2026-04-03T11:36:28.002Z</time></trkpt><trkpt lat="45.65569" lon="9.04575"><ele>234.00000000000003</ele><time>2026-04-03T11:36:30.003Z</time></trkpt><trkpt lat="45.6557467" lon="9.045805"><ele>234.0</ele><time>2026-04-03T11:36:32.002Z</time></trkpt><trkpt lat="45.6558017" lon="9.04586"><ele>234.0</ele><time>2026-04-03T11:36:34.002Z</time></trkpt><trkpt lat="45.6558533" lon="9.045915"><ele>234.00000000000003</ele><time>2026-04-03T11:36:36.002Z</time></trkpt><trkpt lat="45.6559083" lon="9.0459717"><ele>234.0</ele><time>2026-04-03T11:36:38.002Z</time></trkpt><trkpt lat="45.6559917" lon="9.0460583"><ele>234.0</ele><time>2026-04-03T11:36:41.002Z</time></trkpt><trkpt lat="45.65605" lon="9.0461217"><ele>234.2857142857143</ele><time>2026-04-03T11:36:43.002Z</time></trkpt><trkpt lat="45.6560967" lon="9.0461917"><ele>234.5714285714286</ele><time>2026-04-03T11:36:45.002Z</time></trkpt><trkpt lat="45.6561533" lon="9.0462567"><ele>234.85714285714286</ele><time>2026-04-03T11:36:47.002Z</time></trkpt><trkpt lat="45.6562167" lon="9.0463067"><ele>235.14285714285717</ele><time>2026-04-03T11:36:49.002Z</time></trkpt><trkpt lat="45.65628" lon="9.0463317"><ele>235.42857142857144</ele><time>2026-04-03T11:36:51.002Z</time></trkpt><trkpt lat="45.6563517" lon="9.04638"><ele>235.71428571428572</ele><time>2026-04-03T11:36:54.002Z</time></trkpt><trkpt lat="45.6564083" lon="9.046435"><ele>236.0</ele><time>2026-04-03T11:36:56.002Z</time></trkpt><trkpt lat="45.656505" lon="9.0464667"><ele>236.00000000000003</ele><time>2026-04-03T11:36:59.003Z</time></trkpt><trkpt lat="45.656575" lon="9.0464833"><ele>236.0</ele><time>2026-04-03T11:37:02.002Z</time></trkpt><trkpt lat="45.65666" lon="9.0465017"><ele>236.0</ele><time>2026-04-03T11:37:05.002Z</time></trkpt><trkpt lat="45.6567283" lon="9.0465183"><ele>236.0</ele><time>2026-04-03T11:37:07.003Z</time></trkpt><trkpt lat="45.6568033" lon="9.0465417"><ele>236.00000000000003</ele><time>2026-04-03T11:37:09.002Z</time></trkpt><trkpt lat="45.6568883" lon="9.046565"><ele>236.0</ele><time>2026-04-03T11:37:11.002Z</time></trkpt><trkpt lat="45.6569683" lon="9.046585"><ele>235.83333333333334</ele><time>2026-04-03T11:37:13.002Z</time></trkpt><trkpt lat="45.657045" lon="9.0466017"><ele>235.66666666666669</ele><time>2026-04-03T11:37:15.002Z</time></trkpt><trkpt lat="45.6571167" lon="9.0466133"><ele>235.5</ele><time>2026-04-03T11:37:17.002Z</time></trkpt><trkpt lat="45.6571983" lon="9.0466317"><ele>235.33333333333331</ele><time>2026-04-03T11:37:19.002Z</time></trkpt><trkpt lat="45.6572683" lon="9.0466367"><ele>235.16666666666666</ele><time>2026-04-03T11:37:21.002Z</time></trkpt><trkpt lat="45.6573383" lon="9.0466517"><ele>235.0</ele><time>2026-04-03T11:37:23.002Z</time></trkpt><trkpt lat="45.65742" lon="9.04667"><ele>235.33333333333331</ele><time>2026-04-03T11:37:25.003Z</time></trkpt><trkpt lat="45.657495" lon="9.0466517"><ele>235.66666666666666</ele><time>2026-04-03T11:37:27.002Z</time></trkpt><trkpt lat="45.65757" lon="9.0466417"><ele>236.0</ele><time>2026-04-03T11:37:29.003Z</time></trkpt><trkpt lat="45.65765" lon="9.0466417"><ele>236.33333333333331</ele><time>2026-04-03T11:37:31.003Z</time></trkpt><trkpt lat="45.65773" lon="9.04664"><ele>236.66666666666666</ele><time>2026-04-03T11:37:33.002Z</time></trkpt><trkpt lat="45.65781" lon="9.0466433"><ele>237.0</ele><time>2026-04-03T11:37:35.003Z</time></trkpt><trkpt lat="45.6578833" lon="9.0466483"><ele>237.28571428571425</ele><time>2026-04-03T11:37:37.002Z</time></trkpt><trkpt lat="45.6579533" lon="9.04665"><ele>237.57142857142856</ele><time>2026-04-03T11:37:39.002Z</time></trkpt><trkpt lat="45.658025" lon="9.0466567"><ele>237.85714285714286</ele><time>2026-04-03T11:37:41.003Z</time></trkpt><trkpt lat="45.6580967" lon="9.0466717"><ele>238.14285714285714</ele><time>2026-04-03T11:37:43.002Z</time></trkpt><trkpt lat="45.6581733" lon="9.0466883"><ele>238.42857142857144</ele><time>2026-04-03T11:37:45.003Z</time></trkpt><trkpt lat="45.6582383" lon="9.0467033"><ele>238.71428571428575</ele><time>2026-04-03T11:37:47.002Z</time></trkpt><trkpt lat="45.6583033" lon="9.0467183"><ele>239.00000000000003</ele><time>2026-04-03T11:37:49.002Z</time></trkpt><trkpt lat="45.6583717" lon="9.0467333"><ele>239.00000000000003</ele><time>2026-04-03T11:37:51.002Z</time></trkpt><trkpt lat="45.6584467" lon="9.04675"><ele>239.0</ele><time>2026-04-03T11:37:53.002Z</time></trkpt><trkpt lat="45.6585217" lon="9.04677"><ele>239.0</ele><time>2026-04-03T11:37:55.002Z</time></trkpt><trkpt lat="45.6585967" lon="9.0467967"><ele>239.0</ele><time>2026-04-03T11:37:57.003Z</time></trkpt><trkpt lat="45.65867" lon="9.0468183"><ele>239.00000000000003</ele><time>2026-04-03T11:37:59.004Z</time></trkpt><trkpt lat="45.658745" lon="9.0468433"><ele>239.0</ele><time>2026-04-03T11:38:01.003Z</time></trkpt><trkpt lat="45.65882" lon="9.0468667"><ele>238.83333333333334</ele><time>2026-04-03T11:38:03.004Z</time></trkpt><trkpt lat="45.6588967" lon="9.0468917"><ele>238.66666666666669</ele><time>2026-04-03T11:38:05.004Z</time></trkpt><trkpt lat="45.6589717" lon="9.0469167"><ele>238.5</ele><time>2026-04-03T11:38:07.004Z</time></trkpt><trkpt lat="45.6590467" lon="9.0469383"><ele>238.33333333333331</ele><time>2026-04-03T11:38:09.003Z</time></trkpt><trkpt lat="45.65912" lon="9.0469583"><ele>238.16666666666666</ele><time>2026-04-03T11:38:11.003Z</time></trkpt><trkpt lat="45.6591967" lon="9.0469767"><ele>238.0</ele><time>2026-04-03T11:38:13.003Z</time></trkpt><trkpt lat="45.65927" lon="9.0469917"><ele>237.99999999999997</ele><time>2026-04-03T11:38:15.004Z</time></trkpt><trkpt lat="45.6593517" lon="9.04701"><ele>238.0</ele><time>2026-04-03T11:38:17.003Z</time></trkpt><trkpt lat="45.6594317" lon="9.0470383"><ele>238.0</ele><time>2026-04-03T11:38:19.003Z</time></trkpt><trkpt lat="45.6595017" lon="9.047055"><ele>238.0</ele><time>2026-04-03T11:38:21.003Z</time></trkpt><trkpt lat="45.6595767" lon="9.0470867"><ele>237.99999999999997</ele><time>2026-04-03T11:38:23.003Z</time></trkpt><trkpt lat="45.659645" lon="9.0470983"><ele>238.0</ele><time>2026-04-03T11:38:25.003Z</time></trkpt><trkpt lat="45.6597183" lon="9.04711"><ele>237.85714285714286</ele><time>2026-04-03T11:38:27.003Z</time></trkpt><trkpt lat="45.6597917" lon="9.0471267"><ele>237.71428571428572</ele><time>2026-04-03T11:38:29.003Z</time></trkpt><trkpt lat="45.6598633" lon="9.0471533"><ele>237.57142857142856</ele><time>2026-04-03T11:38:31.004Z</time></trkpt><trkpt lat="45.6599333" lon="9.0471683"><ele>237.42857142857142</ele><time>2026-04-03T11:38:33.004Z</time></trkpt><trkpt lat="45.6600067" lon="9.047185"><ele>237.28571428571428</ele><time>2026-04-03T11:38:35.004Z</time></trkpt><trkpt lat="45.6600767" lon="9.0472117"><ele>237.1428571428571</ele><time>2026-04-03T11:38:37.004Z</time></trkpt><trkpt lat="45.6601467" lon="9.04723"><ele>236.99999999999997</ele><time>2026-04-03T11:38:39.003Z</time></trkpt><trkpt lat="45.66022" lon="9.0472483"><ele>236.99999999999997</ele><time>2026-04-03T11:38:41.003Z</time></trkpt><trkpt lat="45.6602883" lon="9.04729"><ele>237.0</ele><time>2026-04-03T11:38:43.003Z</time></trkpt><trkpt lat="45.6603467" lon="9.0473267"><ele>236.99999999999997</ele><time>2026-04-03T11:38:45.003Z</time></trkpt><trkpt lat="45.66041" lon="9.04734"><ele>236.99999999999997</ele><time>2026-04-03T11:38:47.004Z</time></trkpt><trkpt lat="45.6604767" lon="9.047355"><ele>237.0</ele><time>2026-04-03T11:38:49.004Z</time></trkpt><trkpt lat="45.66055" lon="9.047385"><ele>236.99999999999997</ele><time>2026-04-03T11:38:51.003Z</time></trkpt><trkpt lat="45.6606183" lon="9.0474033"><ele>236.99999999999997</ele><time>2026-04-03T11:38:53.003Z</time></trkpt><trkpt lat="45.660705" lon="9.0474233"><ele>236.99999999999997</ele><time>2026-04-03T11:38:56.004Z</time></trkpt><trkpt lat="45.66077" lon="9.0474383"><ele>237.0</ele><time>2026-04-03T11:38:58.003Z</time></trkpt><trkpt lat="45.660835" lon="9.0474533"><ele>236.99999999999997</ele><time>2026-04-03T11:39:00.003Z</time></trkpt><trkpt lat="45.6609067" lon="9.0474683"><ele>236.99999999999997</ele><time>2026-04-03T11:39:02.004Z</time></trkpt><trkpt lat="45.6609733" lon="9.0474883"><ele>237.0</ele><time>2026-04-03T11:39:04.003Z</time></trkpt><trkpt lat="45.6610483" lon="9.047505"><ele>236.99999999999997</ele><time>2026-04-03T11:39:06.003Z</time></trkpt><trkpt lat="45.6611217" lon="9.047525"><ele>236.99999999999997</ele><time>2026-04-03T11:39:08.004Z</time></trkpt><trkpt lat="45.6611867" lon="9.0475483"><ele>236.99999999999997</ele><time>2026-04-03T11:39:10.003Z</time></trkpt><trkpt lat="45.66125" lon="9.0475633"><ele>237.0</ele><time>2026-04-03T11:39:12.003Z</time></trkpt><trkpt lat="45.661305" lon="9.0476217"><ele>236.99999999999997</ele><time>2026-04-03T11:39:14.003Z</time></trkpt><trkpt lat="45.6613583" lon="9.0476717"><ele>236.99999999999997</ele><time>2026-04-03T11:39:16.003Z</time></trkpt><trkpt lat="45.6614283" lon="9.0476883"><ele>237.0</ele><time>2026-04-03T11:39:18.004Z</time></trkpt><trkpt lat="45.661495" lon="9.0477033"><ele>236.99999999999997</ele><time>2026-04-03T11:39:20.003Z</time></trkpt><trkpt lat="45.6615683" lon="9.04772"><ele>236.99999999999997</ele><time>2026-04-03T11:39:22.003Z</time></trkpt><trkpt lat="45.661645" lon="9.047725"><ele>237.0</ele><time>2026-04-03T11:39:24.004Z</time></trkpt><trkpt lat="45.6617" lon="9.047645"><ele>237.0</ele><time>2026-04-03T11:39:26.003Z</time></trkpt><trkpt lat="45.6617233" lon="9.0475517"><ele>237.0</ele><time>2026-04-03T11:39:28.003Z</time></trkpt><trkpt lat="45.6617333" lon="9.0474333"><ele>237.0</ele><time>2026-04-03T11:39:30.003Z</time></trkpt><trkpt lat="45.66174" lon="9.0473117"><ele>237.0</ele><time>2026-04-03T11:39:32.004Z</time></trkpt><trkpt lat="45.6617517" lon="9.04719"><ele>237.0</ele><time>2026-04-03T11:39:34.003Z</time></trkpt><trkpt lat="45.661765" lon="9.0470667"><ele>237.66666666666666</ele><time>2026-04-03T11:39:36.003Z</time></trkpt><trkpt lat="45.6617767" lon="9.046945"><ele>238.33333333333331</ele><time>2026-04-03T11:39:38.003Z</time></trkpt><trkpt lat="45.661785" lon="9.0468233"><ele>239.0</ele><time>2026-04-03T11:39:40.003Z</time></trkpt><trkpt lat="45.661795" lon="9.046695"><ele>239.66666666666666</ele><time>2026-04-03T11:39:42.004Z</time></trkpt><trkpt lat="45.661805" lon="9.0465717"><ele>240.33333333333331</ele><time>2026-04-03T11:39:44.003Z</time></trkpt><trkpt lat="45.661815" lon="9.046445"><ele>241.0</ele><time>2026-04-03T11:39:46.004Z</time></trkpt><trkpt lat="45.6618233" lon="9.0463267"><ele>241.66666666666666</ele><time>2026-04-03T11:39:48.004Z</time></trkpt><trkpt lat="45.6618367" lon="9.0462183"><ele>242.33333333333331</ele><time>2026-04-03T11:39:50.003Z</time></trkpt><trkpt lat="45.6618933" lon="9.04615"><ele>243.0</ele><time>2026-04-03T11:39:52.003Z</time></trkpt><trkpt lat="45.6619783" lon="9.0461683"><ele>243.66666666666669</ele><time>2026-04-03T11:39:54.003Z</time></trkpt><trkpt lat="45.66206" lon="9.0461917"><ele>244.33333333333334</ele><time>2026-04-03T11:39:56.003Z</time></trkpt><trkpt lat="45.6621317" lon="9.0462183"><ele>245.0</ele><time>2026-04-03T11:39:58.003Z</time></trkpt><trkpt lat="45.6621983" lon="9.0462633"><ele>245.0</ele><time>2026-04-03T11:40:00.003Z</time></trkpt><trkpt lat="45.66227" lon="9.046285"><ele>245.0</ele><time>2026-04-03T11:40:02.003Z</time></trkpt><trkpt lat="45.66234" lon="9.0463083"><ele>245.0</ele><time>2026-04-03T11:40:04.003Z</time></trkpt><trkpt lat="45.6624033" lon="9.0463217"><ele>245.0</ele><time>2026-04-03T11:40:06.003Z</time></trkpt><trkpt lat="45.6624717" lon="9.0463367"><ele>245.0</ele><time>2026-04-03T11:40:08.003Z</time></trkpt><trkpt lat="45.6625633" lon="9.0463583"><ele>245.0</ele><time>2026-04-03T11:40:11.004Z</time></trkpt><trkpt lat="45.662635" lon="9.0463733"><ele>245.0</ele><time>2026-04-03T11:40:13.003Z</time></trkpt><trkpt lat="45.6627033" lon="9.04639"><ele>245.00000000000003</ele><time>2026-04-03T11:40:15.004Z</time></trkpt><trkpt lat="45.6627733" lon="9.046405"><ele>245.0</ele><time>2026-04-03T11:40:17.003Z</time></trkpt><trkpt lat="45.6628683" lon="9.0464267"><ele>245.0</ele><time>2026-04-03T11:40:20.003Z</time></trkpt><trkpt lat="45.6629317" lon="9.0464417"><ele>245.0</ele><time>2026-04-03T11:40:22.003Z</time></trkpt><trkpt lat="45.6630567" lon="9.04647"><ele>245.00000000000003</ele><time>2026-04-03T11:40:25.003Z</time></trkpt><trkpt lat="45.6631233" lon="9.046485"><ele>245.0</ele><time>2026-04-03T11:40:27.004Z</time></trkpt><trkpt lat="45.6632017" lon="9.046475"><ele>244.33333333333334</ele><time>2026-04-03T11:40:30.004Z</time></trkpt><trkpt lat="45.6632783" lon="9.0464883"><ele>243.66666666666669</ele><time>2026-04-03T11:40:32.003Z</time></trkpt><trkpt lat="45.663345" lon="9.0465033"><ele>243.0</ele><time>2026-04-03T11:40:34.003Z</time></trkpt><trkpt lat="45.663435" lon="9.0465267"><ele>242.33333333333331</ele><time>2026-04-03T11:40:37.004Z</time></trkpt><trkpt lat="45.6635" lon="9.0466117"><ele>241.66666666666666</ele><time>2026-04-03T11:40:40.003Z</time></trkpt><trkpt lat="45.6635433" lon="9.0467133"><ele>241.0</ele><time>2026-04-03T11:40:43.004Z</time></trkpt><trkpt lat="45.6635583" lon="9.04684"><ele>240.99999999999997</ele><time>2026-04-03T11:40:46.003Z</time></trkpt><trkpt lat="45.6635733" lon="9.0469633"><ele>241.0</ele><time>2026-04-03T11:40:49.003Z</time></trkpt><trkpt lat="45.663585" lon="9.047065"><ele>241.0</ele><time>2026-04-03T11:40:52.003Z</time></trkpt><trkpt lat="45.6636" lon="9.04718"><ele>241.0</ele><time>2026-04-03T11:40:55.003Z</time></trkpt><trkpt lat="45.6636167" lon="9.047295"><ele>240.99999999999997</ele><time>2026-04-03T11:40:58.004Z</time></trkpt><trkpt lat="45.66363" lon="9.0474117"><ele>241.0</ele><time>2026-04-03T11:41:01.004Z</time></trkpt><trkpt lat="45.6636367" lon="9.0475167"><ele>241.49999999999997</ele><time>2026-04-03T11:41:04.003Z</time></trkpt><trkpt lat="45.6637017" lon="9.047595"><ele>242.0</ele><time>2026-04-03T11:41:08.003Z</time></trkpt><trkpt lat="45.663785" lon="9.0476133"><ele>242.5</ele><time>2026-04-03T11:41:11.003Z</time></trkpt><trkpt lat="45.66387" lon="9.0476333"><ele>243.0</ele><time>2026-04-03T11:41:14.004Z</time></trkpt><trkpt lat="45.66397" lon="9.0476567"><ele>243.49999999999997</ele><time>2026-04-03T11:41:17.003Z</time></trkpt><trkpt lat="45.6640417" lon="9.047645"><ele>244.0</ele><time>2026-04-03T11:41:19.003Z</time></trkpt><trkpt lat="45.6641433" lon="9.0476283"><ele>243.99999999999997</ele><time>2026-04-03T11:41:22.003Z</time></trkpt><trkpt lat="45.6642283" lon="9.0475867"><ele>244.0</ele><time>2026-04-03T11:41:25.003Z</time></trkpt><trkpt lat="45.66434" lon="9.04757"><ele>244.0</ele><time>2026-04-03T11:41:28.004Z</time></trkpt><trkpt lat="45.6644317" lon="9.047555"><ele>244.0</ele><time>2026-04-03T11:41:31.003Z</time></trkpt><trkpt lat="45.6645133" lon="9.0475733"><ele>243.99999999999997</ele><time>2026-04-03T11:41:33.003Z</time></trkpt><trkpt lat="45.6645833" lon="9.04755"><ele>244.0</ele><time>2026-04-03T11:41:35.004Z</time></trkpt><trkpt lat="45.6646517" lon="9.0475167"><ele>243.99999999999997</ele><time>2026-04-03T11:41:37.003Z</time></trkpt><trkpt lat="45.66472" lon="9.0474883"><ele>244.0</ele><time>2026-04-03T11:41:39.004Z</time></trkpt><trkpt lat="45.664785" lon="9.0474517"><ele>243.99999999999997</ele><time>2026-04-03T11:41:41.004Z</time></trkpt><trkpt lat="45.6648517" lon="9.0474483"><ele>243.99999999999997</ele><time>2026-04-03T11:41:43.004Z</time></trkpt><trkpt lat="45.664935" lon="9.0474483"><ele>244.0</ele><time>2026-04-03T11:41:45.003Z</time></trkpt><trkpt lat="45.6649983" lon="9.047425"><ele>243.99999999999997</ele><time>2026-04-03T11:41:47.003Z</time></trkpt><trkpt lat="45.66508" lon="9.0474233"><ele>243.99999999999997</ele><time>2026-04-03T11:41:49.003Z</time></trkpt><trkpt lat="45.6651617" lon="9.047415"><ele>243.99999999999997</ele><time>2026-04-03T11:41:51.003Z</time></trkpt><trkpt lat="45.6652383" lon="9.0474017"><ele>244.0</ele><time>2026-04-03T11:41:53.003Z</time></trkpt><trkpt lat="45.665325" lon="9.0473867"><ele>244.0</ele><time>2026-04-03T11:41:55.004Z</time></trkpt><trkpt lat="45.6654117" lon="9.0473683"><ele>244.0</ele><time>2026-04-03T11:41:57.003Z</time></trkpt><trkpt lat="45.6654983" lon="9.047345"><ele>243.99999999999997</ele><time>2026-04-03T11:41:59.004Z</time></trkpt><trkpt lat="45.6655867" lon="9.0473317"><ele>244.0</ele><time>2026-04-03T11:42:01.003Z</time></trkpt><trkpt lat="45.665675" lon="9.0473167"><ele>244.16666666666666</ele><time>2026-04-03T11:42:03.003Z</time></trkpt><trkpt lat="45.6657567" lon="9.0472917"><ele>244.33333333333331</ele><time>2026-04-03T11:42:05.004Z</time></trkpt><trkpt lat="45.6658383" lon="9.0472583"><ele>244.5</ele><time>2026-04-03T11:42:07.003Z</time></trkpt><trkpt lat="45.6659167" lon="9.047215"><ele>244.66666666666669</ele><time>2026-04-03T11:42:09.003Z</time></trkpt><trkpt lat="45.665995" lon="9.0471817"><ele>244.83333333333334</ele><time>2026-04-03T11:42:11.003Z</time></trkpt><trkpt lat="45.6660783" lon="9.0471583"><ele>245.0</ele><time>2026-04-03T11:42:13.003Z</time></trkpt><trkpt lat="45.6661683" lon="9.0471617"><ele>245.00000000000003</ele><time>2026-04-03T11:42:15.003Z</time></trkpt><trkpt lat="45.6662683" lon="9.0471717"><ele>245.0</ele><time>2026-04-03T11:42:17.003Z</time></trkpt><trkpt lat="45.6663567" lon="9.0471717"><ele>245.0</ele><time>2026-04-03T11:42:19.003Z</time></trkpt><trkpt lat="45.6664367" lon="9.047155"><ele>245.0</ele><time>2026-04-03T11:42:21.004Z</time></trkpt><trkpt lat="45.6665117" lon="9.0471383"><ele>245.00000000000003</ele><time>2026-04-03T11:42:23.003Z</time></trkpt><trkpt lat="45.6666" lon="9.04716"><ele>245.0</ele><time>2026-04-03T11:42:25.004Z</time></trkpt><trkpt lat="45.6666783" lon="9.047155"><ele>245.00000000000003</ele><time>2026-04-03T11:42:27.003Z</time></trkpt><trkpt lat="45.666765" lon="9.047135"><ele>245.0</ele><time>2026-04-03T11:42:29.003Z</time></trkpt><trkpt lat="45.666835" lon="9.0471417"><ele>245.0</ele><time>2026-04-03T11:42:32.004Z</time></trkpt><trkpt lat="45.6668467" lon="9.0470217"><ele>245.0</ele><time>2026-04-03T11:42:36.003Z</time></trkpt><trkpt lat="45.6668317" lon="9.0468783"><ele>245.00000000000003</ele><time>2026-04-03T11:42:38.003Z</time></trkpt><trkpt lat="45.6668167" lon="9.0467333"><ele>245.0</ele><time>2026-04-03T11:42:40.004Z</time></trkpt><trkpt lat="45.6668033" lon="9.0465933"><ele>245.2</ele><time>2026-04-03T11:42:42.004Z</time></trkpt><trkpt lat="45.666795" lon="9.0464383"><ele>245.4</ele><time>2026-04-03T11:42:44.003Z</time></trkpt><trkpt lat="45.6667867" lon="9.0462917"><ele>245.60000000000002</ele><time>2026-04-03T11:42:46.003Z</time></trkpt><trkpt lat="45.666775" lon="9.0461383"><ele>245.8</ele><time>2026-04-03T11:42:48.003Z</time></trkpt><trkpt lat="45.6667633" lon="9.04599"><ele>246.0</ele><time>2026-04-03T11:42:50.004Z</time></trkpt><trkpt lat="45.6667417" lon="9.0458417"><ele>245.4</ele><time>2026-04-03T11:42:52.003Z</time></trkpt><trkpt lat="45.666805" lon="9.0457367"><ele>244.8</ele><time>2026-04-03T11:42:54.004Z</time></trkpt><trkpt lat="45.6668967" lon="9.0457167"><ele>244.20000000000002</ele><time>2026-04-03T11:42:56.004Z</time></trkpt><trkpt lat="45.66699" lon="9.0457083"><ele>243.60000000000002</ele><time>2026-04-03T11:42:58.003Z</time></trkpt><trkpt lat="45.6670867" lon="9.04571"><ele>243.0</ele><time>2026-04-03T11:43:00.003Z</time></trkpt><trkpt lat="45.6671783" lon="9.045705"><ele>243.0</ele><time>2026-04-03T11:43:02.004Z</time></trkpt><trkpt lat="45.6672733" lon="9.0457033"><ele>243.0</ele><time>2026-04-03T11:43:04.003Z</time></trkpt><trkpt lat="45.6673667" lon="9.0456983"><ele>243.0</ele><time>2026-04-03T11:43:06.004Z</time></trkpt><trkpt lat="45.6674633" lon="9.0457067"><ele>243.0</ele><time>2026-04-03T11:43:08.003Z</time></trkpt><trkpt lat="45.6675267" lon="9.0457167"><ele>243.0</ele><time>2026-04-03T11:43:09.004Z</time></trkpt><trkpt lat="45.6676117" lon="9.0457117"><ele>243.0</ele><time>2026-04-03T11:43:11.003Z</time></trkpt><trkpt lat="45.6676833" lon="9.04572"><ele>243.0</ele><time>2026-04-03T11:43:13.003Z</time></trkpt><trkpt lat="45.6677667" lon="9.04571"><ele>243.0</ele><time>2026-04-03T11:43:15.003Z</time></trkpt><trkpt lat="45.667855" lon="9.0457033"><ele>243.0</ele><time>2026-04-03T11:43:17.003Z</time></trkpt><trkpt lat="45.6679467" lon="9.0457"><ele>243.0</ele><time>2026-04-03T11:43:19.003Z</time></trkpt><trkpt lat="45.6680483" lon="9.0456883"><ele>243.0</ele><time>2026-04-03T11:43:21.003Z</time></trkpt><trkpt lat="45.668145" lon="9.0456767"><ele>243.5</ele><time>2026-04-03T11:43:23.003Z</time></trkpt><trkpt lat="45.6682383" lon="9.0456633"><ele>244.0</ele><time>2026-04-03T11:43:25.003Z</time></trkpt><trkpt lat="45.668325" lon="9.045655"><ele>244.5</ele><time>2026-04-03T11:43:27.004Z</time></trkpt><trkpt lat="45.6684183" lon="9.0456567"><ele>245.0</ele><time>2026-04-03T11:43:29.003Z</time></trkpt><trkpt lat="45.6685017" lon="9.045655"><ele>245.5</ele><time>2026-04-03T11:43:31.003Z</time></trkpt><trkpt lat="45.6685783" lon="9.0456567"><ele>246.0</ele><time>2026-04-03T11:43:33.003Z</time></trkpt><trkpt lat="45.66865" lon="9.045645"><ele>246.16666666666666</ele><time>2026-04-03T11:43:35.003Z</time></trkpt><trkpt lat="45.66873" lon="9.0456433"><ele>246.33333333333331</ele><time>2026-04-03T11:43:37.003Z</time></trkpt><trkpt lat="45.668825" lon="9.0456367"><ele>246.5</ele><time>2026-04-03T11:43:39.003Z</time></trkpt><trkpt lat="45.6689017" lon="9.045635"><ele>246.66666666666666</ele><time>2026-04-03T11:43:41.003Z</time></trkpt><trkpt lat="45.668975" lon="9.045635"><ele>246.83333333333331</ele><time>2026-04-03T11:43:43.004Z</time></trkpt><trkpt lat="45.669055" lon="9.04563"><ele>247.0</ele><time>2026-04-03T11:43:45.003Z</time></trkpt><trkpt lat="45.6691417" lon="9.0456233"><ele>247.0</ele><time>2026-04-03T11:43:47.003Z</time></trkpt><trkpt lat="45.6692183" lon="9.0456183"><ele>247.0</ele><time>2026-04-03T11:43:49.003Z</time></trkpt><trkpt lat="45.6692917" lon="9.0456133"><ele>247.0</ele><time>2026-04-03T11:43:51.003Z</time></trkpt><trkpt lat="45.6693583" lon="9.0456083"><ele>247.0</ele><time>2026-04-03T11:43:53.004Z</time></trkpt><trkpt lat="45.6694317" lon="9.0456"><ele>247.0</ele><time>2026-04-03T11:43:55.004Z</time></trkpt><trkpt lat="45.6694967" lon="9.045605"><ele>247.0</ele><time>2026-04-03T11:43:57.004Z</time></trkpt><trkpt lat="45.6695633" lon="9.04562"><ele>247.0</ele><time>2026-04-03T11:43:59.003Z</time></trkpt><trkpt lat="45.66963" lon="9.045625"><ele>247.33333333333331</ele><time>2026-04-03T11:44:01.003Z</time></trkpt><trkpt lat="45.6697083" lon="9.0456033"><ele>247.66666666666666</ele><time>2026-04-03T11:44:03.004Z</time></trkpt><trkpt lat="45.6698" lon="9.0455967"><ele>248.0</ele><time>2026-04-03T11:44:05.004Z</time></trkpt><trkpt lat="45.66988" lon="9.0455867"><ele>248.33333333333331</ele><time>2026-04-03T11:44:07.003Z</time></trkpt><trkpt lat="45.66995" lon="9.0455683"><ele>248.66666666666666</ele><time>2026-04-03T11:44:09.003Z</time></trkpt><trkpt lat="45.670025" lon="9.0455767"><ele>249.0</ele><time>2026-04-03T11:44:11.003Z</time></trkpt><trkpt lat="45.6700917" lon="9.0455917"><ele>249.0</ele><time>2026-04-03T11:44:13.003Z</time></trkpt><trkpt lat="45.67016" lon="9.0456083"><ele>249.0</ele><time>2026-04-03T11:44:15.004Z</time></trkpt><trkpt lat="45.6702367" lon="9.0456017"><ele>249.0</ele><time>2026-04-03T11:44:17.005Z</time></trkpt><trkpt lat="45.670315" lon="9.0456033"><ele>249.0</ele><time>2026-04-03T11:44:19.004Z</time></trkpt><trkpt lat="45.670395" lon="9.0455983"><ele>249.0</ele><time>2026-04-03T11:44:21.005Z</time></trkpt><trkpt lat="45.6704733" lon="9.0455867"><ele>249.0</ele><time>2026-04-03T11:44:23.004Z</time></trkpt><trkpt lat="45.6705567" lon="9.04558"><ele>248.16666666666666</ele><time>2026-04-03T11:44:25.004Z</time></trkpt><trkpt lat="45.6706433" lon="9.0455733"><ele>247.33333333333331</ele><time>2026-04-03T11:44:27.004Z</time></trkpt><trkpt lat="45.6707233" lon="9.04557"><ele>246.5</ele><time>2026-04-03T11:44:29.004Z</time></trkpt><trkpt lat="45.6708" lon="9.0455767"><ele>245.66666666666666</ele><time>2026-04-03T11:44:31.004Z</time></trkpt><trkpt lat="45.6708633" lon="9.0455933"><ele>244.83333333333331</ele><time>2026-04-03T11:44:33.004Z</time></trkpt><trkpt lat="45.6709317" lon="9.0456133"><ele>244.0</ele><time>2026-04-03T11:44:35.005Z</time></trkpt><trkpt lat="45.6710067" lon="9.0456433"><ele>243.99999999999997</ele><time>2026-04-03T11:44:37.004Z</time></trkpt><trkpt lat="45.6710683" lon="9.0457083"><ele>244.0</ele><time>2026-04-03T11:44:39.004Z</time></trkpt><trkpt lat="45.6711367" lon="9.0457817"><ele>244.0</ele><time>2026-04-03T11:44:41.004Z</time></trkpt><trkpt lat="45.6711967" lon="9.04585"><ele>244.0</ele><time>2026-04-03T11:44:43.004Z</time></trkpt><trkpt lat="45.6712583" lon="9.0459433"><ele>243.99999999999997</ele><time>2026-04-03T11:44:45.004Z</time></trkpt><trkpt lat="45.6713183" lon="9.04603"><ele>244.0</ele><time>2026-04-03T11:44:47.004Z</time></trkpt><trkpt lat="45.671375" lon="9.0461233"><ele>244.49999999999997</ele><time>2026-04-03T11:44:49.004Z</time></trkpt><trkpt lat="45.671435" lon="9.0462017"><ele>245.0</ele><time>2026-04-03T11:44:51.004Z</time></trkpt><trkpt lat="45.6715033" lon="9.0462867"><ele>245.5</ele><time>2026-04-03T11:44:53.005Z</time></trkpt><trkpt lat="45.6715617" lon="9.04638"><ele>246.0</ele><time>2026-04-03T11:44:55.004Z</time></trkpt><trkpt lat="45.6716283" lon="9.0464717"><ele>246.49999999999997</ele><time>2026-04-03T11:44:57.005Z</time></trkpt><trkpt lat="45.671695" lon="9.0465533"><ele>247.0</ele><time>2026-04-03T11:44:59.005Z</time></trkpt><trkpt lat="45.6717517" lon="9.0466333"><ele>247.49999999999997</ele><time>2026-04-03T11:45:01.004Z</time></trkpt><trkpt lat="45.6718117" lon="9.046725"><ele>248.0</ele><time>2026-04-03T11:45:03.005Z</time></trkpt><trkpt lat="45.6718833" lon="9.0468"><ele>248.5</ele><time>2026-04-03T11:45:05.004Z</time></trkpt><trkpt lat="45.671935" lon="9.0468833"><ele>249.0</ele><time>2026-04-03T11:45:07.005Z</time></trkpt><trkpt lat="45.671985" lon="9.0469667"><ele>249.49999999999997</ele><time>2026-04-03T11:45:09.004Z</time></trkpt><trkpt lat="45.6720417" lon="9.0470517"><ele>250.0</ele><time>2026-04-03T11:45:11.004Z</time></trkpt><trkpt lat="45.6721" lon="9.0471433"><ele>249.83333333333331</ele><time>2026-04-03T11:45:13.004Z</time></trkpt><trkpt lat="45.672155" lon="9.0472367"><ele>249.66666666666666</ele><time>2026-04-03T11:45:15.004Z</time></trkpt><trkpt lat="45.6722133" lon="9.047325"><ele>249.5</ele><time>2026-04-03T11:45:17.004Z</time></trkpt><trkpt lat="45.6722717" lon="9.0474217"><ele>249.33333333333331</ele><time>2026-04-03T11:45:19.005Z</time></trkpt><trkpt lat="45.67232" lon="9.04753"><ele>249.16666666666666</ele><time>2026-04-03T11:45:21.004Z</time></trkpt><trkpt lat="45.67237" lon="9.0476167"><ele>249.0</ele><time>2026-04-03T11:45:23.004Z</time></trkpt><trkpt lat="45.67243" lon="9.0477017"><ele>249.0</ele><time>2026-04-03T11:45:25.004Z</time></trkpt><trkpt lat="45.672485" lon="9.0477833"><ele>249.0</ele><time>2026-04-03T11:45:27.004Z</time></trkpt><trkpt lat="45.6725433" lon="9.0478617"><ele>249.0</ele><time>2026-04-03T11:45:29.004Z</time></trkpt><trkpt lat="45.6725983" lon="9.047945"><ele>249.0</ele><time>2026-04-03T11:45:31.004Z</time></trkpt><trkpt lat="45.672645" lon="9.0480333"><ele>249.0</ele><time>2026-04-03T11:45:33.004Z</time></trkpt><trkpt lat="45.6726967" lon="9.048115"><ele>249.0</ele><time>2026-04-03T11:45:35.004Z</time></trkpt><trkpt lat="45.6727583" lon="9.048195"><ele>249.0</ele><time>2026-04-03T11:45:37.004Z</time></trkpt><trkpt lat="45.67281" lon="9.0482767"><ele>249.0</ele><time>2026-04-03T11:45:39.004Z</time></trkpt><trkpt lat="45.6728517" lon="9.048365"><ele>249.0</ele><time>2026-04-03T11:45:41.005Z</time></trkpt><trkpt lat="45.6728917" lon="9.0484683"><ele>249.0</ele><time>2026-04-03T11:45:43.004Z</time></trkpt><trkpt lat="45.6729217" lon="9.0485733"><ele>249.0</ele><time>2026-04-03T11:45:45.005Z</time></trkpt><trkpt lat="45.6729517" lon="9.04869"><ele>249.0</ele><time>2026-04-03T11:45:47.005Z</time></trkpt><trkpt lat="45.6729817" lon="9.0487967"><ele>249.0</ele><time>2026-04-03T11:45:49.004Z</time></trkpt><trkpt lat="45.6730083" lon="9.0489083"><ele>249.0</ele><time>2026-04-03T11:45:51.005Z</time></trkpt><trkpt lat="45.6730433" lon="9.0490017"><ele>249.0</ele><time>2026-04-03T11:45:53.005Z</time></trkpt><trkpt lat="45.67311" lon="9.0490233"><ele>249.0</ele><time>2026-04-03T11:45:55.004Z</time></trkpt><trkpt lat="45.67319" lon="9.0490183"><ele>249.0</ele><time>2026-04-03T11:45:57.004Z</time></trkpt><trkpt lat="45.6732783" lon="9.049"><ele>249.0</ele><time>2026-04-03T11:45:59.004Z</time></trkpt><trkpt lat="45.6733633" lon="9.048995"><ele>249.0</ele><time>2026-04-03T11:46:01.004Z</time></trkpt><trkpt lat="45.673445" lon="9.0489917"><ele>249.0</ele><time>2026-04-03T11:46:03.004Z</time></trkpt><trkpt lat="45.6735333" lon="9.048995"><ele>249.0</ele><time>2026-04-03T11:46:05.005Z</time></trkpt><trkpt lat="45.67362" lon="9.0489933"><ele>249.0</ele><time>2026-04-03T11:46:07.004Z</time></trkpt><trkpt lat="45.6737017" lon="9.0489917"><ele>249.0</ele><time>2026-04-03T11:46:09.005Z</time></trkpt><trkpt lat="45.67379" lon="9.0489933"><ele>249.0</ele><time>2026-04-03T11:46:11.004Z</time></trkpt><trkpt lat="45.673875" lon="9.0489933"><ele>249.16666666666666</ele><time>2026-04-03T11:46:13.004Z</time></trkpt><trkpt lat="45.6739583" lon="9.048995"><ele>249.33333333333331</ele><time>2026-04-03T11:46:15.004Z</time></trkpt><trkpt lat="45.6740317" lon="9.04899"><ele>249.5</ele><time>2026-04-03T11:46:17.004Z</time></trkpt><trkpt lat="45.674105" lon="9.0489817"><ele>249.66666666666666</ele><time>2026-04-03T11:46:19.005Z</time></trkpt><trkpt lat="45.6741817" lon="9.0489783"><ele>249.83333333333331</ele><time>2026-04-03T11:46:21.004Z</time></trkpt><trkpt lat="45.6742617" lon="9.0489767"><ele>250.0</ele><time>2026-04-03T11:46:23.004Z</time></trkpt><trkpt lat="45.6743333" lon="9.0489667"><ele>250.0</ele><time>2026-04-03T11:46:25.005Z</time></trkpt><trkpt lat="45.674405" lon="9.0489633"><ele>250.0</ele><time>2026-04-03T11:46:27.004Z</time></trkpt><trkpt lat="45.6744817" lon="9.0489617"><ele>250.0</ele><time>2026-04-03T11:46:29.004Z</time></trkpt><trkpt lat="45.6745517" lon="9.0489517"><ele>250.0</ele><time>2026-04-03T11:46:31.004Z</time></trkpt><trkpt lat="45.674625" lon="9.0489417"><ele>250.0</ele><time>2026-04-03T11:46:33.004Z</time></trkpt><trkpt lat="45.674695" lon="9.0489233"><ele>250.0</ele><time>2026-04-03T11:46:35.004Z</time></trkpt><trkpt lat="45.67476" lon="9.048915"><ele>250.0</ele><time>2026-04-03T11:46:37.004Z</time></trkpt><trkpt lat="45.6748317" lon="9.0488967"><ele>250.14285714285714</ele><time>2026-04-03T11:46:39.004Z</time></trkpt><trkpt lat="45.6749017" lon="9.048875"><ele>250.28571428571428</ele><time>2026-04-03T11:46:41.005Z</time></trkpt><trkpt lat="45.674975" lon="9.0488583"><ele>250.42857142857142</ele><time>2026-04-03T11:46:43.005Z</time></trkpt><trkpt lat="45.6750433" lon="9.048845"><ele>250.57142857142856</ele><time>2026-04-03T11:46:45.004Z</time></trkpt><trkpt lat="45.6751267" lon="9.0488367"><ele>250.71428571428572</ele><time>2026-04-03T11:46:47.005Z</time></trkpt><trkpt lat="45.6751967" lon="9.0488317"><ele>250.85714285714283</ele><time>2026-04-03T11:46:49.004Z</time></trkpt><trkpt lat="45.67526" lon="9.0488267"><ele>250.99999999999997</ele><time>2026-04-03T11:46:51.005Z</time></trkpt><trkpt lat="45.67534" lon="9.0488083"><ele>251.16666666666669</ele><time>2026-04-03T11:46:53.005Z</time></trkpt><trkpt lat="45.67541" lon="9.0487667"><ele>251.33333333333334</ele><time>2026-04-03T11:46:55.004Z</time></trkpt><trkpt lat="45.675475" lon="9.048715"><ele>251.5</ele><time>2026-04-03T11:46:57.004Z</time></trkpt><trkpt lat="45.6755333" lon="9.048625"><ele>251.66666666666669</ele><time>2026-04-03T11:46:59.004Z</time></trkpt><trkpt lat="45.6755883" lon="9.048545"><ele>251.83333333333334</ele><time>2026-04-03T11:47:01.004Z</time></trkpt><trkpt lat="45.6756433" lon="9.048465"><ele>252.0</ele><time>2026-04-03T11:47:03.004Z</time></trkpt><trkpt lat="45.675705" lon="9.0483933"><ele>252.0</ele><time>2026-04-03T11:47:05.005Z</time></trkpt><trkpt lat="45.6757767" lon="9.048345"><ele>252.0</ele><time>2026-04-03T11:47:07.004Z</time></trkpt><trkpt lat="45.675855" lon="9.04832"><ele>252.0</ele><time>2026-04-03T11:47:09.004Z</time></trkpt><trkpt lat="45.6759317" lon="9.04831"><ele>252.0</ele><time>2026-04-03T11:47:11.004Z</time></trkpt><trkpt lat="45.6760083" lon="9.0483267"><ele>252.0</ele><time>2026-04-03T11:47:13.004Z</time></trkpt><trkpt lat="45.6760817" lon="9.0483333"><ele>252.0</ele><time>2026-04-03T11:47:15.004Z</time></trkpt><trkpt lat="45.6761617" lon="9.0483333"><ele>252.0</ele><time>2026-04-03T11:47:17.004Z</time></trkpt><trkpt lat="45.676235" lon="9.04833"><ele>252.0</ele><time>2026-04-03T11:47:19.004Z</time></trkpt><trkpt lat="45.6763017" lon="9.04834"><ele>252.0</ele><time>2026-04-03T11:47:21.005Z</time></trkpt><trkpt lat="45.6763683" lon="9.0483467"><ele>252.0</ele><time>2026-04-03T11:47:23.005Z</time></trkpt><trkpt lat="45.676435" lon="9.0483467"><ele>252.0</ele><time>2026-04-03T11:47:25.004Z</time></trkpt><trkpt lat="45.6765133" lon="9.0483467"><ele>252.0</ele><time>2026-04-03T11:47:27.004Z</time></trkpt><trkpt lat="45.6765883" lon="9.0483433"><ele>252.0</ele><time>2026-04-03T11:47:29.004Z</time></trkpt><trkpt lat="45.6766667" lon="9.048345"><ele>252.0</ele><time>2026-04-03T11:47:31.005Z</time></trkpt><trkpt lat="45.676735" lon="9.0483533"><ele>252.0</ele><time>2026-04-03T11:47:33.004Z</time></trkpt><trkpt lat="45.67681" lon="9.0483633"><ele>252.0</ele><time>2026-04-03T11:47:35.005Z</time></trkpt><trkpt lat="45.6768783" lon="9.048365"><ele>252.0</ele><time>2026-04-03T11:47:37.004Z</time></trkpt><trkpt lat="45.676945" lon="9.0483683"><ele>252.0</ele><time>2026-04-03T11:47:39.004Z</time></trkpt><trkpt lat="45.6770217" lon="9.048385"><ele>252.0</ele><time>2026-04-03T11:47:41.004Z</time></trkpt><trkpt lat="45.677095" lon="9.0483817"><ele>252.0</ele><time>2026-04-03T11:47:43.005Z</time></trkpt><trkpt lat="45.677165" lon="9.0483783"><ele>252.14285714285714</ele><time>2026-04-03T11:47:45.004Z</time></trkpt><trkpt lat="45.677235" lon="9.04839"><ele>252.28571428571428</ele><time>2026-04-03T11:47:47.004Z</time></trkpt><trkpt lat="45.67731" lon="9.0483933"><ele>252.42857142857144</ele><time>2026-04-03T11:47:49.004Z</time></trkpt><trkpt lat="45.6773817" lon="9.0483967"><ele>252.57142857142858</ele><time>2026-04-03T11:47:51.004Z</time></trkpt><trkpt lat="45.677455" lon="9.0484017"><ele>252.71428571428572</ele><time>2026-04-03T11:47:53.004Z</time></trkpt><trkpt lat="45.67753" lon="9.0484083"><ele>252.8571428571429</ele><time>2026-04-03T11:47:55.004Z</time></trkpt><trkpt lat="45.6775983" lon="9.0484117"><ele>253.00000000000003</ele><time>2026-04-03T11:47:57.004Z</time></trkpt><trkpt lat="45.6776633" lon="9.0484267"><ele>252.99999999999997</ele><time>2026-04-03T11:47:59.005Z</time></trkpt><trkpt lat="45.677735" lon="9.0484433"><ele>253.0</ele><time>2026-04-03T11:48:01.004Z</time></trkpt><trkpt lat="45.6778033" lon="9.0484583"><ele>253.0</ele><time>2026-04-03T11:48:03.005Z</time></trkpt><trkpt lat="45.67787" lon="9.0484383"><ele>253.0</ele><time>2026-04-03T11:48:05.004Z</time></trkpt><trkpt lat="45.67793" lon="9.0483567"><ele>252.99999999999997</ele><time>2026-04-03T11:48:07.004Z</time></trkpt><trkpt lat="45.6779633" lon="9.04825"><ele>253.0</ele><time>2026-04-03T11:48:09.004Z</time></trkpt><trkpt lat="45.67798" lon="9.0481217"><ele>253.2</ele><time>2026-04-03T11:48:11.004Z</time></trkpt><trkpt lat="45.6779867" lon="9.0479867"><ele>253.4</ele><time>2026-04-03T11:48:13.004Z</time></trkpt><trkpt lat="45.6779983" lon="9.0478567"><ele>253.59999999999997</ele><time>2026-04-03T11:48:15.004Z</time></trkpt><trkpt lat="45.6780033" lon="9.04773"><ele>253.79999999999998</ele><time>2026-04-03T11:48:17.004Z</time></trkpt><trkpt lat="45.6780083" lon="9.0476017"><ele>254.0</ele><time>2026-04-03T11:48:19.004Z</time></trkpt><trkpt lat="45.6780217" lon="9.04747"><ele>253.79999999999998</ele><time>2026-04-03T11:48:21.004Z</time></trkpt><trkpt lat="45.6780417" lon="9.047335"><ele>253.59999999999997</ele><time>2026-04-03T11:48:23.004Z</time></trkpt><trkpt lat="45.6780517" lon="9.04719"><ele>253.4</ele><time>2026-04-03T11:48:25.004Z</time></trkpt><trkpt lat="45.6780617" lon="9.0470417"><ele>253.2</ele><time>2026-04-03T11:48:27.005Z</time></trkpt><trkpt lat="45.678075" lon="9.04688"><ele>253.0</ele><time>2026-04-03T11:48:29.004Z</time></trkpt><trkpt lat="45.6780967" lon="9.0467267"><ele>253.14285714285717</ele><time>2026-04-03T11:48:31.004Z</time></trkpt><trkpt lat="45.6781017" lon="9.04662"><ele>253.28571428571428</ele><time>2026-04-03T11:48:32.004Z</time></trkpt><trkpt lat="45.678105" lon="9.0465167"><ele>253.42857142857144</ele><time>2026-04-03T11:48:33.004Z</time></trkpt><trkpt lat="45.67811" lon="9.04642"><ele>253.57142857142858</ele><time>2026-04-03T11:48:34.004Z</time></trkpt><trkpt lat="45.67811" lon="9.04632"><ele>253.71428571428572</ele><time>2026-04-03T11:48:35.005Z</time></trkpt><trkpt lat="45.6781167" lon="9.0462183"><ele>253.85714285714286</ele><time>2026-04-03T11:48:36.004Z</time></trkpt><trkpt lat="45.6781283" lon="9.046125"><ele>254.0</ele><time>2026-04-03T11:48:37.005Z</time></trkpt><trkpt lat="45.6781417" lon="9.0460317"><ele>254.0</ele><time>2026-04-03T11:48:38.004Z</time></trkpt><trkpt lat="45.678175" lon="9.0459333"><ele>254.0</ele><time>2026-04-03T11:48:39.005Z</time></trkpt><trkpt lat="45.6782217" lon="9.0458567"><ele>254.0</ele><time>2026-04-03T11:48:40.004Z</time></trkpt><trkpt lat="45.6782767" lon="9.045785"><ele>254.0</ele><time>2026-04-03T11:48:41.004Z</time></trkpt><trkpt lat="45.678345" lon="9.0457317"><ele>254.0</ele><time>2026-04-03T11:48:42.005Z</time></trkpt><trkpt lat="45.6784167" lon="9.0456883"><ele>254.0</ele><time>2026-04-03T11:48:43.004Z</time></trkpt><trkpt lat="45.67848" lon="9.0456517"><ele>254.0</ele><time>2026-04-03T11:48:44.005Z</time></trkpt><trkpt lat="45.6785483" lon="9.045615"><ele>253.6</ele><time>2026-04-03T11:48:45.004Z</time></trkpt><trkpt lat="45.6786167" lon="9.0455883"><ele>253.2</ele><time>2026-04-03T11:48:46.004Z</time></trkpt><trkpt lat="45.6786817" lon="9.0455683"><ele>252.79999999999998</ele><time>2026-04-03T11:48:47.005Z</time></trkpt><trkpt lat="45.6787917" lon="9.045635"><ele>252.39999999999998</ele><time>2026-04-03T11:48:49.005Z</time></trkpt><trkpt lat="45.6788733" lon="9.0457433"><ele>252.0</ele><time>2026-04-03T11:48:51.005Z</time></trkpt><trkpt lat="45.6789517" lon="9.045845"><ele>252.0</ele><time>2026-04-03T11:48:53.004Z</time></trkpt><trkpt lat="45.6790133" lon="9.0459583"><ele>252.0</ele><time>2026-04-03T11:48:55.004Z</time></trkpt><trkpt lat="45.6790717" lon="9.046075"><ele>252.0</ele><time>2026-04-03T11:48:57.004Z</time></trkpt><trkpt lat="45.6791133" lon="9.04619"><ele>252.0</ele><time>2026-04-03T11:48:59.004Z</time></trkpt><trkpt lat="45.6791167" lon="9.0463233"><ele>252.0</ele><time>2026-04-03T11:49:01.004Z</time></trkpt><trkpt lat="45.6791183" lon="9.0464533"><ele>252.0</ele><time>2026-04-03T11:49:03.005Z</time></trkpt><trkpt lat="45.6791283" lon="9.0465667"><ele>252.0</ele><time>2026-04-03T11:49:05.005Z</time></trkpt><trkpt lat="45.6791433" lon="9.0466783"><ele>252.0</ele><time>2026-04-03T11:49:07.004Z</time></trkpt><trkpt lat="45.679165" lon="9.0467767"><ele>252.0</ele><time>2026-04-03T11:49:09.005Z</time></trkpt><trkpt lat="45.6792133" lon="9.0468567"><ele>252.0</ele><time>2026-04-03T11:49:11.005Z</time></trkpt><trkpt lat="45.6792617" lon="9.0469283"><ele>252.0</ele><time>2026-04-03T11:49:13.004Z</time></trkpt><trkpt lat="45.6792967" lon="9.0470083"><ele>252.0</ele><time>2026-04-03T11:49:15.004Z</time></trkpt><trkpt lat="45.6793217" lon="9.047125"><ele>252.66666666666666</ele><time>2026-04-03T11:49:18.005Z</time></trkpt><trkpt lat="45.6793167" lon="9.047225"><ele>253.33333333333331</ele><time>2026-04-03T11:49:20.004Z</time></trkpt><trkpt lat="45.67932" lon="9.04732"><ele>254.0</ele><time>2026-04-03T11:49:22.005Z</time></trkpt><trkpt lat="45.6793217" lon="9.0474533"><ele>254.66666666666666</ele><time>2026-04-03T11:49:25.005Z</time></trkpt><trkpt lat="45.6793283" lon="9.04756"><ele>255.33333333333331</ele><time>2026-04-03T11:49:27.004Z</time></trkpt><trkpt lat="45.6793417" lon="9.0476667"><ele>256.0</ele><time>2026-04-03T11:49:29.004Z</time></trkpt><trkpt lat="45.679345" lon="9.0477817"><ele>256.16666666666663</ele><time>2026-04-03T11:49:31.004Z</time></trkpt><trkpt lat="45.6793617" lon="9.047895"><ele>256.3333333333333</ele><time>2026-04-03T11:49:33.004Z</time></trkpt><trkpt lat="45.679395" lon="9.0479967"><ele>256.5</ele><time>2026-04-03T11:49:35.004Z</time></trkpt><trkpt lat="45.6794283" lon="9.0480967"><ele>256.6666666666667</ele><time>2026-04-03T11:49:37.004Z</time></trkpt><trkpt lat="45.67946" lon="9.0481883"><ele>256.83333333333337</ele><time>2026-04-03T11:49:39.004Z</time></trkpt><trkpt lat="45.679485" lon="9.0482767"><ele>257.0</ele><time>2026-04-03T11:49:41.004Z</time></trkpt><trkpt lat="45.6795367" lon="9.0483733"><ele>256.2</ele><time>2026-04-03T11:49:44.005Z</time></trkpt><trkpt lat="45.6796267" lon="9.0483683"><ele>255.39999999999998</ele><time>2026-04-03T11:49:47.004Z</time></trkpt><trkpt lat="45.6797217" lon="9.0483167"><ele>254.60000000000002</ele><time>2026-04-03T11:49:49.004Z</time></trkpt><trkpt lat="45.6798283" lon="9.0482383"><ele>253.8</ele><time>2026-04-03T11:49:51.004Z</time></trkpt><trkpt lat="45.6799183" lon="9.0481583"><ele>253.0</ele><time>2026-04-03T11:49:53.005Z</time></trkpt><trkpt lat="45.6799933" lon="9.04804"><ele>253.0</ele><time>2026-04-03T11:49:55.005Z</time></trkpt><trkpt lat="45.6800733" lon="9.0479167"><ele>253.0</ele><time>2026-04-03T11:49:57.004Z</time></trkpt><trkpt lat="45.6801283" lon="9.0478017"><ele>253.0</ele><time>2026-04-03T11:49:59.005Z</time></trkpt><trkpt lat="45.6801833" lon="9.0476867"><ele>253.0</ele><time>2026-04-03T11:50:01.004Z</time></trkpt><trkpt lat="45.6802417" lon="9.0475733"><ele>253.0</ele><time>2026-04-03T11:50:03.004Z</time></trkpt><trkpt lat="45.6802867" lon="9.047455"><ele>252.2</ele><time>2026-04-03T11:50:05.005Z</time></trkpt><trkpt lat="45.6803333" lon="9.0473733"><ele>251.4</ele><time>2026-04-03T11:50:07.005Z</time></trkpt><trkpt lat="45.6803917" lon="9.0472733"><ele>250.59999999999997</ele><time>2026-04-03T11:50:09.005Z</time></trkpt><trkpt lat="45.6804467" lon="9.04716"><ele>249.79999999999998</ele><time>2026-04-03T11:50:11.004Z</time></trkpt><trkpt lat="45.68052" lon="9.04703"><ele>249.0</ele><time>2026-04-03T11:50:13.004Z</time></trkpt><trkpt lat="45.680585" lon="9.0469"><ele>249.0</ele><time>2026-04-03T11:50:15.005Z</time></trkpt><trkpt lat="45.680645" lon="9.0467767"><ele>248.99999999999997</ele><time>2026-04-03T11:50:17.005Z</time></trkpt><trkpt lat="45.6807133" lon="9.046655"><ele>248.99999999999997</ele><time>2026-04-03T11:50:19.004Z</time></trkpt><trkpt lat="45.6807733" lon="9.0465367"><ele>249.0</ele><time>2026-04-03T11:50:21.004Z</time></trkpt><trkpt lat="45.6808333" lon="9.04643"><ele>249.0</ele><time>2026-04-03T11:50:23.004Z</time></trkpt><trkpt lat="45.6809133" lon="9.046355"><ele>248.83333333333334</ele><time>2026-04-03T11:50:25.004Z</time></trkpt><trkpt lat="45.6809967" lon="9.0463417"><ele>248.66666666666669</ele><time>2026-04-03T11:50:27.004Z</time></trkpt><trkpt lat="45.6810617" lon="9.0463867"><ele>248.5</ele><time>2026-04-03T11:50:29.004Z</time></trkpt><trkpt lat="45.6811533" lon="9.0464467"><ele>248.33333333333334</ele><time>2026-04-03T11:50:32.004Z</time></trkpt><trkpt lat="45.6812283" lon="9.0465067"><ele>248.16666666666669</ele><time>2026-04-03T11:50:34.004Z</time></trkpt><trkpt lat="45.6813033" lon="9.0465633"><ele>248.0</ele><time>2026-04-03T11:50:36.005Z</time></trkpt><trkpt lat="45.6813767" lon="9.046615"><ele>247.83333333333334</ele><time>2026-04-03T11:50:38.005Z</time></trkpt><trkpt lat="45.6814517" lon="9.0466667"><ele>247.66666666666669</ele><time>2026-04-03T11:50:40.005Z</time></trkpt><trkpt lat="45.6815317" lon="9.046715"><ele>247.5</ele><time>2026-04-03T11:50:42.004Z</time></trkpt><trkpt lat="45.6816133" lon="9.0467467"><ele>247.33333333333331</ele><time>2026-04-03T11:50:44.005Z</time></trkpt><trkpt lat="45.6816933" lon="9.0467967"><ele>247.16666666666666</ele><time>2026-04-03T11:50:46.004Z</time></trkpt><trkpt lat="45.6817717" lon="9.0468567"><ele>247.0</ele><time>2026-04-03T11:50:48.004Z</time></trkpt><trkpt lat="45.681835" lon="9.0469333"><ele>246.99999999999997</ele><time>2026-04-03T11:50:50.004Z</time></trkpt><trkpt lat="45.6819" lon="9.0469983"><ele>247.0</ele><time>2026-04-03T11:50:52.005Z</time></trkpt><trkpt lat="45.6819733" lon="9.0470533"><ele>247.0</ele><time>2026-04-03T11:50:54.004Z</time></trkpt><trkpt lat="45.6820467" lon="9.0471033"><ele>247.0</ele><time>2026-04-03T11:50:56.004Z</time></trkpt><trkpt lat="45.6821083" lon="9.0471533"><ele>246.99999999999997</ele><time>2026-04-03T11:50:58.004Z</time></trkpt><trkpt lat="45.68217" lon="9.0472217"><ele>247.0</ele><time>2026-04-03T11:51:00.004Z</time></trkpt><trkpt lat="45.682245" lon="9.04729"><ele>247.16666666666666</ele><time>2026-04-03T11:51:02.005Z</time></trkpt><trkpt lat="45.6823117" lon="9.04735"><ele>247.33333333333331</ele><time>2026-04-03T11:51:04.005Z</time></trkpt><trkpt lat="45.6823817" lon="9.0474183"><ele>247.5</ele><time>2026-04-03T11:51:06.005Z</time></trkpt><trkpt lat="45.6824517" lon="9.0474817"><ele>247.66666666666669</ele><time>2026-04-03T11:51:08.005Z</time></trkpt><trkpt lat="45.6825083" lon="9.047555"><ele>247.83333333333334</ele><time>2026-04-03T11:51:10.005Z</time></trkpt><trkpt lat="45.6825733" lon="9.04762"><ele>248.0</ele><time>2026-04-03T11:51:12.006Z</time></trkpt><trkpt lat="45.6826333" lon="9.0476933"><ele>248.00000000000003</ele><time>2026-04-03T11:51:14.005Z</time></trkpt><trkpt lat="45.6827" lon="9.0477517"><ele>248.0</ele><time>2026-04-03T11:51:16.006Z</time></trkpt><trkpt lat="45.6827683" lon="9.0478167"><ele>248.0</ele><time>2026-04-03T11:51:18.005Z</time></trkpt><trkpt lat="45.68283" lon="9.0478817"><ele>248.0</ele><time>2026-04-03T11:51:20.005Z</time></trkpt><trkpt lat="45.6829033" lon="9.04796"><ele>248.00000000000003</ele><time>2026-04-03T11:51:23.005Z</time></trkpt><trkpt lat="45.6829667" lon="9.0480467"><ele>248.0</ele><time>2026-04-03T11:51:25.005Z</time></trkpt><trkpt lat="45.6830567" lon="9.0480967"><ele>248.00000000000003</ele><time>2026-04-03T11:51:27.005Z</time></trkpt><trkpt lat="45.683135" lon="9.0481567"><ele>248.0</ele><time>2026-04-03T11:51:29.005Z</time></trkpt><trkpt lat="45.683205" lon="9.0482167"><ele>248.0</ele><time>2026-04-03T11:51:31.005Z</time></trkpt><trkpt lat="45.683265" lon="9.0482867"><ele>248.0</ele><time>2026-04-03T11:51:33.006Z</time></trkpt><trkpt lat="45.6833283" lon="9.048345"><ele>248.00000000000003</ele><time>2026-04-03T11:51:35.005Z</time></trkpt><trkpt lat="45.6833967" lon="9.048405"><ele>248.0</ele><time>2026-04-03T11:51:37.005Z</time></trkpt><trkpt lat="45.6834583" lon="9.0484483"><ele>248.14285714285717</ele><time>2026-04-03T11:51:39.005Z</time></trkpt><trkpt lat="45.683525" lon="9.0484933"><ele>248.2857142857143</ele><time>2026-04-03T11:51:41.005Z</time></trkpt><trkpt lat="45.68359" lon="9.0485433"><ele>248.42857142857144</ele><time>2026-04-03T11:51:43.005Z</time></trkpt><trkpt lat="45.6836567" lon="9.0485933"><ele>248.57142857142856</ele><time>2026-04-03T11:51:45.005Z</time></trkpt><trkpt lat="45.6837167" lon="9.048645"><ele>248.7142857142857</ele><time>2026-04-03T11:51:47.005Z</time></trkpt><trkpt lat="45.68378" lon="9.0486833"><ele>248.85714285714283</ele><time>2026-04-03T11:51:49.005Z</time></trkpt><trkpt lat="45.68384" lon="9.0487333"><ele>249.0</ele><time>2026-04-03T11:51:51.005Z</time></trkpt><trkpt lat="45.6839" lon="9.0487833"><ele>249.0</ele><time>2026-04-03T11:51:53.006Z</time></trkpt><trkpt lat="45.6839633" lon="9.0488283"><ele>249.0</ele><time>2026-04-03T11:51:55.005Z</time></trkpt><trkpt lat="45.68402" lon="9.0488983"><ele>249.0</ele><time>2026-04-03T11:51:57.005Z</time></trkpt><trkpt lat="45.6840733" lon="9.0489867"><ele>249.0</ele><time>2026-04-03T11:51:59.006Z</time></trkpt><trkpt lat="45.68409" lon="9.0491033"><ele>249.0</ele><time>2026-04-03T11:52:01.006Z</time></trkpt><trkpt lat="45.6840967" lon="9.0492217"><ele>249.0</ele><time>2026-04-03T11:52:03.005Z</time></trkpt><trkpt lat="45.68412" lon="9.0493233"><ele>249.28571428571428</ele><time>2026-04-03T11:52:05.006Z</time></trkpt><trkpt lat="45.684145" lon="9.049415"><ele>249.57142857142856</ele><time>2026-04-03T11:52:07.005Z</time></trkpt><trkpt lat="45.684185" lon="9.0494983"><ele>249.85714285714283</ele><time>2026-04-03T11:52:09.005Z</time></trkpt><trkpt lat="45.6842383" lon="9.0495633"><ele>250.1428571428571</ele><time>2026-04-03T11:52:11.005Z</time></trkpt><trkpt lat="45.6843017" lon="9.0496333"><ele>250.42857142857142</ele><time>2026-04-03T11:52:13.005Z</time></trkpt><trkpt lat="45.684365" lon="9.0497"><ele>250.71428571428567</ele><time>2026-04-03T11:52:15.005Z</time></trkpt><trkpt lat="45.68443" lon="9.0497633"><ele>250.99999999999997</ele><time>2026-04-03T11:52:17.006Z</time></trkpt><trkpt lat="45.684485" lon="9.0498267"><ele>251.16666666666669</ele><time>2026-04-03T11:52:19.005Z</time></trkpt><trkpt lat="45.6845567" lon="9.0499017"><ele>251.33333333333334</ele><time>2026-04-03T11:52:21.005Z</time></trkpt><trkpt lat="45.6846117" lon="9.0499667"><ele>251.5</ele><time>2026-04-03T11:52:23.005Z</time></trkpt><trkpt lat="45.6846583" lon="9.0500533"><ele>251.66666666666669</ele><time>2026-04-03T11:52:25.005Z</time></trkpt><trkpt lat="45.6847033" lon="9.05014"><ele>251.83333333333334</ele><time>2026-04-03T11:52:27.006Z</time></trkpt><trkpt lat="45.6847317" lon="9.0502383"><ele>252.0</ele><time>2026-04-03T11:52:29.006Z</time></trkpt><trkpt lat="45.6847433" lon="9.050335"><ele>252.33333333333334</ele><time>2026-04-03T11:52:31.005Z</time></trkpt><trkpt lat="45.6847433" lon="9.0504383"><ele>252.66666666666669</ele><time>2026-04-03T11:52:33.005Z</time></trkpt><trkpt lat="45.6847583" lon="9.0505383"><ele>253.0</ele><time>2026-04-03T11:52:35.005Z</time></trkpt><trkpt lat="45.684805" lon="9.050645"><ele>253.33333333333334</ele><time>2026-04-03T11:52:38.005Z</time></trkpt><trkpt lat="45.6848633" lon="9.05073"><ele>253.66666666666669</ele><time>2026-04-03T11:52:41.005Z</time></trkpt><trkpt lat="45.6849283" lon="9.0507933"><ele>254.0</ele><time>2026-04-03T11:52:44.005Z</time></trkpt><trkpt lat="45.6849767" lon="9.05086"><ele>254.28571428571428</ele><time>2026-04-03T11:52:46.005Z</time></trkpt><trkpt lat="45.6850367" lon="9.0509167"><ele>254.57142857142856</ele><time>2026-04-03T11:52:48.005Z</time></trkpt><trkpt lat="45.685095" lon="9.050965"><ele>254.85714285714283</ele><time>2026-04-03T11:52:50.005Z</time></trkpt><trkpt lat="45.6851583" lon="9.0510233"><ele>255.14285714285714</ele><time>2026-04-03T11:52:52.005Z</time></trkpt><trkpt lat="45.6852183" lon="9.0510783"><ele>255.4285714285714</ele><time>2026-04-03T11:52:54.005Z</time></trkpt><trkpt lat="45.6852817" lon="9.0511283"><ele>255.7142857142857</ele><time>2026-04-03T11:52:56.006Z</time></trkpt><trkpt lat="45.6853417" lon="9.0511617"><ele>256.0</ele><time>2026-04-03T11:52:58.006Z</time></trkpt><trkpt lat="45.6854117" lon="9.0511967"><ele>255.42857142857142</ele><time>2026-04-03T11:53:00.005Z</time></trkpt><trkpt lat="45.6854833" lon="9.05123"><ele>254.85714285714283</ele><time>2026-04-03T11:53:02.005Z</time></trkpt><trkpt lat="45.6855533" lon="9.0512667"><ele>254.28571428571428</ele><time>2026-04-03T11:53:04.006Z</time></trkpt><trkpt lat="45.6856267" lon="9.0512917"><ele>253.71428571428572</ele><time>2026-04-03T11:53:06.006Z</time></trkpt><trkpt lat="45.6856917" lon="9.0513017"><ele>253.14285714285714</ele><time>2026-04-03T11:53:08.005Z</time></trkpt><trkpt lat="45.6857583" lon="9.0513"><ele>252.57142857142856</ele><time>2026-04-03T11:53:10.005Z</time></trkpt><trkpt lat="45.6858233" lon="9.0513133"><ele>252.0</ele><time>2026-04-03T11:53:12.005Z</time></trkpt><trkpt lat="45.68589" lon="9.0513267"><ele>252.0</ele><time>2026-04-03T11:53:14.006Z</time></trkpt><trkpt lat="45.6859617" lon="9.0513417"><ele>252.0</ele><time>2026-04-03T11:53:16.005Z</time></trkpt><trkpt lat="45.6860367" lon="9.0513767"><ele>252.0</ele><time>2026-04-03T11:53:18.005Z</time></trkpt><trkpt lat="45.68611" lon="9.0513833"><ele>252.0</ele><time>2026-04-03T11:53:20.006Z</time></trkpt><trkpt lat="45.6861833" lon="9.0514"><ele>252.0</ele><time>2026-04-03T11:53:22.006Z</time></trkpt><trkpt lat="45.68626" lon="9.0514133"><ele>252.0</ele><time>2026-04-03T11:53:24.006Z</time></trkpt><trkpt lat="45.6863333" lon="9.0514183"><ele>251.71428571428572</ele><time>2026-04-03T11:53:26.006Z</time></trkpt><trkpt lat="45.6864117" lon="9.051435"><ele>251.42857142857144</ele><time>2026-04-03T11:53:28.005Z</time></trkpt><trkpt lat="45.6864867" lon="9.05144"><ele>251.14285714285714</ele><time>2026-04-03T11:53:30.006Z</time></trkpt><trkpt lat="45.6865617" lon="9.0514467"><ele>250.85714285714286</ele><time>2026-04-03T11:53:32.006Z</time></trkpt><trkpt lat="45.6866317" lon="9.0514483"><ele>250.57142857142858</ele><time>2026-04-03T11:53:34.005Z</time></trkpt><trkpt lat="45.6867017" lon="9.0514533"><ele>250.28571428571428</ele><time>2026-04-03T11:53:36.005Z</time></trkpt><trkpt lat="45.686775" lon="9.0514467"><ele>250.0</ele><time>2026-04-03T11:53:38.005Z</time></trkpt><trkpt lat="45.68684" lon="9.05146"><ele>250.0</ele><time>2026-04-03T11:53:40.005Z</time></trkpt><trkpt lat="45.686905" lon="9.051475"><ele>250.0</ele><time>2026-04-03T11:53:42.006Z</time></trkpt><trkpt lat="45.68697" lon="9.0514933"><ele>250.0</ele><time>2026-04-03T11:53:44.005Z</time></trkpt><trkpt lat="45.6870533" lon="9.0514967"><ele>250.0</ele><time>2026-04-03T11:53:47.005Z</time></trkpt><trkpt lat="45.6871283" lon="9.0515083"><ele>250.0</ele><time>2026-04-03T11:53:49.005Z</time></trkpt><trkpt lat="45.6871983" lon="9.0515167"><ele>250.0</ele><time>2026-04-03T11:53:51.006Z</time></trkpt><trkpt lat="45.687265" lon="9.05152"><ele>250.0</ele><time>2026-04-03T11:53:53.005Z</time></trkpt><trkpt lat="45.6873517" lon="9.0515117"><ele>250.28571428571428</ele><time>2026-04-03T11:53:56.005Z</time></trkpt><trkpt lat="45.6874183" lon="9.0515067"><ele>250.57142857142858</ele><time>2026-04-03T11:53:58.006Z</time></trkpt><trkpt lat="45.687485" lon="9.0514933"><ele>250.85714285714286</ele><time>2026-04-03T11:54:00.005Z</time></trkpt><trkpt lat="45.687555" lon="9.0514817"><ele>251.14285714285714</ele><time>2026-04-03T11:54:02.006Z</time></trkpt><trkpt lat="45.6876183" lon="9.051485"><ele>251.42857142857144</ele><time>2026-04-03T11:54:04.006Z</time></trkpt><trkpt lat="45.6877017" lon="9.0514683"><ele>251.71428571428572</ele><time>2026-04-03T11:54:07.005Z</time></trkpt><trkpt lat="45.6877917" lon="9.0514517"><ele>252.0</ele><time>2026-04-03T11:54:10.005Z</time></trkpt><trkpt lat="45.68788" lon="9.0514717"><ele>252.0</ele><time>2026-04-03T11:54:13.005Z</time></trkpt><trkpt lat="45.6879483" lon="9.0514783"><ele>252.0</ele><time>2026-04-03T11:54:15.005Z</time></trkpt><trkpt lat="45.6880133" lon="9.051495"><ele>252.0</ele><time>2026-04-03T11:54:17.005Z</time></trkpt><trkpt lat="45.688105" lon="9.0515033"><ele>252.0</ele><time>2026-04-03T11:54:20.005Z</time></trkpt><trkpt lat="45.6881983" lon="9.0515233"><ele>252.0</ele><time>2026-04-03T11:54:23.005Z</time></trkpt><trkpt lat="45.6882817" lon="9.0515433"><ele>252.0</ele><time>2026-04-03T11:54:26.006Z</time></trkpt><trkpt lat="45.688345" lon="9.0515483"><ele>252.0</ele><time>2026-04-03T11:54:28.005Z</time></trkpt><trkpt lat="45.6884333" lon="9.05155"><ele>252.0</ele><time>2026-04-03T11:54:31.005Z</time></trkpt><trkpt lat="45.6885217" lon="9.0515483"><ele>252.0</ele><time>2026-04-03T11:54:34.005Z</time></trkpt><trkpt lat="45.6886083" lon="9.05153"><ele>252.0</ele><time>2026-04-03T11:54:37.005Z</time></trkpt><trkpt lat="45.6886983" lon="9.0515217"><ele>252.0</ele><time>2026-04-03T11:54:40.005Z</time></trkpt><trkpt lat="45.6887817" lon="9.051525"><ele>252.0</ele><time>2026-04-03T11:54:43.005Z</time></trkpt><trkpt lat="45.6888467" lon="9.051525"><ele>252.83333333333334</ele><time>2026-04-03T11:54:45.005Z</time></trkpt><trkpt lat="45.6889133" lon="9.0515183"><ele>253.66666666666669</ele><time>2026-04-03T11:54:47.005Z</time></trkpt><trkpt lat="45.6889733" lon="9.0515467"><ele>254.5</ele><time>2026-04-03T11:54:49.005Z</time></trkpt><trkpt lat="45.6890417" lon="9.0515917"><ele>255.33333333333334</ele><time>2026-04-03T11:54:51.005Z</time></trkpt><trkpt lat="45.68911" lon="9.0516567"><ele>256.1666666666667</ele><time>2026-04-03T11:54:54.006Z</time></trkpt><trkpt lat="45.68917" lon="9.05172"><ele>257.0</ele><time>2026-04-03T11:54:56.005Z</time></trkpt><trkpt lat="45.6892417" lon="9.051795"><ele>258.5</ele><time>2026-04-03T11:54:59.005Z</time></trkpt><trkpt lat="45.689305" lon="9.0518867"><ele>260.0</ele><time>2026-04-03T11:55:02.005Z</time></trkpt><trkpt lat="45.68935" lon="9.05195"><ele>261.5</ele><time>2026-04-03T11:55:04.005Z</time></trkpt><trkpt lat="45.6894133" lon="9.0520233"><ele>263.0</ele><time>2026-04-03T11:55:07.006Z</time></trkpt><trkpt lat="45.6894767" lon="9.0521133"><ele>264.5</ele><time>2026-04-03T11:55:10.005Z</time></trkpt><trkpt lat="45.6895233" lon="9.0521767"><ele>266.0</ele><time>2026-04-03T11:55:12.005Z</time></trkpt><trkpt lat="45.6895833" lon="9.0522583"><ele>266.83333333333337</ele><time>2026-04-03T11:55:15.006Z</time></trkpt><trkpt lat="45.6896333" lon="9.05232"><ele>267.6666666666667</ele><time>2026-04-03T11:55:18.005Z</time></trkpt><trkpt lat="45.6897017" lon="9.0523867"><ele>268.5</ele><time>2026-04-03T11:55:21.006Z</time></trkpt><trkpt lat="45.689765" lon="9.0524567"><ele>269.3333333333333</ele><time>2026-04-03T11:55:24.006Z</time></trkpt><trkpt lat="45.6898117" lon="9.0525367"><ele>270.16666666666663</ele><time>2026-04-03T11:55:27.006Z</time></trkpt><trkpt lat="45.68985" lon="9.05265"><ele>271.0</ele><time>2026-04-03T11:55:30.005Z</time></trkpt><trkpt lat="45.6898717" lon="9.0527617"><ele>271.0</ele><time>2026-04-03T11:55:33.006Z</time></trkpt><trkpt lat="45.689885" lon="9.052865"><ele>271.0</ele><time>2026-04-03T11:55:36.005Z</time></trkpt><trkpt lat="45.6898967" lon="9.0529783"><ele>271.0</ele><time>2026-04-03T11:55:39.005Z</time></trkpt><trkpt lat="45.689895" lon="9.053095"><ele>271.0</ele><time>2026-04-03T11:55:43.005Z</time></trkpt><trkpt lat="45.689885" lon="9.0531933"><ele>271.0</ele><time>2026-04-03T11:55:46.006Z</time></trkpt><trkpt lat="45.689875" lon="9.0533067"><ele>271.0</ele><time>2026-04-03T11:55:49.005Z</time></trkpt><trkpt lat="45.6898617" lon="9.0534167"><ele>271.1428571428571</ele><time>2026-04-03T11:55:52.005Z</time></trkpt><trkpt lat="45.6898533" lon="9.0535233"><ele>271.2857142857143</ele><time>2026-04-03T11:55:55.005Z</time></trkpt><trkpt lat="45.6898483" lon="9.053625"><ele>271.42857142857144</ele><time>2026-04-03T11:55:58.005Z</time></trkpt><trkpt lat="45.689845" lon="9.0537417"><ele>271.57142857142856</ele><time>2026-04-03T11:56:02.005Z</time></trkpt><trkpt lat="45.6898383" lon="9.0538333"><ele>271.7142857142857</ele><time>2026-04-03T11:56:05.005Z</time></trkpt><trkpt lat="45.6898333" lon="9.0539233"><ele>271.85714285714283</ele><time>2026-04-03T11:56:08.005Z</time></trkpt><trkpt lat="45.6898583" lon="9.0540183"><ele>272.0</ele><time>2026-04-03T11:56:11.006Z</time></trkpt><trkpt lat="45.6898783" lon="9.0541217"><ele>272.1666666666667</ele><time>2026-04-03T11:56:14.005Z</time></trkpt><trkpt lat="45.6899233" lon="9.0542183"><ele>272.33333333333337</ele><time>2026-04-03T11:56:17.006Z</time></trkpt><trkpt lat="45.689955" lon="9.05432"><ele>272.5</ele><time>2026-04-03T11:56:21.006Z</time></trkpt><trkpt lat="45.68998" lon="9.0544267"><ele>272.6666666666667</ele><time>2026-04-03T12:01:26.006Z</time></trkpt><trkpt lat="45.6900233" lon="9.0545083"><ele>272.8333333333333</ele><time>2026-04-03T12:01:29.006Z</time></trkpt><trkpt lat="45.6900633" lon="9.0546217"><ele>273.0</ele><time>2026-04-03T12:01:32.007Z</time></trkpt><trkpt lat="45.6900883" lon="9.0547167"><ele>273.0</ele><time>2026-04-03T12:01:36.006Z</time></trkpt><trkpt lat="45.6900783" lon="9.0546033"><ele>273.0</ele><time>2026-04-03T12:01:40.006Z</time></trkpt><trkpt lat="45.69003" lon="9.0544867"><ele>273.0</ele><time>2026-04-03T12:01:43.006Z</time></trkpt><trkpt lat="45.6900767" lon="9.05438"><ele>273.0</ele><time>2026-04-03T12:01:46.007Z</time></trkpt><trkpt lat="45.69017" lon="9.054355"><ele>273.0</ele><time>2026-04-03T12:01:48.006Z</time></trkpt><trkpt lat="45.69026" lon="9.0543333"><ele>273.0</ele><time>2026-04-03T12:01:50.006Z</time></trkpt><trkpt lat="45.69034" lon="9.054315"><ele>273.3333333333333</ele><time>2026-04-03T12:01:52.006Z</time></trkpt><trkpt lat="45.6904267" lon="9.0542833"><ele>273.6666666666667</ele><time>2026-04-03T12:01:54.007Z</time></trkpt><trkpt lat="45.6905083" lon="9.0542517"><ele>274.0</ele><time>2026-04-03T12:01:56.006Z</time></trkpt><trkpt lat="45.6905817" lon="9.0542383"><ele>274.33333333333337</ele><time>2026-04-03T12:01:58.006Z</time></trkpt><trkpt lat="45.69065" lon="9.0542333"><ele>274.6666666666667</ele><time>2026-04-03T12:02:00.006Z</time></trkpt><trkpt lat="45.69072" lon="9.0542233"><ele>275.0</ele><time>2026-04-03T12:02:02.006Z</time></trkpt><trkpt lat="45.690795" lon="9.0541883"><ele>275.0</ele><time>2026-04-03T12:02:04.007Z</time></trkpt><trkpt lat="45.6908733" lon="9.054175"><ele>275.0</ele><time>2026-04-03T12:02:06.007Z</time></trkpt><trkpt lat="45.690955" lon="9.0541633"><ele>275.0</ele><time>2026-04-03T12:02:08.007Z</time></trkpt><trkpt lat="45.691025" lon="9.0541333"><ele>275.0</ele><time>2026-04-03T12:02:10.007Z</time></trkpt><trkpt lat="45.691095" lon="9.054115"><ele>275.0</ele><time>2026-04-03T12:02:12.006Z</time></trkpt><trkpt lat="45.6911667" lon="9.0540917"><ele>275.0</ele><time>2026-04-03T12:02:14.007Z</time></trkpt><trkpt lat="45.69124" lon="9.0540817"><ele>275.14285714285717</ele><time>2026-04-03T12:02:16.006Z</time></trkpt><trkpt lat="45.6913067" lon="9.05407"><ele>275.2857142857143</ele><time>2026-04-03T12:02:18.007Z</time></trkpt><trkpt lat="45.6913733" lon="9.0540767"><ele>275.42857142857144</ele><time>2026-04-03T12:02:20.006Z</time></trkpt><trkpt lat="45.6914367" lon="9.0540917"><ele>275.57142857142856</ele><time>2026-04-03T12:02:22.007Z</time></trkpt><trkpt lat="45.69151" lon="9.05413"><ele>275.7142857142857</ele><time>2026-04-03T12:02:26.006Z</time></trkpt><trkpt lat="45.6915767" lon="9.0541267"><ele>275.8571428571429</ele><time>2026-04-03T12:02:28.006Z</time></trkpt><trkpt lat="45.6916333" lon="9.0540867"><ele>276.0</ele><time>2026-04-03T12:02:30.006Z</time></trkpt><trkpt lat="45.6917" lon="9.0540433"><ele>276.2</ele><time>2026-04-03T12:02:32.006Z</time></trkpt><trkpt lat="45.69178" lon="9.05401"><ele>276.40000000000003</ele><time>2026-04-03T12:02:34.006Z</time></trkpt><trkpt lat="45.6918683" lon="9.0539817"><ele>276.6</ele><time>2026-04-03T12:02:36.006Z</time></trkpt><trkpt lat="45.6919617" lon="9.05395"><ele>276.8</ele><time>2026-04-03T12:02:38.006Z</time></trkpt><trkpt lat="45.692055" lon="9.0539233"><ele>277.0</ele><time>2026-04-03T12:02:40.007Z</time></trkpt><trkpt lat="45.692155" lon="9.05392"><ele>277.0</ele><time>2026-04-03T12:02:42.006Z</time></trkpt><trkpt lat="45.6922367" lon="9.053905"><ele>277.0</ele><time>2026-04-03T12:02:44.007Z</time></trkpt><trkpt lat="45.6923367" lon="9.0538783"><ele>277.0</ele><time>2026-04-03T12:02:46.006Z</time></trkpt><trkpt lat="45.6924283" lon="9.053855"><ele>277.0</ele><time>2026-04-03T12:02:48.007Z</time></trkpt><trkpt lat="45.6925217" lon="9.0538333"><ele>277.0</ele><time>2026-04-03T12:02:50.007Z</time></trkpt><trkpt lat="45.692615" lon="9.05381"><ele>277.0</ele><time>2026-04-03T12:02:52.006Z</time></trkpt><trkpt lat="45.692705" lon="9.0537883"><ele>277.0</ele><time>2026-04-03T12:02:54.006Z</time></trkpt><trkpt lat="45.6927917" lon="9.0537567"><ele>277.0</ele><time>2026-04-03T12:02:56.006Z</time></trkpt><trkpt lat="45.692885" lon="9.0537233"><ele>277.0</ele><time>2026-04-03T12:02:58.006Z</time></trkpt><trkpt lat="45.6929683" lon="9.0537233"><ele>277.0</ele><time>2026-04-03T12:03:00.007Z</time></trkpt><trkpt lat="45.6930567" lon="9.0537167"><ele>277.0</ele><time>2026-04-03T12:03:02.006Z</time></trkpt><trkpt lat="45.6931467" lon="9.053695"><ele>277.16666666666663</ele><time>2026-04-03T12:03:04.006Z</time></trkpt><trkpt lat="45.6932367" lon="9.0536767"><ele>277.3333333333333</ele><time>2026-04-03T12:03:06.006Z</time></trkpt><trkpt lat="45.69331" lon="9.0536633"><ele>277.5</ele><time>2026-04-03T12:03:08.007Z</time></trkpt><trkpt lat="45.6933983" lon="9.0536533"><ele>277.6666666666667</ele><time>2026-04-03T12:03:10.007Z</time></trkpt><trkpt lat="45.69348" lon="9.0536333"><ele>277.83333333333337</ele><time>2026-04-03T12:03:12.006Z</time></trkpt><trkpt lat="45.69357" lon="9.0536117"><ele>278.0</ele><time>2026-04-03T12:03:14.006Z</time></trkpt><trkpt lat="45.6936633" lon="9.0535683"><ele>278.4</ele><time>2026-04-03T12:03:16.006Z</time></trkpt><trkpt lat="45.6937567" lon="9.0535267"><ele>278.8</ele><time>2026-04-03T12:03:18.006Z</time></trkpt><trkpt lat="45.6938483" lon="9.05351"><ele>279.2</ele><time>2026-04-03T12:03:20.007Z</time></trkpt><trkpt lat="45.6939433" lon="9.0534833"><ele>279.6</ele><time>2026-04-03T12:03:22.007Z</time></trkpt><trkpt lat="45.6940317" lon="9.0534583"><ele>280.0</ele><time>2026-04-03T12:03:24.007Z</time></trkpt><trkpt lat="45.6941117" lon="9.053445"><ele>280.0</ele><time>2026-04-03T12:03:26.006Z</time></trkpt><trkpt lat="45.6941933" lon="9.0534167"><ele>280.0</ele><time>2026-04-03T12:03:28.007Z</time></trkpt><trkpt lat="45.6942733" lon="9.0533983"><ele>280.0</ele><time>2026-04-03T12:03:30.006Z</time></trkpt><trkpt lat="45.694355" lon="9.053385"><ele>280.0</ele><time>2026-04-03T12:03:32.006Z</time></trkpt><trkpt lat="45.694435" lon="9.0534033"><ele>280.0</ele><time>2026-04-03T12:03:34.007Z</time></trkpt><trkpt lat="45.6945217" lon="9.0533733"><ele>280.0</ele><time>2026-04-03T12:03:36.006Z</time></trkpt><trkpt lat="45.6946" lon="9.0533417"><ele>280.16666666666663</ele><time>2026-04-03T12:03:38.006Z</time></trkpt><trkpt lat="45.6946867" lon="9.0533267"><ele>280.3333333333333</ele><time>2026-04-03T12:03:40.007Z</time></trkpt><trkpt lat="45.6947667" lon="9.0533117"><ele>280.5</ele><time>2026-04-03T12:03:42.006Z</time></trkpt><trkpt lat="45.694835" lon="9.0532967"><ele>280.6666666666667</ele><time>2026-04-03T12:03:44.006Z</time></trkpt><trkpt lat="45.6948983" lon="9.053305"><ele>280.83333333333337</ele><time>2026-04-03T12:03:46.007Z</time></trkpt><trkpt lat="45.6949717" lon="9.05337"><ele>281.0</ele><time>2026-04-03T12:03:48.006Z</time></trkpt><trkpt lat="45.6950333" lon="9.05345"><ele>281.0</ele><time>2026-04-03T12:03:50.006Z</time></trkpt><trkpt lat="45.6950833" lon="9.0535517"><ele>281.0</ele><time>2026-04-03T12:03:52.006Z</time></trkpt><trkpt lat="45.6951317" lon="9.05366"><ele>281.0</ele><time>2026-04-03T12:03:54.007Z</time></trkpt><trkpt lat="45.6951633" lon="9.053755"><ele>281.0</ele><time>2026-04-03T12:03:56.006Z</time></trkpt><trkpt lat="45.6952083" lon="9.0538483"><ele>281.0</ele><time>2026-04-03T12:03:59.006Z</time></trkpt><trkpt lat="45.6952917" lon="9.0538583"><ele>281.0</ele><time>2026-04-03T12:04:02.007Z</time></trkpt><trkpt lat="45.6953767" lon="9.0538617"><ele>281.83333333333337</ele><time>2026-04-03T12:04:06.006Z</time></trkpt><trkpt lat="45.6954417" lon="9.0538617"><ele>282.6666666666667</ele><time>2026-04-03T12:04:09.006Z</time></trkpt><trkpt lat="45.6955183" lon="9.0538583"><ele>283.5</ele><time>2026-04-03T12:04:12.006Z</time></trkpt><trkpt lat="45.6956117" lon="9.0538267"><ele>284.3333333333333</ele><time>2026-04-03T12:04:15.007Z</time></trkpt><trkpt lat="45.6956967" lon="9.053825"><ele>285.16666666666663</ele><time>2026-04-03T12:04:18.006Z</time></trkpt><trkpt lat="45.6957817" lon="9.053815"><ele>286.0</ele><time>2026-04-03T12:04:21.006Z</time></trkpt><trkpt lat="45.6958483" lon="9.05381"><ele>286.0</ele><time>2026-04-03T12:04:23.006Z</time></trkpt><trkpt lat="45.6959283" lon="9.0537867"><ele>286.0</ele><time>2026-04-03T12:04:26.007Z</time></trkpt><trkpt lat="45.696" lon="9.0537733"><ele>286.0</ele><time>2026-04-03T12:04:29.006Z</time></trkpt><trkpt lat="45.6960667" lon="9.0537817"><ele>286.0</ele><time>2026-04-03T12:04:32.006Z</time></trkpt><trkpt lat="45.6961517" lon="9.05378"><ele>286.0</ele><time>2026-04-03T12:04:35.006Z</time></trkpt><trkpt lat="45.6962333" lon="9.0537567"><ele>286.0</ele><time>2026-04-03T12:04:38.006Z</time></trkpt><trkpt lat="45.69632" lon="9.0537317"><ele>286.85714285714283</ele><time>2026-04-03T12:04:41.006Z</time></trkpt><trkpt lat="45.6964033" lon="9.0537133"><ele>287.7142857142857</ele><time>2026-04-03T12:04:44.007Z</time></trkpt><trkpt lat="45.6964783" lon="9.0536817"><ele>288.57142857142856</ele><time>2026-04-03T12:04:47.006Z</time></trkpt><trkpt lat="45.6965433" lon="9.0536717"><ele>289.42857142857144</ele><time>2026-04-03T12:04:50.006Z</time></trkpt><trkpt lat="45.696605" lon="9.0536517"><ele>290.2857142857143</ele><time>2026-04-03T12:04:53.006Z</time></trkpt><trkpt lat="45.6966733" lon="9.0536717"><ele>291.1428571428571</ele><time>2026-04-03T12:04:56.007Z</time></trkpt><trkpt lat="45.69673" lon="9.0537183"><ele>292.0</ele><time>2026-04-03T12:04:58.006Z</time></trkpt><trkpt lat="45.6967933" lon="9.0537717"><ele>292.0</ele><time>2026-04-03T12:05:01.006Z</time></trkpt><trkpt lat="45.6968517" lon="9.0538117"><ele>292.0</ele><time>2026-04-03T12:05:04.006Z</time></trkpt><trkpt lat="45.6969317" lon="9.0538383"><ele>292.0</ele><time>2026-04-03T12:05:07.006Z</time></trkpt><trkpt lat="45.6970017" lon="9.0538867"><ele>292.0</ele><time>2026-04-03T12:05:10.007Z</time></trkpt><trkpt lat="45.6970667" lon="9.0539517"><ele>292.0</ele><time>2026-04-03T12:05:13.006Z</time></trkpt><trkpt lat="45.69712" lon="9.054035"><ele>292.0</ele><time>2026-04-03T12:05:22.007Z</time></trkpt><trkpt lat="45.6971867" lon="9.0540233"><ele>292.3333333333333</ele><time>2026-04-03T12:05:25.007Z</time></trkpt><trkpt lat="45.69727" lon="9.0540033"><ele>292.66666666666663</ele><time>2026-04-03T12:05:28.006Z</time></trkpt><trkpt lat="45.6973383" lon="9.05401"><ele>293.0</ele><time>2026-04-03T12:05:31.006Z</time></trkpt><trkpt lat="45.6974233" lon="9.05403"><ele>293.3333333333333</ele><time>2026-04-03T12:05:35.007Z</time></trkpt><trkpt lat="45.697505" lon="9.0540217"><ele>293.6666666666667</ele><time>2026-04-03T12:05:38.007Z</time></trkpt><trkpt lat="45.6975867" lon="9.0540683"><ele>294.0</ele><time>2026-04-03T12:05:41.006Z</time></trkpt><trkpt lat="45.697655" lon="9.054105"><ele>294.0</ele><time>2026-04-03T12:05:44.006Z</time></trkpt><trkpt lat="45.6977333" lon="9.0541533"><ele>294.0</ele><time>2026-04-03T12:05:47.007Z</time></trkpt><trkpt lat="45.697815" lon="9.0541717"><ele>294.0</ele><time>2026-04-03T12:05:51.006Z</time></trkpt><trkpt lat="45.69788" lon="9.054165"><ele>294.0</ele><time>2026-04-03T12:05:53.006Z</time></trkpt><trkpt lat="45.6979683" lon="9.054195"><ele>294.0</ele><time>2026-04-03T12:05:56.007Z</time></trkpt><trkpt lat="45.698025" lon="9.0542367"><ele>294.0</ele><time>2026-04-03T12:05:58.007Z</time></trkpt><trkpt lat="45.6981" lon="9.0542867"><ele>294.5</ele><time>2026-04-03T12:06:01.006Z</time></trkpt><trkpt lat="45.69817" lon="9.0543433"><ele>295.0</ele><time>2026-04-03T12:06:04.006Z</time></trkpt><trkpt lat="45.6982483" lon="9.0543883"><ele>295.5</ele><time>2026-04-03T12:06:07.006Z</time></trkpt><trkpt lat="45.6983183" lon="9.0544383"><ele>296.0</ele><time>2026-04-03T12:06:10.006Z</time></trkpt><trkpt lat="45.6983983" lon="9.05451"><ele>296.5</ele><time>2026-04-03T12:06:13.006Z</time></trkpt><trkpt lat="45.6984617" lon="9.0545667"><ele>297.0</ele><time>2026-04-03T12:06:16.006Z</time></trkpt><trkpt lat="45.698525" lon="9.054595"><ele>297.42857142857144</ele><time>2026-04-03T12:06:19.006Z</time></trkpt><trkpt lat="45.698605" lon="9.0546367"><ele>297.8571428571429</ele><time>2026-04-03T12:06:23.006Z</time></trkpt><trkpt lat="45.6986683" lon="9.0546533"><ele>298.2857142857143</ele><time>2026-04-03T12:06:26.006Z</time></trkpt><trkpt lat="45.6987367" lon="9.0546467"><ele>298.7142857142857</ele><time>2026-04-03T12:06:29.006Z</time></trkpt><trkpt lat="45.6988017" lon="9.054665"><ele>299.1428571428571</ele><time>2026-04-03T12:06:32.006Z</time></trkpt><trkpt lat="45.69887" lon="9.0547033"><ele>299.57142857142856</ele><time>2026-04-03T12:06:35.006Z</time></trkpt><trkpt lat="45.698935" lon="9.0547083"><ele>300.0</ele><time>2026-04-03T12:06:38.006Z</time></trkpt><trkpt lat="45.6990083" lon="9.0547217"><ele>300.0</ele><time>2026-04-03T12:06:42.006Z</time></trkpt><trkpt lat="45.6990717" lon="9.0547367"><ele>300.0</ele><time>2026-04-03T12:06:45.007Z</time></trkpt><trkpt lat="45.6991583" lon="9.0547533"><ele>300.0</ele><time>2026-04-03T12:06:49.006Z</time></trkpt><trkpt lat="45.699235" lon="9.054775"><ele>300.0</ele><time>2026-04-03T12:06:52.006Z</time></trkpt><trkpt lat="45.6993233" lon="9.0547767"><ele>300.0</ele><time>2026-04-03T12:06:55.006Z</time></trkpt><trkpt lat="45.6994067" lon="9.05478"><ele>300.0</ele><time>2026-04-03T12:06:58.007Z</time></trkpt><trkpt lat="45.6994817" lon="9.054795"><ele>299.8333333333333</ele><time>2026-04-03T12:07:01.006Z</time></trkpt><trkpt lat="45.69956" lon="9.0548283"><ele>299.6666666666667</ele><time>2026-04-03T12:07:04.006Z</time></trkpt><trkpt lat="45.6996367" lon="9.0549"><ele>299.5</ele><time>2026-04-03T12:07:07.007Z</time></trkpt><trkpt lat="45.6997133" lon="9.054975"><ele>299.33333333333337</ele><time>2026-04-03T12:07:10.006Z</time></trkpt><trkpt lat="45.699765" lon="9.0550317"><ele>299.1666666666667</ele><time>2026-04-03T12:07:12.006Z</time></trkpt><trkpt lat="45.6998233" lon="9.0550983"><ele>299.0</ele><time>2026-04-03T12:07:14.007Z</time></trkpt><trkpt lat="45.6998583" lon="9.0551833"><ele>298.6666666666667</ele><time>2026-04-03T12:07:16.007Z</time></trkpt><trkpt lat="45.6999483" lon="9.0553217"><ele>298.33333333333337</ele><time>2026-04-03T12:08:37.007Z</time></trkpt><trkpt lat="45.69997" lon="9.0554533"><ele>298.0</ele><time>2026-04-03T12:08:52.008Z</time></trkpt><trkpt lat="45.7000117" lon="9.05555"><ele>297.6666666666667</ele><time>2026-04-03T12:08:55.007Z</time></trkpt><trkpt lat="45.7000567" lon="9.0556167"><ele>297.3333333333333</ele><time>2026-04-03T12:08:57.007Z</time></trkpt><trkpt lat="45.7001117" lon="9.0556917"><ele>297.0</ele><time>2026-04-03T12:08:59.007Z</time></trkpt><trkpt lat="45.7001717" lon="9.0557767"><ele>297.0</ele><time>2026-04-03T12:09:01.008Z</time></trkpt><trkpt lat="45.7002217" lon="9.0558567"><ele>297.0</ele><time>2026-04-03T12:09:03.008Z</time></trkpt><trkpt lat="45.7002667" lon="9.0559333"><ele>297.0</ele><time>2026-04-03T12:09:05.007Z</time></trkpt><trkpt lat="45.70031" lon="9.056005"><ele>297.0</ele><time>2026-04-03T12:09:07.008Z</time></trkpt><trkpt lat="45.7003533" lon="9.05611"><ele>297.0</ele><time>2026-04-03T12:09:10.007Z</time></trkpt><trkpt lat="45.7004317" lon="9.0561067"><ele>297.0</ele><time>2026-04-03T12:09:13.007Z</time></trkpt><trkpt lat="45.70051" lon="9.0560933"><ele>296.8333333333333</ele><time>2026-04-03T12:09:16.007Z</time></trkpt><trkpt lat="45.7005733" lon="9.0561"><ele>296.6666666666667</ele><time>2026-04-03T12:09:19.007Z</time></trkpt><trkpt lat="45.700645" lon="9.0560867"><ele>296.5</ele><time>2026-04-03T12:09:22.007Z</time></trkpt><trkpt lat="45.70073" lon="9.0560967"><ele>296.33333333333337</ele><time>2026-04-03T12:09:26.007Z</time></trkpt><trkpt lat="45.700805" lon="9.0561167"><ele>296.1666666666667</ele><time>2026-04-03T12:09:29.007Z</time></trkpt><trkpt lat="45.7008883" lon="9.0561233"><ele>296.0</ele><time>2026-04-03T12:09:32.007Z</time></trkpt><trkpt lat="45.7008183" lon="9.0561083"><ele>296.0</ele><time>2026-04-03T12:09:41.007Z</time></trkpt><trkpt lat="45.700735" lon="9.0561067"><ele>296.0</ele><time>2026-04-03T12:09:44.007Z</time></trkpt><trkpt lat="45.7006483" lon="9.0561033"><ele>296.0</ele><time>2026-04-03T12:09:47.008Z</time></trkpt><trkpt lat="45.7005817" lon="9.0560933"><ele>296.0</ele><time>2026-04-03T12:09:49.007Z</time></trkpt><trkpt lat="45.7005083" lon="9.056085"><ele>296.0</ele><time>2026-04-03T12:09:51.008Z</time></trkpt><trkpt lat="45.700435" lon="9.05608"><ele>296.0</ele><time>2026-04-03T12:09:53.007Z</time></trkpt><trkpt lat="45.70036" lon="9.0561117"><ele>296.0</ele><time>2026-04-03T12:09:55.007Z</time></trkpt><trkpt lat="45.70032" lon="9.0561933"><ele>296.0</ele><time>2026-04-03T12:09:57.007Z</time></trkpt><trkpt lat="45.70031" lon="9.056325"><ele>296.0</ele><time>2026-04-03T12:10:00.007Z</time></trkpt><trkpt lat="45.7002967" lon="9.056415"><ele>296.0</ele><time>2026-04-03T12:10:02.007Z</time></trkpt><trkpt lat="45.7002933" lon="9.0565467"><ele>296.0</ele><time>2026-04-03T12:10:05.007Z</time></trkpt><trkpt lat="45.7002917" lon="9.05664"><ele>296.0</ele><time>2026-04-03T12:10:07.008Z</time></trkpt><trkpt lat="45.7003" lon="9.0567733"><ele>296.33333333333337</ele><time>2026-04-03T12:10:10.007Z</time></trkpt><trkpt lat="45.7003033" lon="9.0568683"><ele>296.6666666666667</ele><time>2026-04-03T12:10:12.007Z</time></trkpt><trkpt lat="45.7003083" lon="9.056965"><ele>297.0</ele><time>2026-04-03T12:10:14.007Z</time></trkpt><trkpt lat="45.7003083" lon="9.05706"><ele>297.3333333333333</ele><time>2026-04-03T12:10:16.008Z</time></trkpt><trkpt lat="45.7003033" lon="9.0571933"><ele>297.66666666666663</ele><time>2026-04-03T12:10:19.007Z</time></trkpt><trkpt lat="45.7003167" lon="9.0573083"><ele>298.0</ele><time>2026-04-03T12:10:22.007Z</time></trkpt><trkpt lat="45.7003333" lon="9.0574183"><ele>298.0</ele><time>2026-04-03T12:10:25.008Z</time></trkpt><trkpt lat="45.7003467" lon="9.0575467"><ele>298.0</ele><time>2026-04-03T12:10:28.007Z</time></trkpt><trkpt lat="45.70035" lon="9.0576533"><ele>298.0</ele><time>2026-04-03T12:10:30.007Z</time></trkpt><trkpt lat="45.7003367" lon="9.0577517"><ele>298.0</ele><time>2026-04-03T12:10:32.007Z</time></trkpt><trkpt lat="45.70033" lon="9.057865"><ele>298.0</ele><time>2026-04-03T12:10:36.007Z</time></trkpt><trkpt lat="45.7003967" lon="9.0579183"><ele>298.0</ele><time>2026-04-03T12:10:40.007Z</time></trkpt><trkpt lat="45.7004783" lon="9.057905"><ele>298.0</ele><time>2026-04-03T12:10:43.007Z</time></trkpt><trkpt lat="45.7005483" lon="9.0578983"><ele>298.0</ele><time>2026-04-03T12:10:45.007Z</time></trkpt><trkpt lat="45.7006117" lon="9.057895"><ele>298.0</ele><time>2026-04-03T12:10:47.007Z</time></trkpt><trkpt lat="45.7006883" lon="9.0578783"><ele>298.0</ele><time>2026-04-03T12:10:49.007Z</time></trkpt><trkpt lat="45.70076" lon="9.0578583"><ele>298.0</ele><time>2026-04-03T12:10:51.007Z</time></trkpt><trkpt lat="45.7008383" lon="9.0578517"><ele>298.0</ele><time>2026-04-03T12:10:53.008Z</time></trkpt><trkpt lat="45.7009167" lon="9.057845"><ele>298.0</ele><time>2026-04-03T12:10:55.007Z</time></trkpt><trkpt lat="45.70099" lon="9.0578417"><ele>298.0</ele><time>2026-04-03T12:10:57.007Z</time></trkpt><trkpt lat="45.7010633" lon="9.0578283"><ele>298.0</ele><time>2026-04-03T12:10:59.007Z</time></trkpt><trkpt lat="45.7011433" lon="9.0578067"><ele>298.0</ele><time>2026-04-03T12:11:01.007Z</time></trkpt><trkpt lat="45.701225" lon="9.0577917"><ele>298.0</ele><time>2026-04-03T12:11:03.007Z</time></trkpt><trkpt lat="45.70131" lon="9.05777"><ele>298.0</ele><time>2026-04-03T12:11:05.008Z</time></trkpt><trkpt lat="45.7013917" lon="9.057755"><ele>298.0</ele><time>2026-04-03T12:11:07.007Z</time></trkpt><trkpt lat="45.7014683" lon="9.0577433"><ele>297.8333333333333</ele><time>2026-04-03T12:11:09.008Z</time></trkpt><trkpt lat="45.70155" lon="9.0577367"><ele>297.66666666666663</ele><time>2026-04-03T12:11:11.008Z</time></trkpt><trkpt lat="45.701625" lon="9.05773"><ele>297.5</ele><time>2026-04-03T12:11:13.008Z</time></trkpt><trkpt lat="45.701705" lon="9.05771"><ele>297.3333333333333</ele><time>2026-04-03T12:11:15.007Z</time></trkpt><trkpt lat="45.7017833" lon="9.0576933"><ele>297.1666666666667</ele><time>2026-04-03T12:11:17.007Z</time></trkpt><trkpt lat="45.7018633" lon="9.0576917"><ele>297.0</ele><time>2026-04-03T12:11:19.007Z</time></trkpt><trkpt lat="45.701945" lon="9.0576767"><ele>296.5</ele><time>2026-04-03T12:11:21.007Z</time></trkpt><trkpt lat="45.7020267" lon="9.057665"><ele>296.0</ele><time>2026-04-03T12:11:23.007Z</time></trkpt><trkpt lat="45.702105" lon="9.0576467"><ele>295.5</ele><time>2026-04-03T12:11:25.007Z</time></trkpt><trkpt lat="45.7021983" lon="9.057625"><ele>295.0</ele><time>2026-04-03T12:11:27.007Z</time></trkpt><trkpt lat="45.7022883" lon="9.057615"><ele>294.5</ele><time>2026-04-03T12:11:29.007Z</time></trkpt><trkpt lat="45.702385" lon="9.057605"><ele>294.0</ele><time>2026-04-03T12:11:31.007Z</time></trkpt><trkpt lat="45.7024833" lon="9.0575883"><ele>294.0</ele><time>2026-04-03T12:11:33.007Z</time></trkpt><trkpt lat="45.7025817" lon="9.0575733"><ele>294.0</ele><time>2026-04-03T12:11:35.007Z</time></trkpt><trkpt lat="45.7026833" lon="9.05756"><ele>294.0</ele><time>2026-04-03T12:11:37.007Z</time></trkpt><trkpt lat="45.7027867" lon="9.0575517"><ele>294.0</ele><time>2026-04-03T12:11:39.007Z</time></trkpt><trkpt lat="45.702885" lon="9.05753"><ele>294.0</ele><time>2026-04-03T12:11:41.007Z</time></trkpt><trkpt lat="45.7029767" lon="9.0575183"><ele>294.0</ele><time>2026-04-03T12:11:43.008Z</time></trkpt><trkpt lat="45.7030667" lon="9.0575083"><ele>294.0</ele><time>2026-04-03T12:11:45.007Z</time></trkpt><trkpt lat="45.7031533" lon="9.0574967"><ele>294.0</ele><time>2026-04-03T12:11:47.007Z</time></trkpt><trkpt lat="45.703235" lon="9.0574933"><ele>294.0</ele><time>2026-04-03T12:11:49.007Z</time></trkpt><trkpt lat="45.7033233" lon="9.0574833"><ele>294.0</ele><time>2026-04-03T12:11:51.007Z</time></trkpt><trkpt lat="45.7034083" lon="9.0574667"><ele>294.0</ele><time>2026-04-03T12:11:53.007Z</time></trkpt><trkpt lat="45.7034867" lon="9.0574417"><ele>294.0</ele><time>2026-04-03T12:11:55.007Z</time></trkpt><trkpt lat="45.703575" lon="9.0574283"><ele>294.0</ele><time>2026-04-03T12:11:57.007Z</time></trkpt><trkpt lat="45.7036617" lon="9.0574233"><ele>294.0</ele><time>2026-04-03T12:11:59.007Z</time></trkpt><trkpt lat="45.7037533" lon="9.0574117"><ele>294.0</ele><time>2026-04-03T12:12:01.007Z</time></trkpt><trkpt lat="45.7038383" lon="9.0573983"><ele>294.0</ele><time>2026-04-03T12:12:03.008Z</time></trkpt><trkpt lat="45.70392" lon="9.0573883"><ele>294.0</ele><time>2026-04-03T12:12:05.007Z</time></trkpt><trkpt lat="45.704" lon="9.0573733"><ele>293.8333333333333</ele><time>2026-04-03T12:12:07.007Z</time></trkpt><trkpt lat="45.7040833" lon="9.05736"><ele>293.6666666666667</ele><time>2026-04-03T12:12:09.007Z</time></trkpt><trkpt lat="45.7041783" lon="9.05733"><ele>293.5</ele><time>2026-04-03T12:12:11.007Z</time></trkpt><trkpt lat="45.7042633" lon="9.0573317"><ele>293.33333333333337</ele><time>2026-04-03T12:12:13.007Z</time></trkpt><trkpt lat="45.7043317" lon="9.0573217"><ele>293.1666666666667</ele><time>2026-04-03T12:12:15.008Z</time></trkpt><trkpt lat="45.7044083" lon="9.057295"><ele>293.0</ele><time>2026-04-03T12:12:17.008Z</time></trkpt><trkpt lat="45.704495" lon="9.0572883"><ele>292.83333333333337</ele><time>2026-04-03T12:12:19.007Z</time></trkpt><trkpt lat="45.7045817" lon="9.0572833"><ele>292.6666666666667</ele><time>2026-04-03T12:12:21.008Z</time></trkpt><trkpt lat="45.704675" lon="9.0572717"><ele>292.5</ele><time>2026-04-03T12:12:23.007Z</time></trkpt><trkpt lat="45.70477" lon="9.0572617"><ele>292.3333333333333</ele><time>2026-04-03T12:12:25.008Z</time></trkpt><trkpt lat="45.7048483" lon="9.0572583"><ele>292.16666666666663</ele><time>2026-04-03T12:12:27.008Z</time></trkpt><trkpt lat="45.7049383" lon="9.0572483"><ele>292.0</ele><time>2026-04-03T12:12:29.007Z</time></trkpt><trkpt lat="45.705025" lon="9.05726"><ele>292.0</ele><time>2026-04-03T12:12:31.007Z</time></trkpt><trkpt lat="45.7051267" lon="9.057245"><ele>292.0</ele><time>2026-04-03T12:12:33.007Z</time></trkpt><trkpt lat="45.7052217" lon="9.05722"><ele>292.0</ele><time>2026-04-03T12:12:35.007Z</time></trkpt><trkpt lat="45.7053217" lon="9.0572067"><ele>292.0</ele><time>2026-04-03T12:12:37.008Z</time></trkpt><trkpt lat="45.7054217" lon="9.0572"><ele>292.0</ele><time>2026-04-03T12:12:39.007Z</time></trkpt><trkpt lat="45.7055167" lon="9.0571883"><ele>292.3333333333333</ele><time>2026-04-03T12:12:41.008Z</time></trkpt><trkpt lat="45.7056" lon="9.0571683"><ele>292.66666666666663</ele><time>2026-04-03T12:12:43.007Z</time></trkpt><trkpt lat="45.7056867" lon="9.057155"><ele>293.0</ele><time>2026-04-03T12:12:45.008Z</time></trkpt><trkpt lat="45.7057767" lon="9.057145"><ele>293.3333333333333</ele><time>2026-04-03T12:12:47.007Z</time></trkpt><trkpt lat="45.7058683" lon="9.057125"><ele>293.6666666666667</ele><time>2026-04-03T12:12:49.007Z</time></trkpt><trkpt lat="45.70595" lon="9.05712"><ele>294.0</ele><time>2026-04-03T12:12:51.007Z</time></trkpt><trkpt lat="45.70604" lon="9.0571033"><ele>294.1666666666667</ele><time>2026-04-03T12:12:53.007Z</time></trkpt><trkpt lat="45.7061317" lon="9.0570867"><ele>294.3333333333333</ele><time>2026-04-03T12:12:55.007Z</time></trkpt><trkpt lat="45.7062167" lon="9.057075"><ele>294.5</ele><time>2026-04-03T12:12:57.006Z</time></trkpt><trkpt lat="45.70631" lon="9.0570733"><ele>294.66666666666663</ele><time>2026-04-03T12:12:59.008Z</time></trkpt><trkpt lat="45.7063983" lon="9.057055"><ele>294.8333333333333</ele><time>2026-04-03T12:13:01.007Z</time></trkpt><trkpt lat="45.7064867" lon="9.0570417"><ele>295.0</ele><time>2026-04-03T12:13:03.008Z</time></trkpt><trkpt lat="45.7065817" lon="9.0570283"><ele>295.0</ele><time>2026-04-03T12:13:05.008Z</time></trkpt><trkpt lat="45.7066633" lon="9.0570167"><ele>295.0</ele><time>2026-04-03T12:13:07.008Z</time></trkpt><trkpt lat="45.70675" lon="9.0570017"><ele>295.0</ele><time>2026-04-03T12:13:09.008Z</time></trkpt><trkpt lat="45.7068317" lon="9.0570017"><ele>295.0</ele><time>2026-04-03T12:13:11.008Z</time></trkpt><trkpt lat="45.7069067" lon="9.056985"><ele>295.0</ele><time>2026-04-03T12:13:13.007Z</time></trkpt><trkpt lat="45.7069833" lon="9.056975"><ele>295.0</ele><time>2026-04-03T12:13:15.007Z</time></trkpt><trkpt lat="45.707065" lon="9.0569633"><ele>295.16666666666663</ele><time>2026-04-03T12:13:17.007Z</time></trkpt><trkpt lat="45.7071417" lon="9.0569433"><ele>295.3333333333333</ele><time>2026-04-03T12:13:19.007Z</time></trkpt><trkpt lat="45.7072167" lon="9.0569283"><ele>295.5</ele><time>2026-04-03T12:13:21.007Z</time></trkpt><trkpt lat="45.7072883" lon="9.0569233"><ele>295.6666666666667</ele><time>2026-04-03T12:13:23.007Z</time></trkpt><trkpt lat="45.7073633" lon="9.0569117"><ele>295.83333333333337</ele><time>2026-04-03T12:13:25.007Z</time></trkpt><trkpt lat="45.707445" lon="9.0569033"><ele>296.0</ele><time>2026-04-03T12:13:27.008Z</time></trkpt><trkpt lat="45.70752" lon="9.0568917"><ele>296.0</ele><time>2026-04-03T12:13:29.008Z</time></trkpt><trkpt lat="45.7075883" lon="9.0568733"><ele>296.0</ele><time>2026-04-03T12:13:31.007Z</time></trkpt><trkpt lat="45.7076567" lon="9.0568633"><ele>296.0</ele><time>2026-04-03T12:13:33.008Z</time></trkpt><trkpt lat="45.7077533" lon="9.0568467"><ele>296.0</ele><time>2026-04-03T12:13:36.007Z</time></trkpt><trkpt lat="45.7078217" lon="9.0568333"><ele>296.0</ele><time>2026-04-03T12:13:38.007Z</time></trkpt><trkpt lat="45.70789" lon="9.056835"><ele>296.0</ele><time>2026-04-03T12:13:40.007Z</time></trkpt><trkpt lat="45.7079567" lon="9.0568233"><ele>296.0</ele><time>2026-04-03T12:13:42.007Z</time></trkpt><trkpt lat="45.7080233" lon="9.056815"><ele>296.14285714285717</ele><time>2026-04-03T12:13:44.007Z</time></trkpt><trkpt lat="45.7081183" lon="9.056825"><ele>296.2857142857143</ele><time>2026-04-03T12:13:47.007Z</time></trkpt><trkpt lat="45.7081817" lon="9.0568167"><ele>296.42857142857144</ele><time>2026-04-03T12:13:49.007Z</time></trkpt><trkpt lat="45.7082467" lon="9.0568017"><ele>296.57142857142856</ele><time>2026-04-03T12:13:51.007Z</time></trkpt><trkpt lat="45.7083133" lon="9.0567817"><ele>296.7142857142857</ele><time>2026-04-03T12:13:53.007Z</time></trkpt><trkpt lat="45.708375" lon="9.0567567"><ele>296.8571428571429</ele><time>2026-04-03T12:13:55.007Z</time></trkpt><trkpt lat="45.7084417" lon="9.0567483"><ele>297.0</ele><time>2026-04-03T12:13:57.008Z</time></trkpt><trkpt lat="45.708505" lon="9.056735"><ele>297.42857142857144</ele><time>2026-04-03T12:13:59.008Z</time></trkpt><trkpt lat="45.7085783" lon="9.0567183"><ele>297.8571428571429</ele><time>2026-04-03T12:14:02.008Z</time></trkpt><trkpt lat="45.7086433" lon="9.056715"><ele>298.2857142857143</ele><time>2026-04-03T12:14:04.007Z</time></trkpt><trkpt lat="45.7087133" lon="9.0567167"><ele>298.7142857142857</ele><time>2026-04-03T12:14:06.008Z</time></trkpt><trkpt lat="45.708785" lon="9.0567117"><ele>299.1428571428571</ele><time>2026-04-03T12:14:08.007Z</time></trkpt><trkpt lat="45.7088483" lon="9.0567"><ele>299.57142857142856</ele><time>2026-04-03T12:14:10.007Z</time></trkpt><trkpt lat="45.7089133" lon="9.056695"><ele>300.0</ele><time>2026-04-03T12:14:12.007Z</time></trkpt><trkpt lat="45.70898" lon="9.056685"><ele>299.99999999999994</ele><time>2026-04-03T12:14:14.008Z</time></trkpt><trkpt lat="45.70905" lon="9.0566767"><ele>300.0</ele><time>2026-04-03T12:14:16.007Z</time></trkpt><trkpt lat="45.7091133" lon="9.056665"><ele>300.0</ele><time>2026-04-03T12:14:18.008Z</time></trkpt><trkpt lat="45.7091767" lon="9.05666"><ele>300.0</ele><time>2026-04-03T12:14:20.007Z</time></trkpt><trkpt lat="45.7092333" lon="9.0566167"><ele>300.0</ele><time>2026-04-03T12:14:22.007Z</time></trkpt><trkpt lat="45.7092983" lon="9.05659"><ele>299.99999999999994</ele><time>2026-04-03T12:14:24.007Z</time></trkpt><trkpt lat="45.7093833" lon="9.0565517"><ele>300.0</ele><time>2026-04-03T12:14:27.007Z</time></trkpt><trkpt lat="45.7094717" lon="9.0565233"><ele>300.8333333333333</ele><time>2026-04-03T12:14:30.008Z</time></trkpt><trkpt lat="45.7095633" lon="9.0565067"><ele>301.6666666666667</ele><time>2026-04-03T12:14:33.008Z</time></trkpt><trkpt lat="45.7096517" lon="9.0564983"><ele>302.5</ele><time>2026-04-03T12:14:36.008Z</time></trkpt><trkpt lat="45.7097367" lon="9.0564833"><ele>303.33333333333337</ele><time>2026-04-03T12:14:39.007Z</time></trkpt><trkpt lat="45.7098267" lon="9.05647"><ele>304.1666666666667</ele><time>2026-04-03T12:14:42.007Z</time></trkpt><trkpt lat="45.7098967" lon="9.05646"><ele>305.0</ele><time>2026-04-03T12:14:44.008Z</time></trkpt><trkpt lat="45.70999" lon="9.0564433"><ele>305.0</ele><time>2026-04-03T12:14:47.007Z</time></trkpt><trkpt lat="45.7100733" lon="9.05643"><ele>305.0</ele><time>2026-04-03T12:14:50.007Z</time></trkpt><trkpt lat="45.7101633" lon="9.0564083"><ele>305.0</ele><time>2026-04-03T12:14:53.007Z</time></trkpt><trkpt lat="45.7102267" lon="9.0564"><ele>305.0</ele><time>2026-04-03T12:14:55.007Z</time></trkpt><trkpt lat="45.7103183" lon="9.0563917"><ele>305.0</ele><time>2026-04-03T12:14:58.007Z</time></trkpt><trkpt lat="45.7104067" lon="9.056375"><ele>305.0</ele><time>2026-04-03T12:15:01.007Z</time></trkpt><trkpt lat="45.710485" lon="9.0563633"><ele>305.33333333333337</ele><time>2026-04-03T12:15:04.007Z</time></trkpt><trkpt lat="45.7105667" lon="9.0563517"><ele>305.6666666666667</ele><time>2026-04-03T12:15:07.008Z</time></trkpt><trkpt lat="45.710645" lon="9.05634"><ele>306.0</ele><time>2026-04-03T12:15:10.007Z</time></trkpt><trkpt lat="45.710715" lon="9.05633"><ele>306.3333333333333</ele><time>2026-04-03T12:15:13.007Z</time></trkpt><trkpt lat="45.7107917" lon="9.05632"><ele>306.66666666666663</ele><time>2026-04-03T12:15:16.007Z</time></trkpt><trkpt lat="45.7108683" lon="9.0563083"><ele>307.0</ele><time>2026-04-03T12:15:19.007Z</time></trkpt><trkpt lat="45.7109367" lon="9.056295"><ele>306.99999999999994</ele><time>2026-04-03T12:15:22.007Z</time></trkpt><trkpt lat="45.7110017" lon="9.05629"><ele>307.0</ele><time>2026-04-03T12:15:25.007Z</time></trkpt><trkpt lat="45.711075" lon="9.0562733"><ele>307.0</ele><time>2026-04-03T12:15:28.008Z</time></trkpt><trkpt lat="45.711145" lon="9.0562683"><ele>307.0</ele><time>2026-04-03T12:15:31.008Z</time></trkpt><trkpt lat="45.7112167" lon="9.0562617"><ele>307.0</ele><time>2026-04-03T12:15:34.007Z</time></trkpt><trkpt lat="45.7112817" lon="9.056265"><ele>306.99999999999994</ele><time>2026-04-03T12:15:37.007Z</time></trkpt><trkpt lat="45.711345" lon="9.0562583"><ele>307.0</ele><time>2026-04-03T12:15:40.007Z</time></trkpt><trkpt lat="45.7114183" lon="9.0562617"><ele>307.85714285714283</ele><time>2026-04-03T12:15:43.008Z</time></trkpt><trkpt lat="45.7114867" lon="9.0562233"><ele>308.7142857142857</ele><time>2026-04-03T12:15:46.007Z</time></trkpt><trkpt lat="45.71155" lon="9.0562033"><ele>309.57142857142856</ele><time>2026-04-03T12:15:49.007Z</time></trkpt><trkpt lat="45.71163" lon="9.0561917"><ele>310.42857142857144</ele><time>2026-04-03T12:15:52.007Z</time></trkpt><trkpt lat="45.711715" lon="9.0561883"><ele>311.2857142857143</ele><time>2026-04-03T12:15:55.007Z</time></trkpt><trkpt lat="45.7117833" lon="9.056165"><ele>312.1428571428571</ele><time>2026-04-03T12:15:58.008Z</time></trkpt><trkpt lat="45.711855" lon="9.05616"><ele>313.0</ele><time>2026-04-03T12:16:01.007Z</time></trkpt><trkpt lat="45.71192" lon="9.0561533"><ele>314.0</ele><time>2026-04-03T12:16:04.007Z</time></trkpt><trkpt lat="45.7119917" lon="9.056145"><ele>315.0</ele><time>2026-04-03T12:16:07.008Z</time></trkpt><trkpt lat="45.7120617" lon="9.0561133"><ele>316.0</ele><time>2026-04-03T12:16:10.007Z</time></trkpt><trkpt lat="45.712145" lon="9.0561083"><ele>317.0</ele><time>2026-04-03T12:16:14.007Z</time></trkpt><trkpt lat="45.7122267" lon="9.0560917"><ele>318.0</ele><time>2026-04-03T12:16:18.007Z</time></trkpt><trkpt lat="45.7123017" lon="9.0560817"><ele>319.0</ele><time>2026-04-03T12:16:21.007Z</time></trkpt><trkpt lat="45.71238" lon="9.0560683"><ele>319.0</ele><time>2026-04-03T12:16:25.007Z</time></trkpt><trkpt lat="45.71246" lon="9.0560483"><ele>319.0</ele><time>2026-04-03T12:16:29.007Z</time></trkpt><trkpt lat="45.7125317" lon="9.05603"><ele>319.0</ele><time>2026-04-03T12:16:32.008Z</time></trkpt><trkpt lat="45.7126167" lon="9.0560533"><ele>319.0</ele><time>2026-04-03T12:16:35.007Z</time></trkpt><trkpt lat="45.7126917" lon="9.05606"><ele>319.0</ele><time>2026-04-03T12:16:38.007Z</time></trkpt><trkpt lat="45.7127783" lon="9.0560767"><ele>319.0</ele><time>2026-04-03T12:16:42.008Z</time></trkpt><trkpt lat="45.7128533" lon="9.0560717"><ele>319.16666666666663</ele><time>2026-04-03T12:16:44.007Z</time></trkpt><trkpt lat="45.7129267" lon="9.0560867"><ele>319.3333333333333</ele><time>2026-04-03T12:16:47.008Z</time></trkpt><trkpt lat="45.7130167" lon="9.0560917"><ele>319.5</ele><time>2026-04-03T12:16:50.007Z</time></trkpt><trkpt lat="45.7130783" lon="9.05606"><ele>319.6666666666667</ele><time>2026-04-03T12:16:53.007Z</time></trkpt><trkpt lat="45.7130917" lon="9.0559367"><ele>319.83333333333337</ele><time>2026-04-03T12:16:57.007Z</time></trkpt><trkpt lat="45.71311" lon="9.05582"><ele>320.0</ele><time>2026-04-03T12:17:00.007Z</time></trkpt><trkpt lat="45.7131367" lon="9.0557267"><ele>320.0</ele><time>2026-04-03T12:17:02.007Z</time></trkpt><trkpt lat="45.7131583" lon="9.05564"><ele>320.0</ele><time>2026-04-03T12:17:04.008Z</time></trkpt><trkpt lat="45.7131783" lon="9.0555117"><ele>320.0</ele><time>2026-04-03T12:17:07.007Z</time></trkpt><trkpt lat="45.713185" lon="9.0553883"><ele>320.0</ele><time>2026-04-03T12:17:10.007Z</time></trkpt><trkpt lat="45.7131967" lon="9.0552683"><ele>320.0</ele><time>2026-04-03T12:17:13.007Z</time></trkpt><trkpt lat="45.7132617" lon="9.0552"><ele>320.0</ele><time>2026-04-03T12:17:16.007Z</time></trkpt><trkpt lat="45.7133533" lon="9.0551583"><ele>320.0</ele><time>2026-04-03T12:17:20.007Z</time></trkpt><trkpt lat="45.7134383" lon="9.0551917"><ele>320.0</ele><time>2026-04-03T12:17:23.007Z</time></trkpt><trkpt lat="45.7135083" lon="9.0552233"><ele>320.0</ele><time>2026-04-03T12:17:26.007Z</time></trkpt><trkpt lat="45.713575" lon="9.0552517"><ele>320.0</ele><time>2026-04-03T12:17:29.008Z</time></trkpt><trkpt lat="45.7136617" lon="9.055265"><ele>320.0</ele><time>2026-04-03T12:17:33.007Z</time></trkpt><trkpt lat="45.7137483" lon="9.055285"><ele>320.0</ele><time>2026-04-03T12:17:36.007Z</time></trkpt><trkpt lat="45.71381" lon="9.05531"><ele>320.6</ele><time>2026-04-03T12:17:38.007Z</time></trkpt><trkpt lat="45.7138883" lon="9.055305"><ele>321.2</ele><time>2026-04-03T12:17:40.007Z</time></trkpt><trkpt lat="45.7139917" lon="9.0552617"><ele>321.79999999999995</ele><time>2026-04-03T12:17:42.007Z</time></trkpt><trkpt lat="45.7140867" lon="9.0551967"><ele>322.4</ele><time>2026-04-03T12:17:44.007Z</time></trkpt><trkpt lat="45.7141783" lon="9.0551183"><ele>323.0</ele><time>2026-04-03T12:17:46.008Z</time></trkpt><trkpt lat="45.7142933" lon="9.0550517"><ele>322.75</ele><time>2026-04-03T12:17:48.007Z</time></trkpt><trkpt lat="45.7144083" lon="9.055"><ele>322.5</ele><time>2026-04-03T12:17:50.008Z</time></trkpt><trkpt lat="45.714525" lon="9.05494"><ele>322.25</ele><time>2026-04-03T12:17:52.008Z</time></trkpt><trkpt lat="45.714645" lon="9.05489"><ele>322.0</ele><time>2026-04-03T12:17:54.007Z</time></trkpt><trkpt lat="45.714755" lon="9.0548383"><ele>322.0</ele><time>2026-04-03T12:17:56.007Z</time></trkpt><trkpt lat="45.7148633" lon="9.0547917"><ele>322.0</ele><time>2026-04-03T12:17:58.007Z</time></trkpt><trkpt lat="45.7149717" lon="9.0547467"><ele>322.0</ele><time>2026-04-03T12:18:00.008Z</time></trkpt><trkpt lat="45.7150667" lon="9.0546933"><ele>322.0</ele><time>2026-04-03T12:18:02.007Z</time></trkpt><trkpt lat="45.71516" lon="9.0546517"><ele>322.0</ele><time>2026-04-03T12:18:04.007Z</time></trkpt><trkpt lat="45.71524" lon="9.0545967"><ele>322.66666666666663</ele><time>2026-04-03T12:18:06.007Z</time></trkpt><trkpt lat="45.7153067" lon="9.0545467"><ele>323.3333333333333</ele><time>2026-04-03T12:18:08.008Z</time></trkpt><trkpt lat="45.7153717" lon="9.0545083"><ele>324.0</ele><time>2026-04-03T12:18:10.007Z</time></trkpt><trkpt lat="45.71543" lon="9.0544733"><ele>324.6666666666667</ele><time>2026-04-03T12:18:12.007Z</time></trkpt><trkpt lat="45.7155117" lon="9.0544317"><ele>325.33333333333337</ele><time>2026-04-03T12:18:15.007Z</time></trkpt><trkpt lat="45.715595" lon="9.0543867"><ele>326.0</ele><time>2026-04-03T12:18:18.007Z</time></trkpt><trkpt lat="45.715675" lon="9.0543433"><ele>326.0</ele><time>2026-04-03T12:18:21.008Z</time></trkpt><trkpt lat="45.7157567" lon="9.0542983"><ele>326.0</ele><time>2026-04-03T12:18:24.009Z</time></trkpt><trkpt lat="45.7158517" lon="9.0542633"><ele>326.0</ele><time>2026-04-03T12:18:27.009Z</time></trkpt><trkpt lat="45.7159333" lon="9.054215"><ele>326.0</ele><time>2026-04-03T12:18:30.008Z</time></trkpt><trkpt lat="45.716005" lon="9.0541667"><ele>326.0</ele><time>2026-04-03T12:18:33.009Z</time></trkpt><trkpt lat="45.7160933" lon="9.0541283"><ele>326.0</ele><time>2026-04-03T12:18:36.008Z</time></trkpt><trkpt lat="45.716175" lon="9.0540717"><ele>326.1666666666667</ele><time>2026-04-03T12:18:39.008Z</time></trkpt><trkpt lat="45.7162567" lon="9.0540217"><ele>326.33333333333337</ele><time>2026-04-03T12:18:42.008Z</time></trkpt><trkpt lat="45.7163267" lon="9.054005"><ele>326.5</ele><time>2026-04-03T12:18:44.008Z</time></trkpt><trkpt lat="45.71641" lon="9.0539817"><ele>326.6666666666667</ele><time>2026-04-03T12:18:47.009Z</time></trkpt><trkpt lat="45.7164833" lon="9.05394"><ele>326.8333333333333</ele><time>2026-04-03T12:18:50.008Z</time></trkpt><trkpt lat="45.7165683" lon="9.0538917"><ele>327.0</ele><time>2026-04-03T12:18:53.008Z</time></trkpt><trkpt lat="45.7166533" lon="9.053845"><ele>327.0</ele><time>2026-04-03T12:18:56.009Z</time></trkpt><trkpt lat="45.7167383" lon="9.0538167"><ele>327.0</ele><time>2026-04-03T12:18:59.008Z</time></trkpt><trkpt lat="45.7168283" lon="9.0537817"><ele>327.0</ele><time>2026-04-03T12:19:02.008Z</time></trkpt><trkpt lat="45.7168967" lon="9.053765"><ele>327.0</ele><time>2026-04-03T12:19:04.008Z</time></trkpt><trkpt lat="45.7169617" lon="9.0537467"><ele>327.0</ele><time>2026-04-03T12:19:06.008Z</time></trkpt><trkpt lat="45.7170283" lon="9.0537267"><ele>327.0</ele><time>2026-04-03T12:19:08.008Z</time></trkpt><trkpt lat="45.7171083" lon="9.0537067"><ele>326.6666666666667</ele><time>2026-04-03T12:19:10.008Z</time></trkpt><trkpt lat="45.71719" lon="9.0536933"><ele>326.3333333333333</ele><time>2026-04-03T12:19:12.008Z</time></trkpt><trkpt lat="45.7172717" lon="9.053675"><ele>326.0</ele><time>2026-04-03T12:19:14.008Z</time></trkpt><trkpt lat="45.7173533" lon="9.05365"><ele>325.66666666666663</ele><time>2026-04-03T12:19:16.008Z</time></trkpt><trkpt lat="45.7174417" lon="9.0536217"><ele>325.3333333333333</ele><time>2026-04-03T12:19:18.009Z</time></trkpt><trkpt lat="45.7175217" lon="9.0536"><ele>325.0</ele><time>2026-04-03T12:19:20.009Z</time></trkpt><trkpt lat="45.7175967" lon="9.0535867"><ele>325.0</ele><time>2026-04-03T12:19:22.008Z</time></trkpt><trkpt lat="45.717685" lon="9.0535683"><ele>325.0</ele><time>2026-04-03T12:19:24.008Z</time></trkpt><trkpt lat="45.7177717" lon="9.053545"><ele>325.0</ele><time>2026-04-03T12:19:26.008Z</time></trkpt><trkpt lat="45.7178333" lon="9.0535083"><ele>325.0</ele><time>2026-04-03T12:19:28.008Z</time></trkpt><trkpt lat="45.7178633" lon="9.05341"><ele>325.0</ele><time>2026-04-03T12:19:30.009Z</time></trkpt><trkpt lat="45.7178667" lon="9.053315"><ele>325.0</ele><time>2026-04-03T12:19:32.008Z</time></trkpt><trkpt lat="45.7178483" lon="9.0532217"><ele>324.66666666666663</ele><time>2026-04-03T12:19:34.008Z</time></trkpt><trkpt lat="45.7178117" lon="9.053095"><ele>324.3333333333333</ele><time>2026-04-03T12:19:37.009Z</time></trkpt><trkpt lat="45.7177967" lon="9.0529667"><ele>324.0</ele><time>2026-04-03T12:19:40.008Z</time></trkpt><trkpt lat="45.7177917" lon="9.0528433"><ele>323.6666666666667</ele><time>2026-04-03T12:19:43.008Z</time></trkpt><trkpt lat="45.71777" lon="9.0527417"><ele>323.33333333333337</ele><time>2026-04-03T12:19:45.008Z</time></trkpt><trkpt lat="45.7177433" lon="9.0526483"><ele>323.0</ele><time>2026-04-03T12:19:47.008Z</time></trkpt><trkpt lat="45.71765" lon="9.05263"><ele>322.83333333333337</ele><time>2026-04-03T12:19:50.008Z</time></trkpt><trkpt lat="45.7175817" lon="9.052635"><ele>322.6666666666667</ele><time>2026-04-03T12:19:52.009Z</time></trkpt><trkpt lat="45.71751" lon="9.0526483"><ele>322.5</ele><time>2026-04-03T12:19:54.008Z</time></trkpt><trkpt lat="45.717425" lon="9.0526833"><ele>322.3333333333333</ele><time>2026-04-03T12:19:56.009Z</time></trkpt><trkpt lat="45.71734" lon="9.0527033"><ele>322.16666666666663</ele><time>2026-04-03T12:19:58.009Z</time></trkpt><trkpt lat="45.717255" lon="9.0527217"><ele>322.0</ele><time>2026-04-03T12:20:00.008Z</time></trkpt><trkpt lat="45.717175" lon="9.05274"><ele>322.0</ele><time>2026-04-03T12:20:02.008Z</time></trkpt><trkpt lat="45.7170967" lon="9.05276"><ele>322.0</ele><time>2026-04-03T12:20:04.008Z</time></trkpt><trkpt lat="45.7170367" lon="9.052695"><ele>322.0</ele><time>2026-04-03T12:20:08.008Z</time></trkpt><trkpt lat="45.7170333" lon="9.0525817"><ele>322.0</ele><time>2026-04-03T12:20:11.008Z</time></trkpt><trkpt lat="45.7170183" lon="9.0524917"><ele>322.0</ele><time>2026-04-03T12:20:13.009Z</time></trkpt><trkpt lat="45.7170033" lon="9.0523933"><ele>322.0</ele><time>2026-04-03T12:20:15.009Z</time></trkpt><trkpt lat="45.7169867" lon="9.05227"><ele>321.7142857142857</ele><time>2026-04-03T12:20:18.009Z</time></trkpt><trkpt lat="45.7169733" lon="9.0521667"><ele>321.42857142857144</ele><time>2026-04-03T12:20:21.008Z</time></trkpt><trkpt lat="45.716955" lon="9.05204"><ele>321.1428571428571</ele><time>2026-04-03T12:20:24.009Z</time></trkpt><trkpt lat="45.7169333" lon="9.0519517"><ele>320.8571428571429</ele><time>2026-04-03T12:20:26.009Z</time></trkpt><trkpt lat="45.71692" lon="9.051855"><ele>320.57142857142856</ele><time>2026-04-03T12:20:28.008Z</time></trkpt><trkpt lat="45.7169283" lon="9.0517317"><ele>320.2857142857143</ele><time>2026-04-03T12:20:31.008Z</time></trkpt><trkpt lat="45.716945" lon="9.0516433"><ele>320.0</ele><time>2026-04-03T12:20:33.008Z</time></trkpt><trkpt lat="45.7169583" lon="9.0515517"><ele>320.0</ele><time>2026-04-03T12:20:35.008Z</time></trkpt><trkpt lat="45.716975" lon="9.0514383"><ele>320.0</ele><time>2026-04-03T12:20:38.008Z</time></trkpt><trkpt lat="45.7169517" lon="9.05134"><ele>320.0</ele><time>2026-04-03T12:20:41.008Z</time></trkpt><trkpt lat="45.7169533" lon="9.0512333"><ele>320.0</ele><time>2026-04-03T12:20:45.008Z</time></trkpt><trkpt lat="45.7169133" lon="9.0511167"><ele>320.0</ele><time>2026-04-03T12:20:48.008Z</time></trkpt><trkpt lat="45.7168733" lon="9.0510367"><ele>320.0</ele><time>2026-04-03T12:20:51.008Z</time></trkpt><trkpt lat="45.7167967" lon="9.0509817"><ele>319.83333333333337</ele><time>2026-04-03T12:20:54.008Z</time></trkpt><trkpt lat="45.7167167" lon="9.0509367"><ele>319.6666666666667</ele><time>2026-04-03T12:20:57.008Z</time></trkpt><trkpt lat="45.7166483" lon="9.0508917"><ele>319.5</ele><time>2026-04-03T12:20:59.008Z</time></trkpt><trkpt lat="45.7165867" lon="9.05086"><ele>319.3333333333333</ele><time>2026-04-03T12:21:01.008Z</time></trkpt><trkpt lat="45.71649" lon="9.0508417"><ele>319.16666666666663</ele><time>2026-04-03T12:21:04.008Z</time></trkpt><trkpt lat="45.71642" lon="9.0508267"><ele>319.0</ele><time>2026-04-03T12:21:06.009Z</time></trkpt><trkpt lat="45.7163483" lon="9.0508"><ele>319.0</ele><time>2026-04-03T12:21:08.009Z</time></trkpt><trkpt lat="45.7162683" lon="9.0507933"><ele>319.0</ele><time>2026-04-03T12:21:10.008Z</time></trkpt><trkpt lat="45.7161783" lon="9.0507767"><ele>319.0</ele><time>2026-04-03T12:21:13.009Z</time></trkpt><trkpt lat="45.71611" lon="9.050785"><ele>319.0</ele><time>2026-04-03T12:21:15.009Z</time></trkpt><trkpt lat="45.7160367" lon="9.0507933"><ele>319.0</ele><time>2026-04-03T12:21:17.009Z</time></trkpt><trkpt lat="45.7159283" lon="9.0507933"><ele>319.0</ele><time>2026-04-03T12:21:19.009Z</time></trkpt><trkpt lat="45.7158383" lon="9.0507933"><ele>319.16666666666663</ele><time>2026-04-03T12:21:21.008Z</time></trkpt><trkpt lat="45.7157617" lon="9.0507967"><ele>319.3333333333333</ele><time>2026-04-03T12:21:23.008Z</time></trkpt><trkpt lat="45.7156883" lon="9.0508033"><ele>319.5</ele><time>2026-04-03T12:21:25.008Z</time></trkpt><trkpt lat="45.715615" lon="9.0508017"><ele>319.6666666666667</ele><time>2026-04-03T12:21:27.008Z</time></trkpt><trkpt lat="45.7155417" lon="9.0507967"><ele>319.83333333333337</ele><time>2026-04-03T12:21:29.008Z</time></trkpt><trkpt lat="45.715475" lon="9.050785"><ele>320.0</ele><time>2026-04-03T12:21:31.008Z</time></trkpt><trkpt lat="45.7153867" lon="9.0507383"><ele>319.1666666666667</ele><time>2026-04-03T12:21:34.008Z</time></trkpt><trkpt lat="45.715325" lon="9.0507167"><ele>318.33333333333337</ele><time>2026-04-03T12:21:36.008Z</time></trkpt><trkpt lat="45.71525" lon="9.050685"><ele>317.5</ele><time>2026-04-03T12:21:39.008Z</time></trkpt><trkpt lat="45.7151833" lon="9.0506317"><ele>316.6666666666667</ele><time>2026-04-03T12:21:41.009Z</time></trkpt><trkpt lat="45.715115" lon="9.0505817"><ele>315.8333333333333</ele><time>2026-04-03T12:21:43.009Z</time></trkpt><trkpt lat="45.7150267" lon="9.05053"><ele>315.0</ele><time>2026-04-03T12:21:45.009Z</time></trkpt><trkpt lat="45.714955" lon="9.0504983"><ele>315.0</ele><time>2026-04-03T12:21:47.009Z</time></trkpt><trkpt lat="45.7148617" lon="9.05048"><ele>315.0</ele><time>2026-04-03T12:21:50.008Z</time></trkpt><trkpt lat="45.71479" lon="9.0504633"><ele>315.0</ele><time>2026-04-03T12:21:52.009Z</time></trkpt><trkpt lat="45.7147217" lon="9.0504533"><ele>315.0</ele><time>2026-04-03T12:21:54.008Z</time></trkpt><trkpt lat="45.7146483" lon="9.0504283"><ele>315.0</ele><time>2026-04-03T12:21:57.009Z</time></trkpt><trkpt lat="45.71455" lon="9.05041"><ele>315.0</ele><time>2026-04-03T12:22:00.009Z</time></trkpt><trkpt lat="45.714465" lon="9.050365"><ele>314.1666666666667</ele><time>2026-04-03T12:22:03.008Z</time></trkpt><trkpt lat="45.71438" lon="9.0503483"><ele>313.3333333333333</ele><time>2026-04-03T12:22:06.009Z</time></trkpt><trkpt lat="45.71431" lon="9.05035"><ele>312.5</ele><time>2026-04-03T12:22:08.008Z</time></trkpt><trkpt lat="45.71423" lon="9.0503483"><ele>311.66666666666663</ele><time>2026-04-03T12:22:10.009Z</time></trkpt><trkpt lat="45.7141583" lon="9.05034"><ele>310.8333333333333</ele><time>2026-04-03T12:22:14.008Z</time></trkpt><trkpt lat="45.7140733" lon="9.0503133"><ele>310.0</ele><time>2026-04-03T12:22:17.008Z</time></trkpt><trkpt lat="45.7140033" lon="9.0503167"><ele>310.0</ele><time>2026-04-03T12:22:19.009Z</time></trkpt><trkpt lat="45.7139283" lon="9.0503067"><ele>310.0</ele><time>2026-04-03T12:22:22.008Z</time></trkpt><trkpt lat="45.7138467" lon="9.0503483"><ele>310.0</ele><time>2026-04-03T12:22:26.008Z</time></trkpt><trkpt lat="45.713715" lon="9.0504133"><ele>310.0</ele><time>2026-04-03T12:23:00.008Z</time></trkpt></trkseg></trk></gpx>